<?xml version="1.0" encoding="UTF-8" standalone="no" ?>
<gpx xmlns="http://www.topografix.com/GPX/1/1" xmlns:xsi="http://www.w3.org/2001/XMLSchema-instance" xsi:schemaLocation="http://www.topografix.com/GPX/1/1 http://www.topografix.com/GPX/1/1/gpx.xsd" version="1.1" creator="VisuGPX - https://www.visugpx.com">
  <metadata>
    <name>Naves-Brahic, Ardèche</name>
    <desc><![CDATA[Départ du cimetière de Naves, montée dans le cirque qui domine Naves puis vers les Alouzous jusqu\'au point haut 538. Descente vers le magnifique village Brahic puis retour sur Naves également magnifique.]]></desc>
  </metadata>
  <trk>
    <name><![CDATA[9 mai 2014 09:19:11]]></name>
    <cmt><![CDATA[9 mai 2014 09:19:11]]></cmt>
    <trkseg>
      <trkpt lat="44.40279" lon="4.10966">
        <ele>248</ele>
        <time>2014-05-09T07:19:12Z</time>
      </trkpt>
      <trkpt lat="44.40285" lon="4.10965">
        <ele>258</ele>
        <time>2014-05-09T07:20:17Z</time>
      </trkpt>
      <trkpt lat="44.40289" lon="4.10971">
        <ele>265</ele>
        <time>2014-05-09T07:21:53Z</time>
      </trkpt>
      <trkpt lat="44.40291" lon="4.10979">
        <ele>265</ele>
        <time>2014-05-09T07:21:57Z</time>
      </trkpt>
      <trkpt lat="44.40292" lon="4.10985">
        <ele>266</ele>
        <time>2014-05-09T07:22:01Z</time>
      </trkpt>
      <trkpt lat="44.40295" lon="4.1099">
        <ele>266</ele>
        <time>2014-05-09T07:22:11Z</time>
      </trkpt>
      <trkpt lat="44.40297" lon="4.10991">
        <ele>265</ele>
        <time>2014-05-09T07:23:06Z</time>
      </trkpt>
      <trkpt lat="44.40301" lon="4.10989">
        <ele>264</ele>
        <time>2014-05-09T07:23:11Z</time>
      </trkpt>
      <trkpt lat="44.40307" lon="4.10992">
        <ele>267</ele>
        <time>2014-05-09T07:23:25Z</time>
      </trkpt>
      <trkpt lat="44.40313" lon="4.10988">
        <ele>270</ele>
        <time>2014-05-09T07:23:32Z</time>
      </trkpt>
      <trkpt lat="44.40318" lon="4.10992">
        <ele>271</ele>
        <time>2014-05-09T07:23:45Z</time>
      </trkpt>
      <trkpt lat="44.40326" lon="4.10991">
        <ele>271</ele>
        <time>2014-05-09T07:23:49Z</time>
      </trkpt>
      <trkpt lat="44.4033" lon="4.10989">
        <ele>271</ele>
        <time>2014-05-09T07:23:55Z</time>
      </trkpt>
      <trkpt lat="44.40332" lon="4.10992">
        <ele>268</ele>
        <time>2014-05-09T07:24:18Z</time>
      </trkpt>
      <trkpt lat="44.40337" lon="4.10998">
        <ele>268</ele>
        <time>2014-05-09T07:24:36Z</time>
      </trkpt>
      <trkpt lat="44.40339" lon="4.11001">
        <ele>270</ele>
        <time>2014-05-09T07:24:48Z</time>
      </trkpt>
      <trkpt lat="44.40341" lon="4.11004">
        <ele>267</ele>
        <time>2014-05-09T07:25:54Z</time>
      </trkpt>
      <trkpt lat="44.40345" lon="4.11008">
        <ele>263</ele>
        <time>2014-05-09T07:26:19Z</time>
      </trkpt>
      <trkpt lat="44.40348" lon="4.1101">
        <ele>263</ele>
        <time>2014-05-09T07:26:26Z</time>
      </trkpt>
      <trkpt lat="44.40352" lon="4.11016">
        <ele>266</ele>
        <time>2014-05-09T07:26:43Z</time>
      </trkpt>
      <trkpt lat="44.40354" lon="4.11022">
        <ele>268</ele>
        <time>2014-05-09T07:26:50Z</time>
      </trkpt>
      <trkpt lat="44.40356" lon="4.11034">
        <ele>272</ele>
        <time>2014-05-09T07:27:06Z</time>
      </trkpt>
      <trkpt lat="44.40361" lon="4.11035">
        <ele>273</ele>
        <time>2014-05-09T07:27:15Z</time>
      </trkpt>
      <trkpt lat="44.40364" lon="4.11033">
        <ele>273</ele>
        <time>2014-05-09T07:27:21Z</time>
      </trkpt>
      <trkpt lat="44.40368" lon="4.11033">
        <ele>275</ele>
        <time>2014-05-09T07:27:34Z</time>
      </trkpt>
      <trkpt lat="44.40369" lon="4.11036">
        <ele>277</ele>
        <time>2014-05-09T07:27:39Z</time>
      </trkpt>
      <trkpt lat="44.40374" lon="4.11039">
        <ele>279</ele>
        <time>2014-05-09T07:27:54Z</time>
      </trkpt>
      <trkpt lat="44.40379" lon="4.11032">
        <ele>278</ele>
        <time>2014-05-09T07:28:13Z</time>
      </trkpt>
      <trkpt lat="44.40381" lon="4.11027">
        <ele>277</ele>
        <time>2014-05-09T07:28:24Z</time>
      </trkpt>
      <trkpt lat="44.40384" lon="4.11022">
        <ele>277</ele>
        <time>2014-05-09T07:28:32Z</time>
      </trkpt>
      <trkpt lat="44.40386" lon="4.11018">
        <ele>277</ele>
        <time>2014-05-09T07:28:43Z</time>
      </trkpt>
      <trkpt lat="44.40387" lon="4.11012">
        <ele>278</ele>
        <time>2014-05-09T07:28:48Z</time>
      </trkpt>
      <trkpt lat="44.40389" lon="4.11005">
        <ele>280</ele>
        <time>2014-05-09T07:28:54Z</time>
      </trkpt>
      <trkpt lat="44.40391" lon="4.10999">
        <ele>280</ele>
        <time>2014-05-09T07:29:00Z</time>
      </trkpt>
      <trkpt lat="44.40392" lon="4.10992">
        <ele>279</ele>
        <time>2014-05-09T07:29:06Z</time>
      </trkpt>
      <trkpt lat="44.40395" lon="4.10988">
        <ele>280</ele>
        <time>2014-05-09T07:29:15Z</time>
      </trkpt>
      <trkpt lat="44.40398" lon="4.1099">
        <ele>282</ele>
        <time>2014-05-09T07:29:31Z</time>
      </trkpt>
      <trkpt lat="44.40398" lon="4.10997">
        <ele>282</ele>
        <time>2014-05-09T07:29:39Z</time>
      </trkpt>
      <trkpt lat="44.40398" lon="4.11002">
        <ele>282</ele>
        <time>2014-05-09T07:29:50Z</time>
      </trkpt>
      <trkpt lat="44.40399" lon="4.11005">
        <ele>284</ele>
        <time>2014-05-09T07:29:55Z</time>
      </trkpt>
      <trkpt lat="44.40398" lon="4.11012">
        <ele>285</ele>
        <time>2014-05-09T07:30:04Z</time>
      </trkpt>
      <trkpt lat="44.40399" lon="4.11018">
        <ele>285</ele>
        <time>2014-05-09T07:30:14Z</time>
      </trkpt>
      <trkpt lat="44.40401" lon="4.11031">
        <ele>291</ele>
        <time>2014-05-09T07:30:45Z</time>
      </trkpt>
      <trkpt lat="44.40401" lon="4.11037">
        <ele>291</ele>
        <time>2014-05-09T07:30:53Z</time>
      </trkpt>
      <trkpt lat="44.40403" lon="4.11041">
        <ele>297</ele>
        <time>2014-05-09T07:31:23Z</time>
      </trkpt>
      <trkpt lat="44.40407" lon="4.11041">
        <ele>299</ele>
        <time>2014-05-09T07:31:46Z</time>
      </trkpt>
      <trkpt lat="44.40409" lon="4.11047">
        <ele>299</ele>
        <time>2014-05-09T07:31:56Z</time>
      </trkpt>
      <trkpt lat="44.4041" lon="4.11055">
        <ele>298</ele>
        <time>2014-05-09T07:32:07Z</time>
      </trkpt>
      <trkpt lat="44.40412" lon="4.11066">
        <ele>301</ele>
        <time>2014-05-09T07:32:30Z</time>
      </trkpt>
      <trkpt lat="44.40417" lon="4.11061">
        <ele>301</ele>
        <time>2014-05-09T07:32:40Z</time>
      </trkpt>
      <trkpt lat="44.40419" lon="4.11055">
        <ele>302</ele>
        <time>2014-05-09T07:32:47Z</time>
      </trkpt>
      <trkpt lat="44.40423" lon="4.11043">
        <ele>308</ele>
        <time>2014-05-09T07:33:20Z</time>
      </trkpt>
      <trkpt lat="44.40426" lon="4.11036">
        <ele>310</ele>
        <time>2014-05-09T07:33:30Z</time>
      </trkpt>
      <trkpt lat="44.4043" lon="4.11031">
        <ele>312</ele>
        <time>2014-05-09T07:33:44Z</time>
      </trkpt>
      <trkpt lat="44.40432" lon="4.11025">
        <ele>312</ele>
        <time>2014-05-09T07:33:52Z</time>
      </trkpt>
      <trkpt lat="44.40434" lon="4.11016">
        <ele>318</ele>
        <time>2014-05-09T07:34:06Z</time>
      </trkpt>
      <trkpt lat="44.40435" lon="4.1101">
        <ele>319</ele>
        <time>2014-05-09T07:34:12Z</time>
      </trkpt>
      <trkpt lat="44.40435" lon="4.11003">
        <ele>320</ele>
        <time>2014-05-09T07:34:21Z</time>
      </trkpt>
      <trkpt lat="44.40438" lon="4.10997">
        <ele>320</ele>
        <time>2014-05-09T07:34:26Z</time>
      </trkpt>
      <trkpt lat="44.40442" lon="4.10988">
        <ele>320</ele>
        <time>2014-05-09T07:34:39Z</time>
      </trkpt>
      <trkpt lat="44.40443" lon="4.10981">
        <ele>321</ele>
        <time>2014-05-09T07:34:48Z</time>
      </trkpt>
      <trkpt lat="44.40447" lon="4.10975">
        <ele>322</ele>
        <time>2014-05-09T07:34:56Z</time>
      </trkpt>
      <trkpt lat="44.40448" lon="4.10968">
        <ele>322</ele>
        <time>2014-05-09T07:35:04Z</time>
      </trkpt>
      <trkpt lat="44.4045" lon="4.10961">
        <ele>322</ele>
        <time>2014-05-09T07:35:08Z</time>
      </trkpt>
      <trkpt lat="44.40451" lon="4.10955">
        <ele>323</ele>
        <time>2014-05-09T07:35:14Z</time>
      </trkpt>
      <trkpt lat="44.40451" lon="4.10948">
        <ele>324</ele>
        <time>2014-05-09T07:35:20Z</time>
      </trkpt>
      <trkpt lat="44.40453" lon="4.10942">
        <ele>325</ele>
        <time>2014-05-09T07:35:25Z</time>
      </trkpt>
      <trkpt lat="44.40455" lon="4.10936">
        <ele>326</ele>
        <time>2014-05-09T07:35:30Z</time>
      </trkpt>
      <trkpt lat="44.40458" lon="4.10931">
        <ele>327</ele>
        <time>2014-05-09T07:35:38Z</time>
      </trkpt>
      <trkpt lat="44.40461" lon="4.10926">
        <ele>328</ele>
        <time>2014-05-09T07:35:44Z</time>
      </trkpt>
      <trkpt lat="44.40463" lon="4.10928">
        <ele>325</ele>
        <time>2014-05-09T07:39:17Z</time>
      </trkpt>
      <trkpt lat="44.40464" lon="4.1092">
        <ele>325</ele>
        <time>2014-05-09T07:39:53Z</time>
      </trkpt>
      <trkpt lat="44.40464" lon="4.10913">
        <ele>325</ele>
        <time>2014-05-09T07:39:58Z</time>
      </trkpt>
      <trkpt lat="44.40464" lon="4.10906">
        <ele>324</ele>
        <time>2014-05-09T07:40:04Z</time>
      </trkpt>
      <trkpt lat="44.40465" lon="4.10899">
        <ele>324</ele>
        <time>2014-05-09T07:40:09Z</time>
      </trkpt>
      <trkpt lat="44.40465" lon="4.10891">
        <ele>324</ele>
        <time>2014-05-09T07:40:15Z</time>
      </trkpt>
      <trkpt lat="44.40464" lon="4.10884">
        <ele>326</ele>
        <time>2014-05-09T07:40:23Z</time>
      </trkpt>
      <trkpt lat="44.40466" lon="4.10875">
        <ele>326</ele>
        <time>2014-05-09T07:40:34Z</time>
      </trkpt>
      <trkpt lat="44.40465" lon="4.10865">
        <ele>326</ele>
        <time>2014-05-09T07:40:46Z</time>
      </trkpt>
      <trkpt lat="44.40466" lon="4.10858">
        <ele>328</ele>
        <time>2014-05-09T07:40:52Z</time>
      </trkpt>
      <trkpt lat="44.40466" lon="4.10851">
        <ele>330</ele>
        <time>2014-05-09T07:41:02Z</time>
      </trkpt>
      <trkpt lat="44.40465" lon="4.10844">
        <ele>331</ele>
        <time>2014-05-09T07:41:06Z</time>
      </trkpt>
      <trkpt lat="44.40465" lon="4.10837">
        <ele>330</ele>
        <time>2014-05-09T07:41:13Z</time>
      </trkpt>
      <trkpt lat="44.40463" lon="4.1083">
        <ele>331</ele>
        <time>2014-05-09T07:41:21Z</time>
      </trkpt>
      <trkpt lat="44.40463" lon="4.10823">
        <ele>332</ele>
        <time>2014-05-09T07:41:27Z</time>
      </trkpt>
      <trkpt lat="44.40461" lon="4.10818">
        <ele>333</ele>
        <time>2014-05-09T07:41:32Z</time>
      </trkpt>
      <trkpt lat="44.4046" lon="4.10811">
        <ele>333</ele>
        <time>2014-05-09T07:41:39Z</time>
      </trkpt>
      <trkpt lat="44.40458" lon="4.10808">
        <ele>335</ele>
        <time>2014-05-09T07:41:59Z</time>
      </trkpt>
      <trkpt lat="44.40457" lon="4.10801">
        <ele>334</ele>
        <time>2014-05-09T07:42:07Z</time>
      </trkpt>
      <trkpt lat="44.40456" lon="4.10794">
        <ele>335</ele>
        <time>2014-05-09T07:42:15Z</time>
      </trkpt>
      <trkpt lat="44.40455" lon="4.10787">
        <ele>336</ele>
        <time>2014-05-09T07:42:28Z</time>
      </trkpt>
      <trkpt lat="44.40455" lon="4.10778">
        <ele>339</ele>
        <time>2014-05-09T07:42:40Z</time>
      </trkpt>
      <trkpt lat="44.40454" lon="4.10768">
        <ele>337</ele>
        <time>2014-05-09T07:42:55Z</time>
      </trkpt>
      <trkpt lat="44.40453" lon="4.10762">
        <ele>338</ele>
        <time>2014-05-09T07:43:02Z</time>
      </trkpt>
      <trkpt lat="44.4045" lon="4.10757">
        <ele>341</ele>
        <time>2014-05-09T07:43:10Z</time>
      </trkpt>
      <trkpt lat="44.40448" lon="4.10752">
        <ele>341</ele>
        <time>2014-05-09T07:43:17Z</time>
      </trkpt>
      <trkpt lat="44.4045" lon="4.10745">
        <ele>341</ele>
        <time>2014-05-09T07:43:25Z</time>
      </trkpt>
      <trkpt lat="44.40454" lon="4.10741">
        <ele>344</ele>
        <time>2014-05-09T07:43:33Z</time>
      </trkpt>
      <trkpt lat="44.40456" lon="4.10735">
        <ele>344</ele>
        <time>2014-05-09T07:43:43Z</time>
      </trkpt>
      <trkpt lat="44.40454" lon="4.1073">
        <ele>346</ele>
        <time>2014-05-09T07:43:54Z</time>
      </trkpt>
      <trkpt lat="44.40452" lon="4.10724">
        <ele>346</ele>
        <time>2014-05-09T07:44:01Z</time>
      </trkpt>
      <trkpt lat="44.40451" lon="4.10715">
        <ele>349</ele>
        <time>2014-05-09T07:44:14Z</time>
      </trkpt>
      <trkpt lat="44.40451" lon="4.10708">
        <ele>348</ele>
        <time>2014-05-09T07:44:21Z</time>
      </trkpt>
      <trkpt lat="44.40451" lon="4.10701">
        <ele>348</ele>
        <time>2014-05-09T07:44:27Z</time>
      </trkpt>
      <trkpt lat="44.40451" lon="4.10694">
        <ele>350</ele>
        <time>2014-05-09T07:44:34Z</time>
      </trkpt>
      <trkpt lat="44.40451" lon="4.10687">
        <ele>350</ele>
        <time>2014-05-09T07:44:42Z</time>
      </trkpt>
      <trkpt lat="44.40452" lon="4.10681">
        <ele>352</ele>
        <time>2014-05-09T07:44:49Z</time>
      </trkpt>
      <trkpt lat="44.40452" lon="4.10677">
        <ele>351</ele>
        <time>2014-05-09T07:44:55Z</time>
      </trkpt>
      <trkpt lat="44.40453" lon="4.10671">
        <ele>352</ele>
        <time>2014-05-09T07:45:05Z</time>
      </trkpt>
      <trkpt lat="44.40452" lon="4.10665">
        <ele>353</ele>
        <time>2014-05-09T07:45:22Z</time>
      </trkpt>
      <trkpt lat="44.40455" lon="4.10659">
        <ele>353</ele>
        <time>2014-05-09T07:45:37Z</time>
      </trkpt>
      <trkpt lat="44.40453" lon="4.10649">
        <ele>355</ele>
        <time>2014-05-09T07:45:55Z</time>
      </trkpt>
      <trkpt lat="44.40453" lon="4.10644">
        <ele>356</ele>
        <time>2014-05-09T07:46:04Z</time>
      </trkpt>
      <trkpt lat="44.40452" lon="4.10638">
        <ele>358</ele>
        <time>2014-05-09T07:46:12Z</time>
      </trkpt>
      <trkpt lat="44.4045" lon="4.1063">
        <ele>361</ele>
        <time>2014-05-09T07:46:24Z</time>
      </trkpt>
      <trkpt lat="44.40448" lon="4.10624">
        <ele>361</ele>
        <time>2014-05-09T07:46:32Z</time>
      </trkpt>
      <trkpt lat="44.40448" lon="4.1062">
        <ele>362</ele>
        <time>2014-05-09T07:46:38Z</time>
      </trkpt>
      <trkpt lat="44.40447" lon="4.10616">
        <ele>363</ele>
        <time>2014-05-09T07:46:45Z</time>
      </trkpt>
      <trkpt lat="44.40446" lon="4.10613">
        <ele>364</ele>
        <time>2014-05-09T07:46:55Z</time>
      </trkpt>
      <trkpt lat="44.40446" lon="4.10607">
        <ele>366</ele>
        <time>2014-05-09T07:47:13Z</time>
      </trkpt>
      <trkpt lat="44.40446" lon="4.10601">
        <ele>367</ele>
        <time>2014-05-09T07:47:23Z</time>
      </trkpt>
      <trkpt lat="44.40444" lon="4.10597">
        <ele>370</ele>
        <time>2014-05-09T07:50:09Z</time>
      </trkpt>
      <trkpt lat="44.40442" lon="4.1059">
        <ele>371</ele>
        <time>2014-05-09T07:51:04Z</time>
      </trkpt>
      <trkpt lat="44.4044" lon="4.10583">
        <ele>370</ele>
        <time>2014-05-09T07:51:11Z</time>
      </trkpt>
      <trkpt lat="44.40439" lon="4.10577">
        <ele>369</ele>
        <time>2014-05-09T07:51:15Z</time>
      </trkpt>
      <trkpt lat="44.40436" lon="4.1057">
        <ele>370</ele>
        <time>2014-05-09T07:51:21Z</time>
      </trkpt>
      <trkpt lat="44.40435" lon="4.10563">
        <ele>373</ele>
        <time>2014-05-09T07:51:27Z</time>
      </trkpt>
      <trkpt lat="44.40435" lon="4.10554">
        <ele>370</ele>
        <time>2014-05-09T07:51:42Z</time>
      </trkpt>
      <trkpt lat="44.40434" lon="4.10545">
        <ele>370</ele>
        <time>2014-05-09T07:51:56Z</time>
      </trkpt>
      <trkpt lat="44.40434" lon="4.10538">
        <ele>371</ele>
        <time>2014-05-09T07:52:03Z</time>
      </trkpt>
      <trkpt lat="44.40435" lon="4.10531">
        <ele>371</ele>
        <time>2014-05-09T07:52:09Z</time>
      </trkpt>
      <trkpt lat="44.40436" lon="4.10525">
        <ele>372</ele>
        <time>2014-05-09T07:52:16Z</time>
      </trkpt>
      <trkpt lat="44.40437" lon="4.10519">
        <ele>374</ele>
        <time>2014-05-09T07:52:27Z</time>
      </trkpt>
      <trkpt lat="44.40439" lon="4.10507">
        <ele>374</ele>
        <time>2014-05-09T07:52:45Z</time>
      </trkpt>
      <trkpt lat="44.4044" lon="4.10499">
        <ele>373</ele>
        <time>2014-05-09T07:52:49Z</time>
      </trkpt>
      <trkpt lat="44.40442" lon="4.10493">
        <ele>374</ele>
        <time>2014-05-09T07:52:54Z</time>
      </trkpt>
      <trkpt lat="44.40444" lon="4.10486">
        <ele>375</ele>
        <time>2014-05-09T07:53:09Z</time>
      </trkpt>
      <trkpt lat="44.40444" lon="4.10482">
        <ele>375</ele>
        <time>2014-05-09T07:53:15Z</time>
      </trkpt>
      <trkpt lat="44.40445" lon="4.10475">
        <ele>376</ele>
        <time>2014-05-09T07:53:21Z</time>
      </trkpt>
      <trkpt lat="44.40446" lon="4.10469">
        <ele>377</ele>
        <time>2014-05-09T07:53:32Z</time>
      </trkpt>
      <trkpt lat="44.40445" lon="4.10459">
        <ele>376</ele>
        <time>2014-05-09T07:53:38Z</time>
      </trkpt>
      <trkpt lat="44.40443" lon="4.1045">
        <ele>375</ele>
        <time>2014-05-09T07:53:53Z</time>
      </trkpt>
      <trkpt lat="44.40444" lon="4.10443">
        <ele>374</ele>
        <time>2014-05-09T07:54:00Z</time>
      </trkpt>
      <trkpt lat="44.40443" lon="4.10435">
        <ele>374</ele>
        <time>2014-05-09T07:54:07Z</time>
      </trkpt>
      <trkpt lat="44.40442" lon="4.10429">
        <ele>374</ele>
        <time>2014-05-09T07:54:13Z</time>
      </trkpt>
      <trkpt lat="44.4044" lon="4.10423">
        <ele>375</ele>
        <time>2014-05-09T07:54:17Z</time>
      </trkpt>
      <trkpt lat="44.40438" lon="4.10416">
        <ele>378</ele>
        <time>2014-05-09T07:54:26Z</time>
      </trkpt>
      <trkpt lat="44.40438" lon="4.10405">
        <ele>378</ele>
        <time>2014-05-09T07:54:40Z</time>
      </trkpt>
      <trkpt lat="44.40437" lon="4.10398">
        <ele>378</ele>
        <time>2014-05-09T07:54:47Z</time>
      </trkpt>
      <trkpt lat="44.40436" lon="4.10392">
        <ele>378</ele>
        <time>2014-05-09T07:54:53Z</time>
      </trkpt>
      <trkpt lat="44.40434" lon="4.1039">
        <ele>379</ele>
        <time>2014-05-09T07:54:59Z</time>
      </trkpt>
      <trkpt lat="44.40434" lon="4.10383">
        <ele>380</ele>
        <time>2014-05-09T07:55:05Z</time>
      </trkpt>
      <trkpt lat="44.40434" lon="4.10377">
        <ele>380</ele>
        <time>2014-05-09T07:55:17Z</time>
      </trkpt>
      <trkpt lat="44.40436" lon="4.10371">
        <ele>381</ele>
        <time>2014-05-09T07:55:27Z</time>
      </trkpt>
      <trkpt lat="44.40434" lon="4.10365">
        <ele>381</ele>
        <time>2014-05-09T07:55:34Z</time>
      </trkpt>
      <trkpt lat="44.40432" lon="4.10358">
        <ele>382</ele>
        <time>2014-05-09T07:55:39Z</time>
      </trkpt>
      <trkpt lat="44.40432" lon="4.1035">
        <ele>383</ele>
        <time>2014-05-09T07:55:49Z</time>
      </trkpt>
      <trkpt lat="44.40429" lon="4.10344">
        <ele>384</ele>
        <time>2014-05-09T07:55:54Z</time>
      </trkpt>
      <trkpt lat="44.40428" lon="4.10337">
        <ele>384</ele>
        <time>2014-05-09T07:56:00Z</time>
      </trkpt>
      <trkpt lat="44.40427" lon="4.10331">
        <ele>384</ele>
        <time>2014-05-09T07:56:08Z</time>
      </trkpt>
      <trkpt lat="44.40426" lon="4.10324">
        <ele>384</ele>
        <time>2014-05-09T07:56:15Z</time>
      </trkpt>
      <trkpt lat="44.40425" lon="4.10317">
        <ele>383</ele>
        <time>2014-05-09T07:56:25Z</time>
      </trkpt>
      <trkpt lat="44.40426" lon="4.10309">
        <ele>384</ele>
        <time>2014-05-09T07:56:33Z</time>
      </trkpt>
      <trkpt lat="44.40425" lon="4.10303">
        <ele>383</ele>
        <time>2014-05-09T07:56:38Z</time>
      </trkpt>
      <trkpt lat="44.40425" lon="4.10295">
        <ele>384</ele>
        <time>2014-05-09T07:56:45Z</time>
      </trkpt>
      <trkpt lat="44.40423" lon="4.10289">
        <ele>384</ele>
        <time>2014-05-09T07:56:52Z</time>
      </trkpt>
      <trkpt lat="44.40423" lon="4.10282">
        <ele>386</ele>
        <time>2014-05-09T07:56:57Z</time>
      </trkpt>
      <trkpt lat="44.40424" lon="4.10275">
        <ele>387</ele>
        <time>2014-05-09T07:57:03Z</time>
      </trkpt>
      <trkpt lat="44.40423" lon="4.10267">
        <ele>387</ele>
        <time>2014-05-09T07:57:10Z</time>
      </trkpt>
      <trkpt lat="44.40425" lon="4.10261">
        <ele>388</ele>
        <time>2014-05-09T07:57:15Z</time>
      </trkpt>
      <trkpt lat="44.40426" lon="4.10254">
        <ele>388</ele>
        <time>2014-05-09T07:57:25Z</time>
      </trkpt>
      <trkpt lat="44.40426" lon="4.10245">
        <ele>388</ele>
        <time>2014-05-09T07:57:34Z</time>
      </trkpt>
      <trkpt lat="44.40425" lon="4.10238">
        <ele>387</ele>
        <time>2014-05-09T07:57:37Z</time>
      </trkpt>
      <trkpt lat="44.40425" lon="4.10232">
        <ele>387</ele>
        <time>2014-05-09T07:57:43Z</time>
      </trkpt>
      <trkpt lat="44.40425" lon="4.10222">
        <ele>388</ele>
        <time>2014-05-09T07:57:53Z</time>
      </trkpt>
      <trkpt lat="44.40423" lon="4.10216">
        <ele>389</ele>
        <time>2014-05-09T07:58:00Z</time>
      </trkpt>
      <trkpt lat="44.40424" lon="4.10209">
        <ele>389</ele>
        <time>2014-05-09T07:58:07Z</time>
      </trkpt>
      <trkpt lat="44.40423" lon="4.10203">
        <ele>390</ele>
        <time>2014-05-09T07:58:13Z</time>
      </trkpt>
      <trkpt lat="44.40421" lon="4.10196">
        <ele>391</ele>
        <time>2014-05-09T07:58:18Z</time>
      </trkpt>
      <trkpt lat="44.4042" lon="4.10189">
        <ele>392</ele>
        <time>2014-05-09T07:58:26Z</time>
      </trkpt>
      <trkpt lat="44.40419" lon="4.10182">
        <ele>393</ele>
        <time>2014-05-09T07:58:33Z</time>
      </trkpt>
      <trkpt lat="44.40419" lon="4.10175">
        <ele>395</ele>
        <time>2014-05-09T07:58:40Z</time>
      </trkpt>
      <trkpt lat="44.40421" lon="4.10165">
        <ele>395</ele>
        <time>2014-05-09T07:59:02Z</time>
      </trkpt>
      <trkpt lat="44.4042" lon="4.10159">
        <ele>394</ele>
        <time>2014-05-09T07:59:08Z</time>
      </trkpt>
      <trkpt lat="44.40418" lon="4.10151">
        <ele>393</ele>
        <time>2014-05-09T07:59:15Z</time>
      </trkpt>
      <trkpt lat="44.40418" lon="4.10141">
        <ele>393</ele>
        <time>2014-05-09T07:59:25Z</time>
      </trkpt>
      <trkpt lat="44.40417" lon="4.10133">
        <ele>394</ele>
        <time>2014-05-09T07:59:33Z</time>
      </trkpt>
      <trkpt lat="44.40417" lon="4.10121">
        <ele>393</ele>
        <time>2014-05-09T07:59:44Z</time>
      </trkpt>
      <trkpt lat="44.40414" lon="4.10115">
        <ele>394</ele>
        <time>2014-05-09T07:59:51Z</time>
      </trkpt>
      <trkpt lat="44.40412" lon="4.10108">
        <ele>394</ele>
        <time>2014-05-09T07:59:58Z</time>
      </trkpt>
      <trkpt lat="44.40411" lon="4.101">
        <ele>395</ele>
        <time>2014-05-09T08:00:05Z</time>
      </trkpt>
      <trkpt lat="44.4041" lon="4.10091">
        <ele>394</ele>
        <time>2014-05-09T08:00:13Z</time>
      </trkpt>
      <trkpt lat="44.40409" lon="4.10085">
        <ele>394</ele>
        <time>2014-05-09T08:00:22Z</time>
      </trkpt>
      <trkpt lat="44.40405" lon="4.10078">
        <ele>396</ele>
        <time>2014-05-09T08:00:31Z</time>
      </trkpt>
      <trkpt lat="44.40404" lon="4.1007">
        <ele>396</ele>
        <time>2014-05-09T08:00:38Z</time>
      </trkpt>
      <trkpt lat="44.40403" lon="4.10064">
        <ele>396</ele>
        <time>2014-05-09T08:00:46Z</time>
      </trkpt>
      <trkpt lat="44.40401" lon="4.10058">
        <ele>397</ele>
        <time>2014-05-09T08:00:54Z</time>
      </trkpt>
      <trkpt lat="44.40401" lon="4.10049">
        <ele>399</ele>
        <time>2014-05-09T08:01:04Z</time>
      </trkpt>
      <trkpt lat="44.404" lon="4.10042">
        <ele>400</ele>
        <time>2014-05-09T08:01:10Z</time>
      </trkpt>
      <trkpt lat="44.40399" lon="4.10036">
        <ele>402</ele>
        <time>2014-05-09T08:01:21Z</time>
      </trkpt>
      <trkpt lat="44.40397" lon="4.1003">
        <ele>403</ele>
        <time>2014-05-09T08:01:26Z</time>
      </trkpt>
      <trkpt lat="44.40396" lon="4.10023">
        <ele>403</ele>
        <time>2014-05-09T08:01:34Z</time>
      </trkpt>
      <trkpt lat="44.40395" lon="4.10016">
        <ele>404</ele>
        <time>2014-05-09T08:01:40Z</time>
      </trkpt>
      <trkpt lat="44.40392" lon="4.10009">
        <ele>404</ele>
        <time>2014-05-09T08:01:50Z</time>
      </trkpt>
      <trkpt lat="44.40393" lon="4.10006">
        <ele>404</ele>
        <time>2014-05-09T08:02:00Z</time>
      </trkpt>
      <trkpt lat="44.40394" lon="4.09996">
        <ele>406</ele>
        <time>2014-05-09T08:02:15Z</time>
      </trkpt>
      <trkpt lat="44.40394" lon="4.0999">
        <ele>407</ele>
        <time>2014-05-09T08:02:24Z</time>
      </trkpt>
      <trkpt lat="44.40394" lon="4.09987">
        <ele>407</ele>
        <time>2014-05-09T08:02:30Z</time>
      </trkpt>
      <trkpt lat="44.40394" lon="4.0998">
        <ele>407</ele>
        <time>2014-05-09T08:02:40Z</time>
      </trkpt>
      <trkpt lat="44.40391" lon="4.09974">
        <ele>409</ele>
        <time>2014-05-09T08:02:46Z</time>
      </trkpt>
      <trkpt lat="44.40388" lon="4.09966">
        <ele>411</ele>
        <time>2014-05-09T08:03:00Z</time>
      </trkpt>
      <trkpt lat="44.40384" lon="4.09961">
        <ele>411</ele>
        <time>2014-05-09T08:03:05Z</time>
      </trkpt>
      <trkpt lat="44.4038" lon="4.09958">
        <ele>411</ele>
        <time>2014-05-09T08:03:12Z</time>
      </trkpt>
      <trkpt lat="44.40377" lon="4.09951">
        <ele>413</ele>
        <time>2014-05-09T08:03:27Z</time>
      </trkpt>
      <trkpt lat="44.40374" lon="4.09946">
        <ele>413</ele>
        <time>2014-05-09T08:03:34Z</time>
      </trkpt>
      <trkpt lat="44.40371" lon="4.09941">
        <ele>414</ele>
        <time>2014-05-09T08:03:42Z</time>
      </trkpt>
      <trkpt lat="44.40368" lon="4.09941">
        <ele>416</ele>
        <time>2014-05-09T08:04:01Z</time>
      </trkpt>
      <trkpt lat="44.40365" lon="4.09941">
        <ele>421</ele>
        <time>2014-05-09T08:04:58Z</time>
      </trkpt>
      <trkpt lat="44.40364" lon="4.09938">
        <ele>420</ele>
        <time>2014-05-09T08:05:14Z</time>
      </trkpt>
      <trkpt lat="44.4036" lon="4.09933">
        <ele>420</ele>
        <time>2014-05-09T08:05:21Z</time>
      </trkpt>
      <trkpt lat="44.40358" lon="4.0993">
        <ele>420</ele>
        <time>2014-05-09T08:05:28Z</time>
      </trkpt>
      <trkpt lat="44.40352" lon="4.0993">
        <ele>419</ele>
        <time>2014-05-09T08:05:41Z</time>
      </trkpt>
      <trkpt lat="44.40347" lon="4.0993">
        <ele>421</ele>
        <time>2014-05-09T08:05:53Z</time>
      </trkpt>
      <trkpt lat="44.40342" lon="4.09931">
        <ele>422</ele>
        <time>2014-05-09T08:06:01Z</time>
      </trkpt>
      <trkpt lat="44.40338" lon="4.0993">
        <ele>424</ele>
        <time>2014-05-09T08:06:06Z</time>
      </trkpt>
      <trkpt lat="44.40334" lon="4.0993">
        <ele>423</ele>
        <time>2014-05-09T08:06:16Z</time>
      </trkpt>
      <trkpt lat="44.40329" lon="4.09929">
        <ele>423</ele>
        <time>2014-05-09T08:06:25Z</time>
      </trkpt>
      <trkpt lat="44.40324" lon="4.09929">
        <ele>424</ele>
        <time>2014-05-09T08:06:32Z</time>
      </trkpt>
      <trkpt lat="44.4032" lon="4.09925">
        <ele>426</ele>
        <time>2014-05-09T08:06:42Z</time>
      </trkpt>
      <trkpt lat="44.40317" lon="4.09923">
        <ele>429</ele>
        <time>2014-05-09T08:07:15Z</time>
      </trkpt>
      <trkpt lat="44.40314" lon="4.09923">
        <ele>429</ele>
        <time>2014-05-09T08:07:26Z</time>
      </trkpt>
      <trkpt lat="44.40312" lon="4.09923">
        <ele>429</ele>
        <time>2014-05-09T08:07:38Z</time>
      </trkpt>
      <trkpt lat="44.40305" lon="4.09922">
        <ele>431</ele>
        <time>2014-05-09T08:07:51Z</time>
      </trkpt>
      <trkpt lat="44.40301" lon="4.09925">
        <ele>431</ele>
        <time>2014-05-09T08:07:59Z</time>
      </trkpt>
      <trkpt lat="44.40297" lon="4.09926">
        <ele>432</ele>
        <time>2014-05-09T08:08:10Z</time>
      </trkpt>
      <trkpt lat="44.40293" lon="4.09927">
        <ele>433</ele>
        <time>2014-05-09T08:08:20Z</time>
      </trkpt>
      <trkpt lat="44.40286" lon="4.09925">
        <ele>432</ele>
        <time>2014-05-09T08:08:59Z</time>
      </trkpt>
      <trkpt lat="44.40281" lon="4.09926">
        <ele>433</ele>
        <time>2014-05-09T08:09:09Z</time>
      </trkpt>
      <trkpt lat="44.40277" lon="4.09924">
        <ele>435</ele>
        <time>2014-05-09T08:09:19Z</time>
      </trkpt>
      <trkpt lat="44.40273" lon="4.09919">
        <ele>435</ele>
        <time>2014-05-09T08:09:26Z</time>
      </trkpt>
      <trkpt lat="44.40268" lon="4.09918">
        <ele>436</ele>
        <time>2014-05-09T08:09:33Z</time>
      </trkpt>
      <trkpt lat="44.40263" lon="4.09915">
        <ele>436</ele>
        <time>2014-05-09T08:09:40Z</time>
      </trkpt>
      <trkpt lat="44.40259" lon="4.09913">
        <ele>437</ele>
        <time>2014-05-09T08:09:50Z</time>
      </trkpt>
      <trkpt lat="44.40256" lon="4.09909">
        <ele>438</ele>
        <time>2014-05-09T08:09:59Z</time>
      </trkpt>
      <trkpt lat="44.40249" lon="4.0991">
        <ele>439</ele>
        <time>2014-05-09T08:10:11Z</time>
      </trkpt>
      <trkpt lat="44.40244" lon="4.09909">
        <ele>439</ele>
        <time>2014-05-09T08:10:19Z</time>
      </trkpt>
      <trkpt lat="44.4024" lon="4.09907">
        <ele>440</ele>
        <time>2014-05-09T08:10:27Z</time>
      </trkpt>
      <trkpt lat="44.40236" lon="4.09904">
        <ele>441</ele>
        <time>2014-05-09T08:10:36Z</time>
      </trkpt>
      <trkpt lat="44.40233" lon="4.09902">
        <ele>441</ele>
        <time>2014-05-09T08:10:43Z</time>
      </trkpt>
      <trkpt lat="44.4023" lon="4.09896">
        <ele>442</ele>
        <time>2014-05-09T08:10:53Z</time>
      </trkpt>
      <trkpt lat="44.40225" lon="4.09893">
        <ele>443</ele>
        <time>2014-05-09T08:11:03Z</time>
      </trkpt>
      <trkpt lat="44.40224" lon="4.09886">
        <ele>445</ele>
        <time>2014-05-09T08:11:16Z</time>
      </trkpt>
      <trkpt lat="44.40222" lon="4.09884">
        <ele>446</ele>
        <time>2014-05-09T08:11:22Z</time>
      </trkpt>
      <trkpt lat="44.40215" lon="4.09883">
        <ele>448</ele>
        <time>2014-05-09T08:11:38Z</time>
      </trkpt>
      <trkpt lat="44.40208" lon="4.09881">
        <ele>449</ele>
        <time>2014-05-09T08:11:52Z</time>
      </trkpt>
      <trkpt lat="44.40203" lon="4.0988">
        <ele>451</ele>
        <time>2014-05-09T08:12:00Z</time>
      </trkpt>
      <trkpt lat="44.402" lon="4.09877">
        <ele>453</ele>
        <time>2014-05-09T08:12:08Z</time>
      </trkpt>
      <trkpt lat="44.40198" lon="4.09874">
        <ele>454</ele>
        <time>2014-05-09T08:12:25Z</time>
      </trkpt>
      <trkpt lat="44.40196" lon="4.09873">
        <ele>455</ele>
        <time>2014-05-09T08:12:32Z</time>
      </trkpt>
      <trkpt lat="44.40191" lon="4.09874">
        <ele>455</ele>
        <time>2014-05-09T08:12:39Z</time>
      </trkpt>
      <trkpt lat="44.40188" lon="4.09875">
        <ele>455</ele>
        <time>2014-05-09T08:12:45Z</time>
      </trkpt>
      <trkpt lat="44.40183" lon="4.09874">
        <ele>456</ele>
        <time>2014-05-09T08:12:54Z</time>
      </trkpt>
      <trkpt lat="44.40179" lon="4.09875">
        <ele>455</ele>
        <time>2014-05-09T08:13:03Z</time>
      </trkpt>
      <trkpt lat="44.40173" lon="4.09873">
        <ele>455</ele>
        <time>2014-05-09T08:13:17Z</time>
      </trkpt>
      <trkpt lat="44.40168" lon="4.09872">
        <ele>457</ele>
        <time>2014-05-09T08:13:25Z</time>
      </trkpt>
      <trkpt lat="44.40164" lon="4.0987">
        <ele>458</ele>
        <time>2014-05-09T08:13:32Z</time>
      </trkpt>
      <trkpt lat="44.40159" lon="4.0987">
        <ele>461</ele>
        <time>2014-05-09T08:13:42Z</time>
      </trkpt>
      <trkpt lat="44.40154" lon="4.09868">
        <ele>460</ele>
        <time>2014-05-09T08:13:47Z</time>
      </trkpt>
      <trkpt lat="44.40149" lon="4.09868">
        <ele>460</ele>
        <time>2014-05-09T08:13:53Z</time>
      </trkpt>
      <trkpt lat="44.40145" lon="4.09866">
        <ele>460</ele>
        <time>2014-05-09T08:14:00Z</time>
      </trkpt>
      <trkpt lat="44.4014" lon="4.09863">
        <ele>461</ele>
        <time>2014-05-09T08:14:07Z</time>
      </trkpt>
      <trkpt lat="44.40141" lon="4.09857">
        <ele>462</ele>
        <time>2014-05-09T08:14:15Z</time>
      </trkpt>
      <trkpt lat="44.40136" lon="4.09855">
        <ele>463</ele>
        <time>2014-05-09T08:14:23Z</time>
      </trkpt>
      <trkpt lat="44.40132" lon="4.09851">
        <ele>463</ele>
        <time>2014-05-09T08:14:28Z</time>
      </trkpt>
      <trkpt lat="44.40127" lon="4.0985">
        <ele>464</ele>
        <time>2014-05-09T08:14:35Z</time>
      </trkpt>
      <trkpt lat="44.40122" lon="4.0985">
        <ele>464</ele>
        <time>2014-05-09T08:14:41Z</time>
      </trkpt>
      <trkpt lat="44.40117" lon="4.09849">
        <ele>466</ele>
        <time>2014-05-09T08:14:47Z</time>
      </trkpt>
      <trkpt lat="44.40112" lon="4.09846">
        <ele>465</ele>
        <time>2014-05-09T08:14:55Z</time>
      </trkpt>
      <trkpt lat="44.40109" lon="4.09843">
        <ele>466</ele>
        <time>2014-05-09T08:15:22Z</time>
      </trkpt>
      <trkpt lat="44.40107" lon="4.09837">
        <ele>466</ele>
        <time>2014-05-09T08:15:27Z</time>
      </trkpt>
      <trkpt lat="44.40104" lon="4.09831">
        <ele>465</ele>
        <time>2014-05-09T08:15:32Z</time>
      </trkpt>
      <trkpt lat="44.40101" lon="4.09825">
        <ele>465</ele>
        <time>2014-05-09T08:15:37Z</time>
      </trkpt>
      <trkpt lat="44.40098" lon="4.0982">
        <ele>464</ele>
        <time>2014-05-09T08:15:42Z</time>
      </trkpt>
      <trkpt lat="44.40094" lon="4.09812">
        <ele>465</ele>
        <time>2014-05-09T08:15:52Z</time>
      </trkpt>
      <trkpt lat="44.40091" lon="4.09807">
        <ele>465</ele>
        <time>2014-05-09T08:16:00Z</time>
      </trkpt>
      <trkpt lat="44.4009" lon="4.09801">
        <ele>466</ele>
        <time>2014-05-09T08:16:07Z</time>
      </trkpt>
      <trkpt lat="44.40085" lon="4.09795">
        <ele>467</ele>
        <time>2014-05-09T08:16:18Z</time>
      </trkpt>
      <trkpt lat="44.4008" lon="4.09795">
        <ele>468</ele>
        <time>2014-05-09T08:16:27Z</time>
      </trkpt>
      <trkpt lat="44.40074" lon="4.09791">
        <ele>469</ele>
        <time>2014-05-09T08:16:40Z</time>
      </trkpt>
      <trkpt lat="44.40069" lon="4.09791">
        <ele>469</ele>
        <time>2014-05-09T08:16:48Z</time>
      </trkpt>
      <trkpt lat="44.40066" lon="4.09791">
        <ele>469</ele>
        <time>2014-05-09T08:16:55Z</time>
      </trkpt>
      <trkpt lat="44.40061" lon="4.09794">
        <ele>470</ele>
        <time>2014-05-09T08:17:05Z</time>
      </trkpt>
      <trkpt lat="44.40057" lon="4.09794">
        <ele>468</ele>
        <time>2014-05-09T08:17:24Z</time>
      </trkpt>
      <trkpt lat="44.40053" lon="4.09795">
        <ele>465</ele>
        <time>2014-05-09T08:17:47Z</time>
      </trkpt>
      <trkpt lat="44.40047" lon="4.09794">
        <ele>466</ele>
        <time>2014-05-09T08:19:03Z</time>
      </trkpt>
      <trkpt lat="44.40042" lon="4.09796">
        <ele>469</ele>
        <time>2014-05-09T08:19:11Z</time>
      </trkpt>
      <trkpt lat="44.40037" lon="4.09796">
        <ele>470</ele>
        <time>2014-05-09T08:19:13Z</time>
      </trkpt>
      <trkpt lat="44.40032" lon="4.09797">
        <ele>471</ele>
        <time>2014-05-09T08:19:19Z</time>
      </trkpt>
      <trkpt lat="44.40029" lon="4.09798">
        <ele>471</ele>
        <time>2014-05-09T08:19:24Z</time>
      </trkpt>
      <trkpt lat="44.40031" lon="4.09804">
        <ele>470</ele>
        <time>2014-05-09T08:19:30Z</time>
      </trkpt>
      <trkpt lat="44.40032" lon="4.09811">
        <ele>468</ele>
        <time>2014-05-09T08:19:39Z</time>
      </trkpt>
      <trkpt lat="44.40032" lon="4.09818">
        <ele>468</ele>
        <time>2014-05-09T08:19:46Z</time>
      </trkpt>
      <trkpt lat="44.40033" lon="4.09824">
        <ele>467</ele>
        <time>2014-05-09T08:19:53Z</time>
      </trkpt>
      <trkpt lat="44.40033" lon="4.0983">
        <ele>467</ele>
        <time>2014-05-09T08:20:00Z</time>
      </trkpt>
      <trkpt lat="44.40034" lon="4.09837">
        <ele>466</ele>
        <time>2014-05-09T08:20:04Z</time>
      </trkpt>
      <trkpt lat="44.40033" lon="4.09843">
        <ele>466</ele>
        <time>2014-05-09T08:20:09Z</time>
      </trkpt>
      <trkpt lat="44.4003" lon="4.09848">
        <ele>465</ele>
        <time>2014-05-09T08:20:16Z</time>
      </trkpt>
      <trkpt lat="44.40028" lon="4.09855">
        <ele>464</ele>
        <time>2014-05-09T08:20:24Z</time>
      </trkpt>
      <trkpt lat="44.40027" lon="4.09861">
        <ele>463</ele>
        <time>2014-05-09T08:20:31Z</time>
      </trkpt>
      <trkpt lat="44.40026" lon="4.09868">
        <ele>462</ele>
        <time>2014-05-09T08:20:36Z</time>
      </trkpt>
      <trkpt lat="44.40024" lon="4.09874">
        <ele>460</ele>
        <time>2014-05-09T08:20:41Z</time>
      </trkpt>
      <trkpt lat="44.40016" lon="4.09882">
        <ele>457</ele>
        <time>2014-05-09T08:20:56Z</time>
      </trkpt>
      <trkpt lat="44.40012" lon="4.09886">
        <ele>456</ele>
        <time>2014-05-09T08:21:06Z</time>
      </trkpt>
      <trkpt lat="44.40009" lon="4.09895">
        <ele>455</ele>
        <time>2014-05-09T08:21:14Z</time>
      </trkpt>
      <trkpt lat="44.40001" lon="4.09904">
        <ele>451</ele>
        <time>2014-05-09T08:21:31Z</time>
      </trkpt>
      <trkpt lat="44.39996" lon="4.09902">
        <ele>454</ele>
        <time>2014-05-09T08:21:52Z</time>
      </trkpt>
      <trkpt lat="44.39992" lon="4.09904">
        <ele>450</ele>
        <time>2014-05-09T08:22:21Z</time>
      </trkpt>
      <trkpt lat="44.3999" lon="4.0991">
        <ele>452</ele>
        <time>2014-05-09T08:22:41Z</time>
      </trkpt>
      <trkpt lat="44.39995" lon="4.09906">
        <ele>453</ele>
        <time>2014-05-09T08:24:31Z</time>
      </trkpt>
      <trkpt lat="44.39997" lon="4.09903">
        <ele>449</ele>
        <time>2014-05-09T08:25:31Z</time>
      </trkpt>
      <trkpt lat="44.40002" lon="4.09912">
        <ele>450</ele>
        <time>2014-05-09T08:25:54Z</time>
      </trkpt>
      <trkpt lat="44.40007" lon="4.09913">
        <ele>453</ele>
        <time>2014-05-09T08:26:03Z</time>
      </trkpt>
      <trkpt lat="44.40011" lon="4.09912">
        <ele>454</ele>
        <time>2014-05-09T08:26:07Z</time>
      </trkpt>
      <trkpt lat="44.40016" lon="4.0991">
        <ele>454</ele>
        <time>2014-05-09T08:26:19Z</time>
      </trkpt>
      <trkpt lat="44.40021" lon="4.09911">
        <ele>455</ele>
        <time>2014-05-09T08:26:24Z</time>
      </trkpt>
      <trkpt lat="44.40023" lon="4.09907">
        <ele>456</ele>
        <time>2014-05-09T08:26:34Z</time>
      </trkpt>
      <trkpt lat="44.40027" lon="4.09897">
        <ele>456</ele>
        <time>2014-05-09T08:26:47Z</time>
      </trkpt>
      <trkpt lat="44.40029" lon="4.09891">
        <ele>455</ele>
        <time>2014-05-09T08:26:55Z</time>
      </trkpt>
      <trkpt lat="44.40028" lon="4.09883">
        <ele>456</ele>
        <time>2014-05-09T08:27:03Z</time>
      </trkpt>
      <trkpt lat="44.4003" lon="4.09872">
        <ele>456</ele>
        <time>2014-05-09T08:27:23Z</time>
      </trkpt>
      <trkpt lat="44.4003" lon="4.09868">
        <ele>457</ele>
        <time>2014-05-09T08:27:29Z</time>
      </trkpt>
      <trkpt lat="44.40032" lon="4.09855">
        <ele>458</ele>
        <time>2014-05-09T08:27:44Z</time>
      </trkpt>
      <trkpt lat="44.40037" lon="4.09843">
        <ele>459</ele>
        <time>2014-05-09T08:27:56Z</time>
      </trkpt>
      <trkpt lat="44.40035" lon="4.09837">
        <ele>461</ele>
        <time>2014-05-09T08:28:03Z</time>
      </trkpt>
      <trkpt lat="44.40035" lon="4.09829">
        <ele>464</ele>
        <time>2014-05-09T08:28:09Z</time>
      </trkpt>
      <trkpt lat="44.40038" lon="4.09821">
        <ele>466</ele>
        <time>2014-05-09T08:28:19Z</time>
      </trkpt>
      <trkpt lat="44.40037" lon="4.09815">
        <ele>467</ele>
        <time>2014-05-09T08:28:26Z</time>
      </trkpt>
      <trkpt lat="44.40036" lon="4.09809">
        <ele>468</ele>
        <time>2014-05-09T08:28:31Z</time>
      </trkpt>
      <trkpt lat="44.40036" lon="4.09802">
        <ele>468</ele>
        <time>2014-05-09T08:28:39Z</time>
      </trkpt>
      <trkpt lat="44.40038" lon="4.09796">
        <ele>468</ele>
        <time>2014-05-09T08:28:46Z</time>
      </trkpt>
      <trkpt lat="44.40032" lon="4.09792">
        <ele>468</ele>
        <time>2014-05-09T08:29:03Z</time>
      </trkpt>
      <trkpt lat="44.40034" lon="4.09789">
        <ele>470</ele>
        <time>2014-05-09T08:31:20Z</time>
      </trkpt>
      <trkpt lat="44.40036" lon="4.09781">
        <ele>470</ele>
        <time>2014-05-09T08:31:31Z</time>
      </trkpt>
      <trkpt lat="44.40034" lon="4.09774">
        <ele>469</ele>
        <time>2014-05-09T08:31:36Z</time>
      </trkpt>
      <trkpt lat="44.40032" lon="4.09772">
        <ele>466</ele>
        <time>2014-05-09T08:32:25Z</time>
      </trkpt>
      <trkpt lat="44.4003" lon="4.0977">
        <ele>468</ele>
        <time>2014-05-09T08:32:31Z</time>
      </trkpt>
      <trkpt lat="44.40033" lon="4.09762">
        <ele>468</ele>
        <time>2014-05-09T08:32:56Z</time>
      </trkpt>
      <trkpt lat="44.40034" lon="4.09752">
        <ele>469</ele>
        <time>2014-05-09T08:33:02Z</time>
      </trkpt>
      <trkpt lat="44.40034" lon="4.09746">
        <ele>471</ele>
        <time>2014-05-09T08:33:08Z</time>
      </trkpt>
      <trkpt lat="44.40035" lon="4.09739">
        <ele>472</ele>
        <time>2014-05-09T08:33:14Z</time>
      </trkpt>
      <trkpt lat="44.40034" lon="4.09732">
        <ele>474</ele>
        <time>2014-05-09T08:33:21Z</time>
      </trkpt>
      <trkpt lat="44.40036" lon="4.09726">
        <ele>475</ele>
        <time>2014-05-09T08:33:31Z</time>
      </trkpt>
      <trkpt lat="44.40038" lon="4.0972">
        <ele>475</ele>
        <time>2014-05-09T08:33:40Z</time>
      </trkpt>
      <trkpt lat="44.40037" lon="4.09713">
        <ele>477</ele>
        <time>2014-05-09T08:33:49Z</time>
      </trkpt>
      <trkpt lat="44.40037" lon="4.0971">
        <ele>478</ele>
        <time>2014-05-09T08:33:55Z</time>
      </trkpt>
      <trkpt lat="44.40034" lon="4.09703">
        <ele>478</ele>
        <time>2014-05-09T08:34:05Z</time>
      </trkpt>
      <trkpt lat="44.40032" lon="4.09697">
        <ele>478</ele>
        <time>2014-05-09T08:34:12Z</time>
      </trkpt>
      <trkpt lat="44.40033" lon="4.09687">
        <ele>480</ele>
        <time>2014-05-09T08:34:31Z</time>
      </trkpt>
      <trkpt lat="44.40028" lon="4.09673">
        <ele>481</ele>
        <time>2014-05-09T08:34:44Z</time>
      </trkpt>
      <trkpt lat="44.40024" lon="4.09662">
        <ele>482</ele>
        <time>2014-05-09T08:35:03Z</time>
      </trkpt>
      <trkpt lat="44.40022" lon="4.09659">
        <ele>482</ele>
        <time>2014-05-09T08:35:17Z</time>
      </trkpt>
      <trkpt lat="44.40019" lon="4.09658">
        <ele>485</ele>
        <time>2014-05-09T08:35:28Z</time>
      </trkpt>
      <trkpt lat="44.40011" lon="4.0966">
        <ele>485</ele>
        <time>2014-05-09T08:35:51Z</time>
      </trkpt>
      <trkpt lat="44.40008" lon="4.09665">
        <ele>485</ele>
        <time>2014-05-09T08:35:55Z</time>
      </trkpt>
      <trkpt lat="44.40004" lon="4.09669">
        <ele>486</ele>
        <time>2014-05-09T08:36:01Z</time>
      </trkpt>
      <trkpt lat="44.39999" lon="4.0967">
        <ele>487</ele>
        <time>2014-05-09T08:36:08Z</time>
      </trkpt>
      <trkpt lat="44.39994" lon="4.09669">
        <ele>486</ele>
        <time>2014-05-09T08:36:14Z</time>
      </trkpt>
      <trkpt lat="44.39987" lon="4.09672">
        <ele>486</ele>
        <time>2014-05-09T08:36:24Z</time>
      </trkpt>
      <trkpt lat="44.39982" lon="4.09672">
        <ele>487</ele>
        <time>2014-05-09T08:36:31Z</time>
      </trkpt>
      <trkpt lat="44.39977" lon="4.09671">
        <ele>487</ele>
        <time>2014-05-09T08:36:37Z</time>
      </trkpt>
      <trkpt lat="44.39972" lon="4.0967">
        <ele>487</ele>
        <time>2014-05-09T08:36:42Z</time>
      </trkpt>
      <trkpt lat="44.39967" lon="4.09668">
        <ele>489</ele>
        <time>2014-05-09T08:36:47Z</time>
      </trkpt>
      <trkpt lat="44.39962" lon="4.09668">
        <ele>489</ele>
        <time>2014-05-09T08:36:54Z</time>
      </trkpt>
      <trkpt lat="44.39957" lon="4.09669">
        <ele>489</ele>
        <time>2014-05-09T08:36:59Z</time>
      </trkpt>
      <trkpt lat="44.39953" lon="4.09673">
        <ele>489</ele>
        <time>2014-05-09T08:37:05Z</time>
      </trkpt>
      <trkpt lat="44.39947" lon="4.09676">
        <ele>489</ele>
        <time>2014-05-09T08:37:12Z</time>
      </trkpt>
      <trkpt lat="44.3994" lon="4.09675">
        <ele>489</ele>
        <time>2014-05-09T08:37:20Z</time>
      </trkpt>
      <trkpt lat="44.3993" lon="4.09675">
        <ele>488</ele>
        <time>2014-05-09T08:37:32Z</time>
      </trkpt>
      <trkpt lat="44.39926" lon="4.09677">
        <ele>490</ele>
        <time>2014-05-09T08:37:38Z</time>
      </trkpt>
      <trkpt lat="44.39922" lon="4.09682">
        <ele>491</ele>
        <time>2014-05-09T08:37:47Z</time>
      </trkpt>
      <trkpt lat="44.39916" lon="4.09684">
        <ele>492</ele>
        <time>2014-05-09T08:37:53Z</time>
      </trkpt>
      <trkpt lat="44.39912" lon="4.09689">
        <ele>493</ele>
        <time>2014-05-09T08:38:00Z</time>
      </trkpt>
      <trkpt lat="44.39907" lon="4.09694">
        <ele>492</ele>
        <time>2014-05-09T08:38:07Z</time>
      </trkpt>
      <trkpt lat="44.39903" lon="4.09698">
        <ele>491</ele>
        <time>2014-05-09T08:38:15Z</time>
      </trkpt>
      <trkpt lat="44.39897" lon="4.097">
        <ele>491</ele>
        <time>2014-05-09T08:38:20Z</time>
      </trkpt>
      <trkpt lat="44.39888" lon="4.09705">
        <ele>494</ele>
        <time>2014-05-09T08:38:31Z</time>
      </trkpt>
      <trkpt lat="44.39885" lon="4.09709">
        <ele>494</ele>
        <time>2014-05-09T08:38:36Z</time>
      </trkpt>
      <trkpt lat="44.39882" lon="4.0972">
        <ele>494</ele>
        <time>2014-05-09T08:38:50Z</time>
      </trkpt>
      <trkpt lat="44.3988" lon="4.09726">
        <ele>494</ele>
        <time>2014-05-09T08:38:56Z</time>
      </trkpt>
      <trkpt lat="44.39877" lon="4.09732">
        <ele>494</ele>
        <time>2014-05-09T08:39:02Z</time>
      </trkpt>
      <trkpt lat="44.39874" lon="4.09739">
        <ele>496</ele>
        <time>2014-05-09T08:39:08Z</time>
      </trkpt>
      <trkpt lat="44.39872" lon="4.09744">
        <ele>498</ele>
        <time>2014-05-09T08:39:13Z</time>
      </trkpt>
      <trkpt lat="44.39868" lon="4.09749">
        <ele>498</ele>
        <time>2014-05-09T08:39:19Z</time>
      </trkpt>
      <trkpt lat="44.39861" lon="4.09757">
        <ele>499</ele>
        <time>2014-05-09T08:39:29Z</time>
      </trkpt>
      <trkpt lat="44.39857" lon="4.09763">
        <ele>499</ele>
        <time>2014-05-09T08:39:35Z</time>
      </trkpt>
      <trkpt lat="44.39853" lon="4.09769">
        <ele>500</ele>
        <time>2014-05-09T08:39:42Z</time>
      </trkpt>
      <trkpt lat="44.39849" lon="4.09775">
        <ele>501</ele>
        <time>2014-05-09T08:39:49Z</time>
      </trkpt>
      <trkpt lat="44.39845" lon="4.09779">
        <ele>500</ele>
        <time>2014-05-09T08:39:55Z</time>
      </trkpt>
      <trkpt lat="44.3984" lon="4.09782">
        <ele>501</ele>
        <time>2014-05-09T08:40:03Z</time>
      </trkpt>
      <trkpt lat="44.39835" lon="4.09785">
        <ele>501</ele>
        <time>2014-05-09T08:40:08Z</time>
      </trkpt>
      <trkpt lat="44.39831" lon="4.09788">
        <ele>501</ele>
        <time>2014-05-09T08:40:16Z</time>
      </trkpt>
      <trkpt lat="44.39827" lon="4.09791">
        <ele>501</ele>
        <time>2014-05-09T08:40:21Z</time>
      </trkpt>
      <trkpt lat="44.39822" lon="4.09794">
        <ele>502</ele>
        <time>2014-05-09T08:40:29Z</time>
      </trkpt>
      <trkpt lat="44.39813" lon="4.09797">
        <ele>502</ele>
        <time>2014-05-09T08:40:39Z</time>
      </trkpt>
      <trkpt lat="44.39809" lon="4.098">
        <ele>505</ele>
        <time>2014-05-09T08:40:45Z</time>
      </trkpt>
      <trkpt lat="44.39805" lon="4.09803">
        <ele>505</ele>
        <time>2014-05-09T08:40:50Z</time>
      </trkpt>
      <trkpt lat="44.398" lon="4.09805">
        <ele>506</ele>
        <time>2014-05-09T08:40:56Z</time>
      </trkpt>
      <trkpt lat="44.39795" lon="4.09807">
        <ele>507</ele>
        <time>2014-05-09T08:41:02Z</time>
      </trkpt>
      <trkpt lat="44.3979" lon="4.09807">
        <ele>507</ele>
        <time>2014-05-09T08:41:06Z</time>
      </trkpt>
      <trkpt lat="44.3978" lon="4.09807">
        <ele>506</ele>
        <time>2014-05-09T08:41:17Z</time>
      </trkpt>
      <trkpt lat="44.39771" lon="4.09803">
        <ele>507</ele>
        <time>2014-05-09T08:41:27Z</time>
      </trkpt>
      <trkpt lat="44.39761" lon="4.09803">
        <ele>507</ele>
        <time>2014-05-09T08:41:36Z</time>
      </trkpt>
      <trkpt lat="44.39752" lon="4.09804">
        <ele>509</ele>
        <time>2014-05-09T08:41:48Z</time>
      </trkpt>
      <trkpt lat="44.39744" lon="4.09811">
        <ele>508</ele>
        <time>2014-05-09T08:41:58Z</time>
      </trkpt>
      <trkpt lat="44.39736" lon="4.09816">
        <ele>508</ele>
        <time>2014-05-09T08:42:06Z</time>
      </trkpt>
      <trkpt lat="44.39732" lon="4.09822">
        <ele>511</ele>
        <time>2014-05-09T08:42:13Z</time>
      </trkpt>
      <trkpt lat="44.39729" lon="4.09829">
        <ele>513</ele>
        <time>2014-05-09T08:42:19Z</time>
      </trkpt>
      <trkpt lat="44.39728" lon="4.09835">
        <ele>514</ele>
        <time>2014-05-09T08:42:25Z</time>
      </trkpt>
      <trkpt lat="44.39726" lon="4.09841">
        <ele>514</ele>
        <time>2014-05-09T08:42:31Z</time>
      </trkpt>
      <trkpt lat="44.39723" lon="4.09848">
        <ele>512</ele>
        <time>2014-05-09T08:42:37Z</time>
      </trkpt>
      <trkpt lat="44.39718" lon="4.09857">
        <ele>510</ele>
        <time>2014-05-09T08:42:44Z</time>
      </trkpt>
      <trkpt lat="44.39713" lon="4.09863">
        <ele>510</ele>
        <time>2014-05-09T08:42:52Z</time>
      </trkpt>
      <trkpt lat="44.39707" lon="4.09867">
        <ele>509</ele>
        <time>2014-05-09T08:43:01Z</time>
      </trkpt>
      <trkpt lat="44.39703" lon="4.09872">
        <ele>509</ele>
        <time>2014-05-09T08:43:08Z</time>
      </trkpt>
      <trkpt lat="44.39695" lon="4.09878">
        <ele>511</ele>
        <time>2014-05-09T08:43:17Z</time>
      </trkpt>
      <trkpt lat="44.39691" lon="4.09883">
        <ele>511</ele>
        <time>2014-05-09T08:43:22Z</time>
      </trkpt>
      <trkpt lat="44.39686" lon="4.09886">
        <ele>511</ele>
        <time>2014-05-09T08:43:27Z</time>
      </trkpt>
      <trkpt lat="44.39681" lon="4.09888">
        <ele>512</ele>
        <time>2014-05-09T08:43:32Z</time>
      </trkpt>
      <trkpt lat="44.39677" lon="4.09893">
        <ele>514</ele>
        <time>2014-05-09T08:43:41Z</time>
      </trkpt>
      <trkpt lat="44.39668" lon="4.09896">
        <ele>517</ele>
        <time>2014-05-09T08:43:53Z</time>
      </trkpt>
      <trkpt lat="44.39662" lon="4.09902">
        <ele>518</ele>
        <time>2014-05-09T08:44:02Z</time>
      </trkpt>
      <trkpt lat="44.39654" lon="4.09905">
        <ele>519</ele>
        <time>2014-05-09T08:44:12Z</time>
      </trkpt>
      <trkpt lat="44.39648" lon="4.09907">
        <ele>520</ele>
        <time>2014-05-09T08:44:17Z</time>
      </trkpt>
      <trkpt lat="44.39643" lon="4.09908">
        <ele>521</ele>
        <time>2014-05-09T08:44:21Z</time>
      </trkpt>
      <trkpt lat="44.39634" lon="4.09907">
        <ele>522</ele>
        <time>2014-05-09T08:44:32Z</time>
      </trkpt>
      <trkpt lat="44.39628" lon="4.09908">
        <ele>521</ele>
        <time>2014-05-09T08:44:38Z</time>
      </trkpt>
      <trkpt lat="44.39618" lon="4.09911">
        <ele>520</ele>
        <time>2014-05-09T08:44:51Z</time>
      </trkpt>
      <trkpt lat="44.39613" lon="4.09912">
        <ele>522</ele>
        <time>2014-05-09T08:44:55Z</time>
      </trkpt>
      <trkpt lat="44.39609" lon="4.09914">
        <ele>522</ele>
        <time>2014-05-09T08:45:00Z</time>
      </trkpt>
      <trkpt lat="44.39604" lon="4.09917">
        <ele>521</ele>
        <time>2014-05-09T08:45:05Z</time>
      </trkpt>
      <trkpt lat="44.39593" lon="4.09917">
        <ele>522</ele>
        <time>2014-05-09T08:45:17Z</time>
      </trkpt>
      <trkpt lat="44.39583" lon="4.0992">
        <ele>522</ele>
        <time>2014-05-09T08:45:26Z</time>
      </trkpt>
      <trkpt lat="44.39577" lon="4.09919">
        <ele>523</ele>
        <time>2014-05-09T08:45:32Z</time>
      </trkpt>
      <trkpt lat="44.39569" lon="4.09918">
        <ele>522</ele>
        <time>2014-05-09T08:45:44Z</time>
      </trkpt>
      <trkpt lat="44.3956" lon="4.09914">
        <ele>522</ele>
        <time>2014-05-09T08:45:53Z</time>
      </trkpt>
      <trkpt lat="44.39555" lon="4.09912">
        <ele>520</ele>
        <time>2014-05-09T08:45:57Z</time>
      </trkpt>
      <trkpt lat="44.39551" lon="4.0991">
        <ele>518</ele>
        <time>2014-05-09T08:46:02Z</time>
      </trkpt>
      <trkpt lat="44.39547" lon="4.09905">
        <ele>518</ele>
        <time>2014-05-09T08:46:08Z</time>
      </trkpt>
      <trkpt lat="44.39544" lon="4.099">
        <ele>518</ele>
        <time>2014-05-09T08:46:12Z</time>
      </trkpt>
      <trkpt lat="44.39542" lon="4.09892">
        <ele>518</ele>
        <time>2014-05-09T08:46:18Z</time>
      </trkpt>
      <trkpt lat="44.39544" lon="4.09879">
        <ele>519</ele>
        <time>2014-05-09T08:46:29Z</time>
      </trkpt>
      <trkpt lat="44.39546" lon="4.09865">
        <ele>521</ele>
        <time>2014-05-09T08:46:38Z</time>
      </trkpt>
      <trkpt lat="44.39548" lon="4.09859">
        <ele>522</ele>
        <time>2014-05-09T08:46:42Z</time>
      </trkpt>
      <trkpt lat="44.39549" lon="4.09852">
        <ele>523</ele>
        <time>2014-05-09T08:46:46Z</time>
      </trkpt>
      <trkpt lat="44.39551" lon="4.09845">
        <ele>523</ele>
        <time>2014-05-09T08:46:52Z</time>
      </trkpt>
      <trkpt lat="44.39553" lon="4.09838">
        <ele>524</ele>
        <time>2014-05-09T08:46:57Z</time>
      </trkpt>
      <trkpt lat="44.39552" lon="4.09829">
        <ele>523</ele>
        <time>2014-05-09T08:47:04Z</time>
      </trkpt>
      <trkpt lat="44.39551" lon="4.09822">
        <ele>525</ele>
        <time>2014-05-09T08:47:07Z</time>
      </trkpt>
      <trkpt lat="44.39544" lon="4.09812">
        <ele>527</ele>
        <time>2014-05-09T08:47:15Z</time>
      </trkpt>
      <trkpt lat="44.3954" lon="4.09807">
        <ele>528</ele>
        <time>2014-05-09T08:47:21Z</time>
      </trkpt>
      <trkpt lat="44.39536" lon="4.09801">
        <ele>528</ele>
        <time>2014-05-09T08:47:25Z</time>
      </trkpt>
      <trkpt lat="44.39532" lon="4.09796">
        <ele>529</ele>
        <time>2014-05-09T08:47:32Z</time>
      </trkpt>
      <trkpt lat="44.39528" lon="4.09792">
        <ele>529</ele>
        <time>2014-05-09T08:47:38Z</time>
      </trkpt>
      <trkpt lat="44.39525" lon="4.09786">
        <ele>528</ele>
        <time>2014-05-09T08:47:44Z</time>
      </trkpt>
      <trkpt lat="44.39522" lon="4.09779">
        <ele>528</ele>
        <time>2014-05-09T08:47:52Z</time>
      </trkpt>
      <trkpt lat="44.3952" lon="4.09773">
        <ele>528</ele>
        <time>2014-05-09T08:47:57Z</time>
      </trkpt>
      <trkpt lat="44.39517" lon="4.09768">
        <ele>528</ele>
        <time>2014-05-09T08:48:01Z</time>
      </trkpt>
      <trkpt lat="44.39516" lon="4.09759">
        <ele>529</ele>
        <time>2014-05-09T08:48:06Z</time>
      </trkpt>
      <trkpt lat="44.39512" lon="4.09747">
        <ele>531</ele>
        <time>2014-05-09T08:48:17Z</time>
      </trkpt>
      <trkpt lat="44.39503" lon="4.09747">
        <ele>531</ele>
        <time>2014-05-09T08:48:29Z</time>
      </trkpt>
      <trkpt lat="44.39493" lon="4.09749">
        <ele>530</ele>
        <time>2014-05-09T08:48:39Z</time>
      </trkpt>
      <trkpt lat="44.39484" lon="4.09751">
        <ele>529</ele>
        <time>2014-05-09T08:48:48Z</time>
      </trkpt>
      <trkpt lat="44.39475" lon="4.0975">
        <ele>530</ele>
        <time>2014-05-09T08:49:00Z</time>
      </trkpt>
      <trkpt lat="44.39467" lon="4.09756">
        <ele>531</ele>
        <time>2014-05-09T08:49:10Z</time>
      </trkpt>
      <trkpt lat="44.39458" lon="4.0976">
        <ele>532</ele>
        <time>2014-05-09T08:49:19Z</time>
      </trkpt>
      <trkpt lat="44.39449" lon="4.09765">
        <ele>532</ele>
        <time>2014-05-09T08:49:29Z</time>
      </trkpt>
      <trkpt lat="44.3944" lon="4.09769">
        <ele>528</ele>
        <time>2014-05-09T08:49:43Z</time>
      </trkpt>
      <trkpt lat="44.39432" lon="4.09775">
        <ele>528</ele>
        <time>2014-05-09T08:49:52Z</time>
      </trkpt>
      <trkpt lat="44.39424" lon="4.09781">
        <ele>530</ele>
        <time>2014-05-09T08:50:00Z</time>
      </trkpt>
      <trkpt lat="44.39416" lon="4.09784">
        <ele>534</ele>
        <time>2014-05-09T08:50:11Z</time>
      </trkpt>
      <trkpt lat="44.39411" lon="4.09781">
        <ele>534</ele>
        <time>2014-05-09T08:50:16Z</time>
      </trkpt>
      <trkpt lat="44.39405" lon="4.09779">
        <ele>534</ele>
        <time>2014-05-09T08:50:22Z</time>
      </trkpt>
      <trkpt lat="44.39401" lon="4.09775">
        <ele>535</ele>
        <time>2014-05-09T08:50:26Z</time>
      </trkpt>
      <trkpt lat="44.39398" lon="4.0977">
        <ele>534</ele>
        <time>2014-05-09T08:50:34Z</time>
      </trkpt>
      <trkpt lat="44.39395" lon="4.09763">
        <ele>534</ele>
        <time>2014-05-09T08:50:40Z</time>
      </trkpt>
      <trkpt lat="44.39392" lon="4.09755">
        <ele>536</ele>
        <time>2014-05-09T08:50:46Z</time>
      </trkpt>
      <trkpt lat="44.39389" lon="4.09742">
        <ele>537</ele>
        <time>2014-05-09T08:50:57Z</time>
      </trkpt>
      <trkpt lat="44.39387" lon="4.09736">
        <ele>538</ele>
        <time>2014-05-09T08:51:02Z</time>
      </trkpt>
      <trkpt lat="44.39384" lon="4.09731">
        <ele>538</ele>
        <time>2014-05-09T08:51:05Z</time>
      </trkpt>
      <trkpt lat="44.39382" lon="4.09725">
        <ele>539</ele>
        <time>2014-05-09T08:51:10Z</time>
      </trkpt>
      <trkpt lat="44.3938" lon="4.09719">
        <ele>540</ele>
        <time>2014-05-09T08:51:14Z</time>
      </trkpt>
      <trkpt lat="44.39379" lon="4.09711">
        <ele>542</ele>
        <time>2014-05-09T08:51:22Z</time>
      </trkpt>
      <trkpt lat="44.39378" lon="4.09704">
        <ele>542</ele>
        <time>2014-05-09T08:51:27Z</time>
      </trkpt>
      <trkpt lat="44.39377" lon="4.09697">
        <ele>542</ele>
        <time>2014-05-09T08:51:33Z</time>
      </trkpt>
      <trkpt lat="44.39375" lon="4.09691">
        <ele>541</ele>
        <time>2014-05-09T08:51:37Z</time>
      </trkpt>
      <trkpt lat="44.39372" lon="4.09685">
        <ele>542</ele>
        <time>2014-05-09T08:51:41Z</time>
      </trkpt>
      <trkpt lat="44.3937" lon="4.09678">
        <ele>542</ele>
        <time>2014-05-09T08:51:46Z</time>
      </trkpt>
      <trkpt lat="44.39368" lon="4.09672">
        <ele>545</ele>
        <time>2014-05-09T08:51:52Z</time>
      </trkpt>
      <trkpt lat="44.39366" lon="4.09666">
        <ele>545</ele>
        <time>2014-05-09T08:51:56Z</time>
      </trkpt>
      <trkpt lat="44.39363" lon="4.0966">
        <ele>545</ele>
        <time>2014-05-09T08:52:02Z</time>
      </trkpt>
      <trkpt lat="44.3936" lon="4.0965">
        <ele>546</ele>
        <time>2014-05-09T08:52:09Z</time>
      </trkpt>
      <trkpt lat="44.39358" lon="4.09637">
        <ele>546</ele>
        <time>2014-05-09T08:52:18Z</time>
      </trkpt>
      <trkpt lat="44.39361" lon="4.09625">
        <ele>543</ele>
        <time>2014-05-09T08:52:25Z</time>
      </trkpt>
      <trkpt lat="44.39364" lon="4.09619">
        <ele>543</ele>
        <time>2014-05-09T08:52:30Z</time>
      </trkpt>
      <trkpt lat="44.39366" lon="4.09607">
        <ele>542</ele>
        <time>2014-05-09T08:52:40Z</time>
      </trkpt>
      <trkpt lat="44.39368" lon="4.09601">
        <ele>541</ele>
        <time>2014-05-09T08:52:45Z</time>
      </trkpt>
      <trkpt lat="44.39372" lon="4.09589">
        <ele>541</ele>
        <time>2014-05-09T08:52:53Z</time>
      </trkpt>
      <trkpt lat="44.39377" lon="4.09577">
        <ele>541</ele>
        <time>2014-05-09T08:53:02Z</time>
      </trkpt>
      <trkpt lat="44.3938" lon="4.09564">
        <ele>541</ele>
        <time>2014-05-09T08:53:11Z</time>
      </trkpt>
      <trkpt lat="44.39382" lon="4.09551">
        <ele>544</ele>
        <time>2014-05-09T08:53:22Z</time>
      </trkpt>
      <trkpt lat="44.39385" lon="4.09539">
        <ele>545</ele>
        <time>2014-05-09T08:53:30Z</time>
      </trkpt>
      <trkpt lat="44.39388" lon="4.09526">
        <ele>544</ele>
        <time>2014-05-09T08:53:40Z</time>
      </trkpt>
      <trkpt lat="44.39391" lon="4.09513">
        <ele>546</ele>
        <time>2014-05-09T08:53:51Z</time>
      </trkpt>
      <trkpt lat="44.39396" lon="4.09499">
        <ele>544</ele>
        <time>2014-05-09T08:54:07Z</time>
      </trkpt>
      <trkpt lat="44.394" lon="4.09487">
        <ele>546</ele>
        <time>2014-05-09T08:54:15Z</time>
      </trkpt>
      <trkpt lat="44.394" lon="4.09474">
        <ele>548</ele>
        <time>2014-05-09T08:54:26Z</time>
      </trkpt>
      <trkpt lat="44.39399" lon="4.09466">
        <ele>548</ele>
        <time>2014-05-09T08:54:30Z</time>
      </trkpt>
      <trkpt lat="44.39401" lon="4.09459">
        <ele>549</ele>
        <time>2014-05-09T08:54:35Z</time>
      </trkpt>
      <trkpt lat="44.39403" lon="4.09446">
        <ele>550</ele>
        <time>2014-05-09T08:54:43Z</time>
      </trkpt>
      <trkpt lat="44.39404" lon="4.09434">
        <ele>552</ele>
        <time>2014-05-09T08:54:55Z</time>
      </trkpt>
      <trkpt lat="44.39403" lon="4.09426">
        <ele>553</ele>
        <time>2014-05-09T08:54:59Z</time>
      </trkpt>
      <trkpt lat="44.394" lon="4.09413">
        <ele>549</ele>
        <time>2014-05-09T08:55:06Z</time>
      </trkpt>
      <trkpt lat="44.39396" lon="4.09402">
        <ele>546</ele>
        <time>2014-05-09T08:55:15Z</time>
      </trkpt>
      <trkpt lat="44.39393" lon="4.09391">
        <ele>547</ele>
        <time>2014-05-09T08:55:23Z</time>
      </trkpt>
      <trkpt lat="44.39391" lon="4.09384">
        <ele>548</ele>
        <time>2014-05-09T08:55:27Z</time>
      </trkpt>
      <trkpt lat="44.39391" lon="4.09377">
        <ele>548</ele>
        <time>2014-05-09T08:55:32Z</time>
      </trkpt>
      <trkpt lat="44.39393" lon="4.09365">
        <ele>547</ele>
        <time>2014-05-09T08:55:42Z</time>
      </trkpt>
      <trkpt lat="44.39392" lon="4.09354">
        <ele>547</ele>
        <time>2014-05-09T08:55:50Z</time>
      </trkpt>
      <trkpt lat="44.39388" lon="4.09347">
        <ele>547</ele>
        <time>2014-05-09T08:55:55Z</time>
      </trkpt>
      <trkpt lat="44.3938" lon="4.09342">
        <ele>547</ele>
        <time>2014-05-09T08:56:03Z</time>
      </trkpt>
      <trkpt lat="44.3937" lon="4.0934">
        <ele>545</ele>
        <time>2014-05-09T08:56:11Z</time>
      </trkpt>
      <trkpt lat="44.39365" lon="4.09342">
        <ele>544</ele>
        <time>2014-05-09T08:56:17Z</time>
      </trkpt>
      <trkpt lat="44.39361" lon="4.09346">
        <ele>544</ele>
        <time>2014-05-09T08:56:25Z</time>
      </trkpt>
      <trkpt lat="44.3936" lon="4.09357">
        <ele>545</ele>
        <time>2014-05-09T08:56:33Z</time>
      </trkpt>
      <trkpt lat="44.39359" lon="4.09365">
        <ele>544</ele>
        <time>2014-05-09T08:56:38Z</time>
      </trkpt>
      <trkpt lat="44.39356" lon="4.09372">
        <ele>542</ele>
        <time>2014-05-09T08:56:43Z</time>
      </trkpt>
      <trkpt lat="44.39353" lon="4.09378">
        <ele>541</ele>
        <time>2014-05-09T08:56:46Z</time>
      </trkpt>
      <trkpt lat="44.39349" lon="4.09387">
        <ele>541</ele>
        <time>2014-05-09T08:56:55Z</time>
      </trkpt>
      <trkpt lat="44.39347" lon="4.09393">
        <ele>541</ele>
        <time>2014-05-09T08:57:00Z</time>
      </trkpt>
      <trkpt lat="44.39342" lon="4.09406">
        <ele>540</ele>
        <time>2014-05-09T08:57:08Z</time>
      </trkpt>
      <trkpt lat="44.3934" lon="4.09411">
        <ele>541</ele>
        <time>2014-05-09T08:57:13Z</time>
      </trkpt>
      <trkpt lat="44.39336" lon="4.09417">
        <ele>542</ele>
        <time>2014-05-09T08:57:18Z</time>
      </trkpt>
      <trkpt lat="44.39333" lon="4.09423">
        <ele>542</ele>
        <time>2014-05-09T08:57:22Z</time>
      </trkpt>
      <trkpt lat="44.39329" lon="4.09427">
        <ele>544</ele>
        <time>2014-05-09T08:57:27Z</time>
      </trkpt>
      <trkpt lat="44.39324" lon="4.09432">
        <ele>546</ele>
        <time>2014-05-09T08:57:32Z</time>
      </trkpt>
      <trkpt lat="44.39321" lon="4.09437">
        <ele>547</ele>
        <time>2014-05-09T08:57:37Z</time>
      </trkpt>
      <trkpt lat="44.39316" lon="4.09441">
        <ele>548</ele>
        <time>2014-05-09T08:57:42Z</time>
      </trkpt>
      <trkpt lat="44.39312" lon="4.09444">
        <ele>547</ele>
        <time>2014-05-09T08:57:47Z</time>
      </trkpt>
      <trkpt lat="44.39308" lon="4.09448">
        <ele>547</ele>
        <time>2014-05-09T08:57:52Z</time>
      </trkpt>
      <trkpt lat="44.39303" lon="4.09451">
        <ele>547</ele>
        <time>2014-05-09T08:57:56Z</time>
      </trkpt>
      <trkpt lat="44.39299" lon="4.09453">
        <ele>548</ele>
        <time>2014-05-09T08:58:01Z</time>
      </trkpt>
      <trkpt lat="44.39291" lon="4.09454">
        <ele>548</ele>
        <time>2014-05-09T08:58:09Z</time>
      </trkpt>
      <trkpt lat="44.39281" lon="4.09457">
        <ele>549</ele>
        <time>2014-05-09T08:58:19Z</time>
      </trkpt>
      <trkpt lat="44.39272" lon="4.0946">
        <ele>549</ele>
        <time>2014-05-09T08:58:28Z</time>
      </trkpt>
      <trkpt lat="44.39266" lon="4.09461">
        <ele>549</ele>
        <time>2014-05-09T08:58:33Z</time>
      </trkpt>
      <trkpt lat="44.39261" lon="4.09462">
        <ele>549</ele>
        <time>2014-05-09T08:58:38Z</time>
      </trkpt>
      <trkpt lat="44.39251" lon="4.09461">
        <ele>550</ele>
        <time>2014-05-09T08:58:47Z</time>
      </trkpt>
      <trkpt lat="44.39247" lon="4.09463">
        <ele>551</ele>
        <time>2014-05-09T08:58:51Z</time>
      </trkpt>
      <trkpt lat="44.3924" lon="4.09465">
        <ele>552</ele>
        <time>2014-05-09T08:58:57Z</time>
      </trkpt>
      <trkpt lat="44.39234" lon="4.0947">
        <ele>554</ele>
        <time>2014-05-09T08:59:04Z</time>
      </trkpt>
      <trkpt lat="44.3923" lon="4.09475">
        <ele>555</ele>
        <time>2014-05-09T08:59:09Z</time>
      </trkpt>
      <trkpt lat="44.39226" lon="4.0948">
        <ele>556</ele>
        <time>2014-05-09T08:59:13Z</time>
      </trkpt>
      <trkpt lat="44.39221" lon="4.09488">
        <ele>558</ele>
        <time>2014-05-09T08:59:19Z</time>
      </trkpt>
      <trkpt lat="44.39216" lon="4.0949">
        <ele>559</ele>
        <time>2014-05-09T08:59:26Z</time>
      </trkpt>
      <trkpt lat="44.39212" lon="4.09493">
        <ele>558</ele>
        <time>2014-05-09T08:59:32Z</time>
      </trkpt>
      <trkpt lat="44.39208" lon="4.09497">
        <ele>558</ele>
        <time>2014-05-09T08:59:38Z</time>
      </trkpt>
      <trkpt lat="44.39204" lon="4.09501">
        <ele>557</ele>
        <time>2014-05-09T08:59:43Z</time>
      </trkpt>
      <trkpt lat="44.39198" lon="4.09507">
        <ele>556</ele>
        <time>2014-05-09T08:59:51Z</time>
      </trkpt>
      <trkpt lat="44.39195" lon="4.09512">
        <ele>557</ele>
        <time>2014-05-09T08:59:58Z</time>
      </trkpt>
      <trkpt lat="44.3919" lon="4.09517">
        <ele>558</ele>
        <time>2014-05-09T09:00:04Z</time>
      </trkpt>
      <trkpt lat="44.39185" lon="4.09524">
        <ele>558</ele>
        <time>2014-05-09T09:00:12Z</time>
      </trkpt>
      <trkpt lat="44.39181" lon="4.09529">
        <ele>557</ele>
        <time>2014-05-09T09:00:17Z</time>
      </trkpt>
      <trkpt lat="44.39178" lon="4.09534">
        <ele>557</ele>
        <time>2014-05-09T09:00:21Z</time>
      </trkpt>
      <trkpt lat="44.39175" lon="4.09539">
        <ele>559</ele>
        <time>2014-05-09T09:00:27Z</time>
      </trkpt>
      <trkpt lat="44.39171" lon="4.09544">
        <ele>560</ele>
        <time>2014-05-09T09:00:33Z</time>
      </trkpt>
      <trkpt lat="44.39168" lon="4.09551">
        <ele>559</ele>
        <time>2014-05-09T09:00:40Z</time>
      </trkpt>
      <trkpt lat="44.39167" lon="4.09557">
        <ele>559</ele>
        <time>2014-05-09T09:00:49Z</time>
      </trkpt>
      <trkpt lat="44.39164" lon="4.09564">
        <ele>555</ele>
        <time>2014-05-09T09:01:49Z</time>
      </trkpt>
      <trkpt lat="44.39162" lon="4.0957">
        <ele>555</ele>
        <time>2014-05-09T09:01:53Z</time>
      </trkpt>
      <trkpt lat="44.39158" lon="4.09581">
        <ele>556</ele>
        <time>2014-05-09T09:02:02Z</time>
      </trkpt>
      <trkpt lat="44.39153" lon="4.09589">
        <ele>556</ele>
        <time>2014-05-09T09:02:08Z</time>
      </trkpt>
      <trkpt lat="44.39148" lon="4.09594">
        <ele>556</ele>
        <time>2014-05-09T09:02:13Z</time>
      </trkpt>
      <trkpt lat="44.39143" lon="4.09597">
        <ele>557</ele>
        <time>2014-05-09T09:02:18Z</time>
      </trkpt>
      <trkpt lat="44.39139" lon="4.09599">
        <ele>558</ele>
        <time>2014-05-09T09:02:22Z</time>
      </trkpt>
      <trkpt lat="44.39133" lon="4.09598">
        <ele>558</ele>
        <time>2014-05-09T09:02:28Z</time>
      </trkpt>
      <trkpt lat="44.39128" lon="4.09596">
        <ele>560</ele>
        <time>2014-05-09T09:02:33Z</time>
      </trkpt>
      <trkpt lat="44.39121" lon="4.09587">
        <ele>563</ele>
        <time>2014-05-09T09:02:43Z</time>
      </trkpt>
      <trkpt lat="44.39118" lon="4.09579">
        <ele>565</ele>
        <time>2014-05-09T09:02:49Z</time>
      </trkpt>
      <trkpt lat="44.39113" lon="4.09574">
        <ele>567</ele>
        <time>2014-05-09T09:02:54Z</time>
      </trkpt>
      <trkpt lat="44.39106" lon="4.09571">
        <ele>568</ele>
        <time>2014-05-09T09:03:00Z</time>
      </trkpt>
      <trkpt lat="44.39097" lon="4.09574">
        <ele>569</ele>
        <time>2014-05-09T09:03:07Z</time>
      </trkpt>
      <trkpt lat="44.39091" lon="4.09579">
        <ele>569</ele>
        <time>2014-05-09T09:03:14Z</time>
      </trkpt>
      <trkpt lat="44.39088" lon="4.09584">
        <ele>568</ele>
        <time>2014-05-09T09:03:20Z</time>
      </trkpt>
      <trkpt lat="44.39084" lon="4.09588">
        <ele>567</ele>
        <time>2014-05-09T09:03:24Z</time>
      </trkpt>
      <trkpt lat="44.39078" lon="4.09593">
        <ele>567</ele>
        <time>2014-05-09T09:03:31Z</time>
      </trkpt>
      <trkpt lat="44.39072" lon="4.09599">
        <ele>568</ele>
        <time>2014-05-09T09:03:42Z</time>
      </trkpt>
      <trkpt lat="44.39064" lon="4.09606">
        <ele>567</ele>
        <time>2014-05-09T09:03:54Z</time>
      </trkpt>
      <trkpt lat="44.39058" lon="4.09615">
        <ele>567</ele>
        <time>2014-05-09T09:04:00Z</time>
      </trkpt>
      <trkpt lat="44.39053" lon="4.09623">
        <ele>568</ele>
        <time>2014-05-09T09:04:05Z</time>
      </trkpt>
      <trkpt lat="44.3905" lon="4.09629">
        <ele>569</ele>
        <time>2014-05-09T09:04:09Z</time>
      </trkpt>
      <trkpt lat="44.39049" lon="4.09635">
        <ele>569</ele>
        <time>2014-05-09T09:04:15Z</time>
      </trkpt>
      <trkpt lat="44.39045" lon="4.09641">
        <ele>570</ele>
        <time>2014-05-09T09:04:21Z</time>
      </trkpt>
      <trkpt lat="44.39038" lon="4.09643">
        <ele>570</ele>
        <time>2014-05-09T09:04:29Z</time>
      </trkpt>
      <trkpt lat="44.39033" lon="4.09642">
        <ele>570</ele>
        <time>2014-05-09T09:04:35Z</time>
      </trkpt>
      <trkpt lat="44.39024" lon="4.09639">
        <ele>570</ele>
        <time>2014-05-09T09:04:45Z</time>
      </trkpt>
      <trkpt lat="44.39015" lon="4.09641">
        <ele>570</ele>
        <time>2014-05-09T09:04:54Z</time>
      </trkpt>
      <trkpt lat="44.39006" lon="4.09638">
        <ele>571</ele>
        <time>2014-05-09T09:05:03Z</time>
      </trkpt>
      <trkpt lat="44.38997" lon="4.09632">
        <ele>573</ele>
        <time>2014-05-09T09:05:14Z</time>
      </trkpt>
      <trkpt lat="44.3899" lon="4.09623">
        <ele>574</ele>
        <time>2014-05-09T09:05:23Z</time>
      </trkpt>
      <trkpt lat="44.38981" lon="4.09618">
        <ele>577</ele>
        <time>2014-05-09T09:05:33Z</time>
      </trkpt>
      <trkpt lat="44.38974" lon="4.09609">
        <ele>579</ele>
        <time>2014-05-09T09:05:44Z</time>
      </trkpt>
      <trkpt lat="44.38971" lon="4.09605">
        <ele>578</ele>
        <time>2014-05-09T09:05:48Z</time>
      </trkpt>
      <trkpt lat="44.38963" lon="4.09602">
        <ele>577</ele>
        <time>2014-05-09T09:05:55Z</time>
      </trkpt>
      <trkpt lat="44.38959" lon="4.09605">
        <ele>576</ele>
        <time>2014-05-09T09:05:59Z</time>
      </trkpt>
      <trkpt lat="44.38955" lon="4.0961">
        <ele>576</ele>
        <time>2014-05-09T09:06:05Z</time>
      </trkpt>
      <trkpt lat="44.38952" lon="4.09617">
        <ele>577</ele>
        <time>2014-05-09T09:06:10Z</time>
      </trkpt>
      <trkpt lat="44.38948" lon="4.09627">
        <ele>578</ele>
        <time>2014-05-09T09:06:19Z</time>
      </trkpt>
      <trkpt lat="44.38946" lon="4.09635">
        <ele>579</ele>
        <time>2014-05-09T09:06:27Z</time>
      </trkpt>
      <trkpt lat="44.38943" lon="4.09641">
        <ele>580</ele>
        <time>2014-05-09T09:06:33Z</time>
      </trkpt>
      <trkpt lat="44.38938" lon="4.09652">
        <ele>581</ele>
        <time>2014-05-09T09:06:46Z</time>
      </trkpt>
      <trkpt lat="44.38937" lon="4.09658">
        <ele>580</ele>
        <time>2014-05-09T09:06:51Z</time>
      </trkpt>
      <trkpt lat="44.38931" lon="4.09669">
        <ele>580</ele>
        <time>2014-05-09T09:06:59Z</time>
      </trkpt>
      <trkpt lat="44.38924" lon="4.09682">
        <ele>580</ele>
        <time>2014-05-09T09:07:07Z</time>
      </trkpt>
      <trkpt lat="44.38918" lon="4.09692">
        <ele>582</ele>
        <time>2014-05-09T09:07:15Z</time>
      </trkpt>
      <trkpt lat="44.38913" lon="4.09702">
        <ele>583</ele>
        <time>2014-05-09T09:07:26Z</time>
      </trkpt>
      <trkpt lat="44.38908" lon="4.09712">
        <ele>583</ele>
        <time>2014-05-09T09:07:35Z</time>
      </trkpt>
      <trkpt lat="44.38903" lon="4.09723">
        <ele>583</ele>
        <time>2014-05-09T09:07:43Z</time>
      </trkpt>
      <trkpt lat="44.389" lon="4.0973">
        <ele>584</ele>
        <time>2014-05-09T09:07:50Z</time>
      </trkpt>
      <trkpt lat="44.38897" lon="4.09736">
        <ele>586</ele>
        <time>2014-05-09T09:07:57Z</time>
      </trkpt>
      <trkpt lat="44.38894" lon="4.09741">
        <ele>587</ele>
        <time>2014-05-09T09:08:03Z</time>
      </trkpt>
      <trkpt lat="44.38892" lon="4.09748">
        <ele>586</ele>
        <time>2014-05-09T09:08:08Z</time>
      </trkpt>
      <trkpt lat="44.38887" lon="4.0976">
        <ele>584</ele>
        <time>2014-05-09T09:08:20Z</time>
      </trkpt>
      <trkpt lat="44.38883" lon="4.09769">
        <ele>584</ele>
        <time>2014-05-09T09:08:29Z</time>
      </trkpt>
      <trkpt lat="44.3888" lon="4.09777">
        <ele>584</ele>
        <time>2014-05-09T09:08:39Z</time>
      </trkpt>
      <trkpt lat="44.38879" lon="4.09783">
        <ele>583</ele>
        <time>2014-05-09T09:08:45Z</time>
      </trkpt>
      <trkpt lat="44.38876" lon="4.09795">
        <ele>582</ele>
        <time>2014-05-09T09:08:54Z</time>
      </trkpt>
      <trkpt lat="44.38871" lon="4.09806">
        <ele>582</ele>
        <time>2014-05-09T09:09:04Z</time>
      </trkpt>
      <trkpt lat="44.38865" lon="4.09816">
        <ele>582</ele>
        <time>2014-05-09T09:09:14Z</time>
      </trkpt>
      <trkpt lat="44.38858" lon="4.09825">
        <ele>582</ele>
        <time>2014-05-09T09:09:24Z</time>
      </trkpt>
      <trkpt lat="44.38853" lon="4.09836">
        <ele>587</ele>
        <time>2014-05-09T09:09:34Z</time>
      </trkpt>
      <trkpt lat="44.38848" lon="4.09855">
        <ele>612</ele>
        <time>2014-05-09T09:10:30Z</time>
      </trkpt>
      <trkpt lat="44.38853" lon="4.09853">
        <ele>608</ele>
        <time>2014-05-09T09:10:57Z</time>
      </trkpt>
      <trkpt lat="44.38851" lon="4.09848">
        <ele>605</ele>
        <time>2014-05-09T09:11:21Z</time>
      </trkpt>
      <trkpt lat="44.38848" lon="4.09849">
        <ele>601</ele>
        <time>2014-05-09T09:12:31Z</time>
      </trkpt>
      <trkpt lat="44.38844" lon="4.09842">
        <ele>598</ele>
        <time>2014-05-09T09:13:06Z</time>
      </trkpt>
      <trkpt lat="44.38844" lon="4.09846">
        <ele>597</ele>
        <time>2014-05-09T09:13:48Z</time>
      </trkpt>
      <trkpt lat="44.38847" lon="4.09854">
        <ele>600</ele>
        <time>2014-05-09T09:14:09Z</time>
      </trkpt>
      <trkpt lat="44.38849" lon="4.0985">
        <ele>604</ele>
        <time>2014-05-09T09:14:58Z</time>
      </trkpt>
      <trkpt lat="44.38853" lon="4.09852">
        <ele>605</ele>
        <time>2014-05-09T09:15:13Z</time>
      </trkpt>
      <trkpt lat="44.38849" lon="4.09852">
        <ele>609</ele>
        <time>2014-05-09T09:16:23Z</time>
      </trkpt>
      <trkpt lat="44.38841" lon="4.09853">
        <ele>603</ele>
        <time>2014-05-09T09:16:57Z</time>
      </trkpt>
      <trkpt lat="44.38849" lon="4.09843">
        <ele>599</ele>
        <time>2014-05-09T09:18:18Z</time>
      </trkpt>
      <trkpt lat="44.38849" lon="4.09844">
        <ele>612</ele>
        <time>2014-05-09T09:20:46Z</time>
      </trkpt>
      <trkpt lat="44.38862" lon="4.09855">
        <ele>597</ele>
        <time>2014-05-09T10:20:45Z</time>
      </trkpt>
      <trkpt lat="44.38862" lon="4.09854">
        <ele>595</ele>
        <time>2014-05-09T10:22:36Z</time>
      </trkpt>
      <trkpt lat="44.38852" lon="4.09851">
        <ele>597</ele>
        <time>2014-05-09T10:22:48Z</time>
      </trkpt>
      <trkpt lat="44.38847" lon="4.09848">
        <ele>599</ele>
        <time>2014-05-09T10:22:56Z</time>
      </trkpt>
      <trkpt lat="44.38836" lon="4.0985">
        <ele>596</ele>
        <time>2014-05-09T10:23:15Z</time>
      </trkpt>
      <trkpt lat="44.38832" lon="4.09853">
        <ele>593</ele>
        <time>2014-05-09T10:23:26Z</time>
      </trkpt>
      <trkpt lat="44.38822" lon="4.09845">
        <ele>588</ele>
        <time>2014-05-09T10:23:45Z</time>
      </trkpt>
      <trkpt lat="44.38819" lon="4.0984">
        <ele>587</ele>
        <time>2014-05-09T10:23:54Z</time>
      </trkpt>
      <trkpt lat="44.38814" lon="4.09838">
        <ele>585</ele>
        <time>2014-05-09T10:24:06Z</time>
      </trkpt>
      <trkpt lat="44.3881" lon="4.09833">
        <ele>585</ele>
        <time>2014-05-09T10:24:15Z</time>
      </trkpt>
      <trkpt lat="44.388" lon="4.09825">
        <ele>580</ele>
        <time>2014-05-09T10:24:37Z</time>
      </trkpt>
      <trkpt lat="44.38792" lon="4.0982">
        <ele>578</ele>
        <time>2014-05-09T10:24:48Z</time>
      </trkpt>
      <trkpt lat="44.38781" lon="4.09818">
        <ele>577</ele>
        <time>2014-05-09T10:25:05Z</time>
      </trkpt>
      <trkpt lat="44.38773" lon="4.0982">
        <ele>577</ele>
        <time>2014-05-09T10:25:18Z</time>
      </trkpt>
      <trkpt lat="44.38763" lon="4.09818">
        <ele>572</ele>
        <time>2014-05-09T10:25:34Z</time>
      </trkpt>
      <trkpt lat="44.38754" lon="4.09821">
        <ele>567</ele>
        <time>2014-05-09T10:25:50Z</time>
      </trkpt>
      <trkpt lat="44.38745" lon="4.09827">
        <ele>571</ele>
        <time>2014-05-09T10:26:08Z</time>
      </trkpt>
      <trkpt lat="44.38739" lon="4.09841">
        <ele>568</ele>
        <time>2014-05-09T10:26:37Z</time>
      </trkpt>
      <trkpt lat="44.38734" lon="4.09853">
        <ele>560</ele>
        <time>2014-05-09T10:26:51Z</time>
      </trkpt>
      <trkpt lat="44.38726" lon="4.09861">
        <ele>559</ele>
        <time>2014-05-09T10:27:03Z</time>
      </trkpt>
      <trkpt lat="44.38719" lon="4.09869">
        <ele>559</ele>
        <time>2014-05-09T10:27:15Z</time>
      </trkpt>
      <trkpt lat="44.3871" lon="4.09874">
        <ele>560</ele>
        <time>2014-05-09T10:27:30Z</time>
      </trkpt>
      <trkpt lat="44.38701" lon="4.09879">
        <ele>559</ele>
        <time>2014-05-09T10:27:42Z</time>
      </trkpt>
      <trkpt lat="44.38691" lon="4.09886">
        <ele>556</ele>
        <time>2014-05-09T10:27:50Z</time>
      </trkpt>
      <trkpt lat="44.38683" lon="4.09893">
        <ele>551</ele>
        <time>2014-05-09T10:28:05Z</time>
      </trkpt>
      <trkpt lat="44.38678" lon="4.09903">
        <ele>550</ele>
        <time>2014-05-09T10:28:18Z</time>
      </trkpt>
      <trkpt lat="44.38671" lon="4.09914">
        <ele>551</ele>
        <time>2014-05-09T10:28:28Z</time>
      </trkpt>
      <trkpt lat="44.38665" lon="4.09924">
        <ele>550</ele>
        <time>2014-05-09T10:28:36Z</time>
      </trkpt>
      <trkpt lat="44.3866" lon="4.09936">
        <ele>552</ele>
        <time>2014-05-09T10:28:50Z</time>
      </trkpt>
      <trkpt lat="44.3865" lon="4.09945">
        <ele>548</ele>
        <time>2014-05-09T10:29:06Z</time>
      </trkpt>
      <trkpt lat="44.38641" lon="4.09947">
        <ele>547</ele>
        <time>2014-05-09T10:29:15Z</time>
      </trkpt>
      <trkpt lat="44.38632" lon="4.09953">
        <ele>547</ele>
        <time>2014-05-09T10:29:27Z</time>
      </trkpt>
      <trkpt lat="44.38623" lon="4.09959">
        <ele>546</ele>
        <time>2014-05-09T10:29:41Z</time>
      </trkpt>
      <trkpt lat="44.38614" lon="4.09962">
        <ele>544</ele>
        <time>2014-05-09T10:29:52Z</time>
      </trkpt>
      <trkpt lat="44.38605" lon="4.09967">
        <ele>544</ele>
        <time>2014-05-09T10:29:59Z</time>
      </trkpt>
      <trkpt lat="44.38596" lon="4.09973">
        <ele>545</ele>
        <time>2014-05-09T10:30:07Z</time>
      </trkpt>
      <trkpt lat="44.38588" lon="4.09977">
        <ele>542</ele>
        <time>2014-05-09T10:30:22Z</time>
      </trkpt>
      <trkpt lat="44.38582" lon="4.09977">
        <ele>541</ele>
        <time>2014-05-09T10:30:27Z</time>
      </trkpt>
      <trkpt lat="44.38575" lon="4.09977">
        <ele>540</ele>
        <time>2014-05-09T10:30:31Z</time>
      </trkpt>
      <trkpt lat="44.3857" lon="4.09978">
        <ele>540</ele>
        <time>2014-05-09T10:30:36Z</time>
      </trkpt>
      <trkpt lat="44.38565" lon="4.09979">
        <ele>540</ele>
        <time>2014-05-09T10:30:40Z</time>
      </trkpt>
      <trkpt lat="44.38557" lon="4.09983">
        <ele>537</ele>
        <time>2014-05-09T10:30:47Z</time>
      </trkpt>
      <trkpt lat="44.38548" lon="4.09986">
        <ele>535</ele>
        <time>2014-05-09T10:30:56Z</time>
      </trkpt>
      <trkpt lat="44.38538" lon="4.09987">
        <ele>535</ele>
        <time>2014-05-09T10:31:07Z</time>
      </trkpt>
      <trkpt lat="44.38533" lon="4.09991">
        <ele>536</ele>
        <time>2014-05-09T10:31:12Z</time>
      </trkpt>
      <trkpt lat="44.38529" lon="4.09988">
        <ele>521</ele>
        <time>2014-05-09T10:31:56Z</time>
      </trkpt>
      <trkpt lat="44.38526" lon="4.09988">
        <ele>523</ele>
        <time>2014-05-09T10:32:09Z</time>
      </trkpt>
      <trkpt lat="44.38522" lon="4.09991">
        <ele>526</ele>
        <time>2014-05-09T10:32:17Z</time>
      </trkpt>
      <trkpt lat="44.38517" lon="4.09996">
        <ele>528</ele>
        <time>2014-05-09T10:32:26Z</time>
      </trkpt>
      <trkpt lat="44.38513" lon="4.09999">
        <ele>529</ele>
        <time>2014-05-09T10:32:33Z</time>
      </trkpt>
      <trkpt lat="44.38508" lon="4.10001">
        <ele>530</ele>
        <time>2014-05-09T10:32:38Z</time>
      </trkpt>
      <trkpt lat="44.38501" lon="4.10005">
        <ele>531</ele>
        <time>2014-05-09T10:32:50Z</time>
      </trkpt>
      <trkpt lat="44.38495" lon="4.10009">
        <ele>531</ele>
        <time>2014-05-09T10:32:56Z</time>
      </trkpt>
      <trkpt lat="44.38491" lon="4.10011">
        <ele>530</ele>
        <time>2014-05-09T10:33:01Z</time>
      </trkpt>
      <trkpt lat="44.38486" lon="4.10009">
        <ele>530</ele>
        <time>2014-05-09T10:33:07Z</time>
      </trkpt>
      <trkpt lat="44.38469" lon="4.10011">
        <ele>522</ele>
        <time>2014-05-09T10:33:38Z</time>
      </trkpt>
      <trkpt lat="44.38464" lon="4.10011">
        <ele>521</ele>
        <time>2014-05-09T10:33:50Z</time>
      </trkpt>
      <trkpt lat="44.38459" lon="4.10014">
        <ele>520</ele>
        <time>2014-05-09T10:34:02Z</time>
      </trkpt>
      <trkpt lat="44.38449" lon="4.10014">
        <ele>520</ele>
        <time>2014-05-09T10:34:09Z</time>
      </trkpt>
      <trkpt lat="44.38444" lon="4.10024">
        <ele>523</ele>
        <time>2014-05-09T10:34:45Z</time>
      </trkpt>
      <trkpt lat="44.38439" lon="4.10026">
        <ele>522</ele>
        <time>2014-05-09T10:34:52Z</time>
      </trkpt>
      <trkpt lat="44.38435" lon="4.10028">
        <ele>519</ele>
        <time>2014-05-09T10:35:08Z</time>
      </trkpt>
      <trkpt lat="44.3844" lon="4.10042">
        <ele>521</ele>
        <time>2014-05-09T10:38:30Z</time>
      </trkpt>
      <trkpt lat="44.38442" lon="4.10038">
        <ele>520</ele>
        <time>2014-05-09T10:39:22Z</time>
      </trkpt>
      <trkpt lat="44.38441" lon="4.10021">
        <ele>519</ele>
        <time>2014-05-09T10:39:50Z</time>
      </trkpt>
      <trkpt lat="44.38436" lon="4.1001">
        <ele>520</ele>
        <time>2014-05-09T10:40:02Z</time>
      </trkpt>
      <trkpt lat="44.3843" lon="4.10009">
        <ele>519</ele>
        <time>2014-05-09T10:40:15Z</time>
      </trkpt>
      <trkpt lat="44.38425" lon="4.10018">
        <ele>520</ele>
        <time>2014-05-09T10:40:54Z</time>
      </trkpt>
      <trkpt lat="44.38424" lon="4.10032">
        <ele>519</ele>
        <time>2014-05-09T10:41:00Z</time>
      </trkpt>
      <trkpt lat="44.38417" lon="4.10042">
        <ele>515</ele>
        <time>2014-05-09T10:41:10Z</time>
      </trkpt>
      <trkpt lat="44.38428" lon="4.10062">
        <ele>512</ele>
        <time>2014-05-09T10:41:33Z</time>
      </trkpt>
      <trkpt lat="44.38431" lon="4.10075">
        <ele>509</ele>
        <time>2014-05-09T10:41:40Z</time>
      </trkpt>
      <trkpt lat="44.3843" lon="4.10088">
        <ele>508</ele>
        <time>2014-05-09T10:41:48Z</time>
      </trkpt>
      <trkpt lat="44.38433" lon="4.101">
        <ele>508</ele>
        <time>2014-05-09T10:41:59Z</time>
      </trkpt>
      <trkpt lat="44.38436" lon="4.10102">
        <ele>502</ele>
        <time>2014-05-09T10:42:24Z</time>
      </trkpt>
      <trkpt lat="44.38439" lon="4.10103">
        <ele>507</ele>
        <time>2014-05-09T10:43:53Z</time>
      </trkpt>
      <trkpt lat="44.38441" lon="4.10108">
        <ele>506</ele>
        <time>2014-05-09T10:46:42Z</time>
      </trkpt>
      <trkpt lat="44.38452" lon="4.10112">
        <ele>506</ele>
        <time>2014-05-09T10:47:00Z</time>
      </trkpt>
      <trkpt lat="44.38456" lon="4.10115">
        <ele>503</ele>
        <time>2014-05-09T10:47:24Z</time>
      </trkpt>
      <trkpt lat="44.38464" lon="4.10123">
        <ele>502</ele>
        <time>2014-05-09T10:47:42Z</time>
      </trkpt>
      <trkpt lat="44.38472" lon="4.10129">
        <ele>500</ele>
        <time>2014-05-09T10:47:57Z</time>
      </trkpt>
      <trkpt lat="44.3848" lon="4.10136">
        <ele>499</ele>
        <time>2014-05-09T10:48:10Z</time>
      </trkpt>
      <trkpt lat="44.38488" lon="4.10142">
        <ele>494</ele>
        <time>2014-05-09T10:48:23Z</time>
      </trkpt>
      <trkpt lat="44.38498" lon="4.10145">
        <ele>491</ele>
        <time>2014-05-09T10:48:36Z</time>
      </trkpt>
      <trkpt lat="44.38507" lon="4.10148">
        <ele>491</ele>
        <time>2014-05-09T10:48:49Z</time>
      </trkpt>
      <trkpt lat="44.38517" lon="4.10151">
        <ele>488</ele>
        <time>2014-05-09T10:49:03Z</time>
      </trkpt>
      <trkpt lat="44.38525" lon="4.10155">
        <ele>484</ele>
        <time>2014-05-09T10:49:17Z</time>
      </trkpt>
      <trkpt lat="44.38534" lon="4.10158">
        <ele>482</ele>
        <time>2014-05-09T10:49:35Z</time>
      </trkpt>
      <trkpt lat="44.3854" lon="4.10155">
        <ele>485</ele>
        <time>2014-05-09T10:49:52Z</time>
      </trkpt>
      <trkpt lat="44.38547" lon="4.10147">
        <ele>487</ele>
        <time>2014-05-09T10:50:05Z</time>
      </trkpt>
      <trkpt lat="44.38557" lon="4.10142">
        <ele>487</ele>
        <time>2014-05-09T10:50:15Z</time>
      </trkpt>
      <trkpt lat="44.38566" lon="4.10147">
        <ele>485</ele>
        <time>2014-05-09T10:50:22Z</time>
      </trkpt>
      <trkpt lat="44.38574" lon="4.10155">
        <ele>480</ele>
        <time>2014-05-09T10:50:31Z</time>
      </trkpt>
      <trkpt lat="44.38579" lon="4.10166">
        <ele>477</ele>
        <time>2014-05-09T10:50:41Z</time>
      </trkpt>
      <trkpt lat="44.38586" lon="4.10175">
        <ele>474</ele>
        <time>2014-05-09T10:50:51Z</time>
      </trkpt>
      <trkpt lat="44.38591" lon="4.10187">
        <ele>474</ele>
        <time>2014-05-09T10:51:04Z</time>
      </trkpt>
      <trkpt lat="44.38599" lon="4.10196">
        <ele>474</ele>
        <time>2014-05-09T10:51:18Z</time>
      </trkpt>
      <trkpt lat="44.38609" lon="4.10205">
        <ele>476</ele>
        <time>2014-05-09T10:51:38Z</time>
      </trkpt>
      <trkpt lat="44.38618" lon="4.10205">
        <ele>471</ele>
        <time>2014-05-09T10:51:51Z</time>
      </trkpt>
      <trkpt lat="44.38628" lon="4.10201">
        <ele>470</ele>
        <time>2014-05-09T10:52:02Z</time>
      </trkpt>
      <trkpt lat="44.38637" lon="4.10197">
        <ele>471</ele>
        <time>2014-05-09T10:52:15Z</time>
      </trkpt>
      <trkpt lat="44.38647" lon="4.102">
        <ele>469</ele>
        <time>2014-05-09T10:52:30Z</time>
      </trkpt>
      <trkpt lat="44.38657" lon="4.10203">
        <ele>464</ele>
        <time>2014-05-09T10:52:39Z</time>
      </trkpt>
      <trkpt lat="44.38665" lon="4.10214">
        <ele>459</ele>
        <time>2014-05-09T10:52:53Z</time>
      </trkpt>
      <trkpt lat="44.38667" lon="4.10226">
        <ele>458</ele>
        <time>2014-05-09T10:53:00Z</time>
      </trkpt>
      <trkpt lat="44.3867" lon="4.10235">
        <ele>458</ele>
        <time>2014-05-09T10:53:05Z</time>
      </trkpt>
      <trkpt lat="44.3867" lon="4.10244">
        <ele>458</ele>
        <time>2014-05-09T10:53:13Z</time>
      </trkpt>
      <trkpt lat="44.38671" lon="4.10251">
        <ele>457</ele>
        <time>2014-05-09T10:53:19Z</time>
      </trkpt>
      <trkpt lat="44.38672" lon="4.10258">
        <ele>456</ele>
        <time>2014-05-09T10:53:24Z</time>
      </trkpt>
      <trkpt lat="44.38672" lon="4.10265">
        <ele>455</ele>
        <time>2014-05-09T10:53:29Z</time>
      </trkpt>
      <trkpt lat="44.38672" lon="4.10271">
        <ele>454</ele>
        <time>2014-05-09T10:53:34Z</time>
      </trkpt>
      <trkpt lat="44.38672" lon="4.10279">
        <ele>454</ele>
        <time>2014-05-09T10:53:40Z</time>
      </trkpt>
      <trkpt lat="44.38669" lon="4.10288">
        <ele>455</ele>
        <time>2014-05-09T10:53:47Z</time>
      </trkpt>
      <trkpt lat="44.38668" lon="4.10296">
        <ele>455</ele>
        <time>2014-05-09T10:53:55Z</time>
      </trkpt>
      <trkpt lat="44.38667" lon="4.10302">
        <ele>456</ele>
        <time>2014-05-09T10:54:00Z</time>
      </trkpt>
      <trkpt lat="44.38665" lon="4.10309">
        <ele>458</ele>
        <time>2014-05-09T10:54:06Z</time>
      </trkpt>
      <trkpt lat="44.38667" lon="4.10321">
        <ele>460</ele>
        <time>2014-05-09T10:54:16Z</time>
      </trkpt>
      <trkpt lat="44.38666" lon="4.10328">
        <ele>459</ele>
        <time>2014-05-09T10:54:22Z</time>
      </trkpt>
      <trkpt lat="44.38667" lon="4.10335">
        <ele>462</ele>
        <time>2014-05-09T10:54:29Z</time>
      </trkpt>
      <trkpt lat="44.38668" lon="4.10341">
        <ele>463</ele>
        <time>2014-05-09T10:54:36Z</time>
      </trkpt>
      <trkpt lat="44.3867" lon="4.10347">
        <ele>463</ele>
        <time>2014-05-09T10:54:42Z</time>
      </trkpt>
      <trkpt lat="44.38671" lon="4.10353">
        <ele>463</ele>
        <time>2014-05-09T10:54:47Z</time>
      </trkpt>
      <trkpt lat="44.38671" lon="4.1036">
        <ele>463</ele>
        <time>2014-05-09T10:54:53Z</time>
      </trkpt>
      <trkpt lat="44.38672" lon="4.10367">
        <ele>464</ele>
        <time>2014-05-09T10:54:58Z</time>
      </trkpt>
      <trkpt lat="44.38673" lon="4.10373">
        <ele>464</ele>
        <time>2014-05-09T10:55:04Z</time>
      </trkpt>
      <trkpt lat="44.38676" lon="4.10378">
        <ele>464</ele>
        <time>2014-05-09T10:55:10Z</time>
      </trkpt>
      <trkpt lat="44.38678" lon="4.10384">
        <ele>465</ele>
        <time>2014-05-09T10:55:17Z</time>
      </trkpt>
      <trkpt lat="44.38674" lon="4.10385">
        <ele>470</ele>
        <time>2014-05-09T10:56:23Z</time>
      </trkpt>
      <trkpt lat="44.38676" lon="4.10384">
        <ele>469</ele>
        <time>2014-05-09T10:57:16Z</time>
      </trkpt>
      <trkpt lat="44.38678" lon="4.10389">
        <ele>469</ele>
        <time>2014-05-09T10:57:23Z</time>
      </trkpt>
      <trkpt lat="44.38683" lon="4.10393">
        <ele>469</ele>
        <time>2014-05-09T10:57:28Z</time>
      </trkpt>
      <trkpt lat="44.38686" lon="4.10399">
        <ele>469</ele>
        <time>2014-05-09T10:57:34Z</time>
      </trkpt>
      <trkpt lat="44.38688" lon="4.10405">
        <ele>468</ele>
        <time>2014-05-09T10:57:40Z</time>
      </trkpt>
      <trkpt lat="44.38692" lon="4.10408">
        <ele>466</ele>
        <time>2014-05-09T10:57:47Z</time>
      </trkpt>
      <trkpt lat="44.38698" lon="4.1041">
        <ele>465</ele>
        <time>2014-05-09T10:57:52Z</time>
      </trkpt>
      <trkpt lat="44.38703" lon="4.10409">
        <ele>465</ele>
        <time>2014-05-09T10:57:56Z</time>
      </trkpt>
      <trkpt lat="44.38707" lon="4.10409">
        <ele>465</ele>
        <time>2014-05-09T10:58:01Z</time>
      </trkpt>
      <trkpt lat="44.38712" lon="4.10409">
        <ele>465</ele>
        <time>2014-05-09T10:58:06Z</time>
      </trkpt>
      <trkpt lat="44.38718" lon="4.10408">
        <ele>465</ele>
        <time>2014-05-09T10:58:10Z</time>
      </trkpt>
      <trkpt lat="44.38723" lon="4.10408">
        <ele>466</ele>
        <time>2014-05-09T10:58:14Z</time>
      </trkpt>
      <trkpt lat="44.3873" lon="4.10407">
        <ele>467</ele>
        <time>2014-05-09T10:58:21Z</time>
      </trkpt>
      <trkpt lat="44.38735" lon="4.10407">
        <ele>468</ele>
        <time>2014-05-09T10:58:25Z</time>
      </trkpt>
      <trkpt lat="44.38743" lon="4.10404">
        <ele>469</ele>
        <time>2014-05-09T10:58:34Z</time>
      </trkpt>
      <trkpt lat="44.38753" lon="4.10405">
        <ele>470</ele>
        <time>2014-05-09T10:58:46Z</time>
      </trkpt>
      <trkpt lat="44.38762" lon="4.10407">
        <ele>467</ele>
        <time>2014-05-09T10:58:58Z</time>
      </trkpt>
      <trkpt lat="44.38772" lon="4.10406">
        <ele>467</ele>
        <time>2014-05-09T10:59:08Z</time>
      </trkpt>
      <trkpt lat="44.38781" lon="4.10407">
        <ele>469</ele>
        <time>2014-05-09T10:59:17Z</time>
      </trkpt>
      <trkpt lat="44.38791" lon="4.10404">
        <ele>468</ele>
        <time>2014-05-09T10:59:24Z</time>
      </trkpt>
      <trkpt lat="44.388" lon="4.10401">
        <ele>467</ele>
        <time>2014-05-09T10:59:33Z</time>
      </trkpt>
      <trkpt lat="44.38811" lon="4.104">
        <ele>465</ele>
        <time>2014-05-09T10:59:44Z</time>
      </trkpt>
      <trkpt lat="44.38821" lon="4.10404">
        <ele>464</ele>
        <time>2014-05-09T10:59:51Z</time>
      </trkpt>
      <trkpt lat="44.38828" lon="4.10413">
        <ele>462</ele>
        <time>2014-05-09T10:59:58Z</time>
      </trkpt>
      <trkpt lat="44.38831" lon="4.10425">
        <ele>462</ele>
        <time>2014-05-09T11:00:05Z</time>
      </trkpt>
      <trkpt lat="44.38832" lon="4.10438">
        <ele>462</ele>
        <time>2014-05-09T11:00:13Z</time>
      </trkpt>
      <trkpt lat="44.38833" lon="4.10445">
        <ele>462</ele>
        <time>2014-05-09T11:00:18Z</time>
      </trkpt>
      <trkpt lat="44.38832" lon="4.10453">
        <ele>462</ele>
        <time>2014-05-09T11:00:23Z</time>
      </trkpt>
      <trkpt lat="44.38832" lon="4.10459">
        <ele>462</ele>
        <time>2014-05-09T11:00:28Z</time>
      </trkpt>
      <trkpt lat="44.38831" lon="4.10467">
        <ele>461</ele>
        <time>2014-05-09T11:00:33Z</time>
      </trkpt>
      <trkpt lat="44.3883" lon="4.10474">
        <ele>460</ele>
        <time>2014-05-09T11:00:39Z</time>
      </trkpt>
      <trkpt lat="44.38829" lon="4.10484">
        <ele>459</ele>
        <time>2014-05-09T11:00:56Z</time>
      </trkpt>
      <trkpt lat="44.38828" lon="4.10498">
        <ele>458</ele>
        <time>2014-05-09T11:01:10Z</time>
      </trkpt>
      <trkpt lat="44.38824" lon="4.10509">
        <ele>459</ele>
        <time>2014-05-09T11:01:22Z</time>
      </trkpt>
      <trkpt lat="44.38821" lon="4.10521">
        <ele>460</ele>
        <time>2014-05-09T11:01:32Z</time>
      </trkpt>
      <trkpt lat="44.38819" lon="4.10527">
        <ele>461</ele>
        <time>2014-05-09T11:01:38Z</time>
      </trkpt>
      <trkpt lat="44.38815" lon="4.10539">
        <ele>461</ele>
        <time>2014-05-09T11:01:48Z</time>
      </trkpt>
      <trkpt lat="44.38813" lon="4.10546">
        <ele>462</ele>
        <time>2014-05-09T11:01:55Z</time>
      </trkpt>
      <trkpt lat="44.38809" lon="4.10558">
        <ele>464</ele>
        <time>2014-05-09T11:02:06Z</time>
      </trkpt>
      <trkpt lat="44.38806" lon="4.1057">
        <ele>463</ele>
        <time>2014-05-09T11:02:19Z</time>
      </trkpt>
      <trkpt lat="44.38806" lon="4.10583">
        <ele>461</ele>
        <time>2014-05-09T11:02:30Z</time>
      </trkpt>
      <trkpt lat="44.38803" lon="4.10596">
        <ele>460</ele>
        <time>2014-05-09T11:02:42Z</time>
      </trkpt>
      <trkpt lat="44.38801" lon="4.10609">
        <ele>461</ele>
        <time>2014-05-09T11:02:51Z</time>
      </trkpt>
      <trkpt lat="44.38801" lon="4.10625">
        <ele>465</ele>
        <time>2014-05-09T11:03:04Z</time>
      </trkpt>
      <trkpt lat="44.38799" lon="4.10632">
        <ele>466</ele>
        <time>2014-05-09T11:03:10Z</time>
      </trkpt>
      <trkpt lat="44.38797" lon="4.10645">
        <ele>469</ele>
        <time>2014-05-09T11:03:22Z</time>
      </trkpt>
      <trkpt lat="44.38792" lon="4.10657">
        <ele>470</ele>
        <time>2014-05-09T11:03:37Z</time>
      </trkpt>
      <trkpt lat="44.38791" lon="4.10669">
        <ele>469</ele>
        <time>2014-05-09T11:03:45Z</time>
      </trkpt>
      <trkpt lat="44.38793" lon="4.10676">
        <ele>471</ele>
        <time>2014-05-09T11:03:51Z</time>
      </trkpt>
      <trkpt lat="44.38795" lon="4.10678">
        <ele>472</ele>
        <time>2014-05-09T11:03:57Z</time>
      </trkpt>
      <trkpt lat="44.388" lon="4.10677">
        <ele>473</ele>
        <time>2014-05-09T11:04:03Z</time>
      </trkpt>
      <trkpt lat="44.38809" lon="4.10671">
        <ele>474</ele>
        <time>2014-05-09T11:04:18Z</time>
      </trkpt>
      <trkpt lat="44.38814" lon="4.1067">
        <ele>473</ele>
        <time>2014-05-09T11:04:21Z</time>
      </trkpt>
      <trkpt lat="44.3882" lon="4.10668">
        <ele>471</ele>
        <time>2014-05-09T11:04:29Z</time>
      </trkpt>
      <trkpt lat="44.38827" lon="4.10668">
        <ele>468</ele>
        <time>2014-05-09T11:04:38Z</time>
      </trkpt>
      <trkpt lat="44.38834" lon="4.10665">
        <ele>469</ele>
        <time>2014-05-09T11:04:47Z</time>
      </trkpt>
      <trkpt lat="44.38843" lon="4.10658">
        <ele>472</ele>
        <time>2014-05-09T11:05:10Z</time>
      </trkpt>
      <trkpt lat="44.38852" lon="4.10655">
        <ele>467</ele>
        <time>2014-05-09T11:05:24Z</time>
      </trkpt>
      <trkpt lat="44.38868" lon="4.10649">
        <ele>467</ele>
        <time>2014-05-09T11:05:41Z</time>
      </trkpt>
      <trkpt lat="44.3888" lon="4.10651">
        <ele>467</ele>
        <time>2014-05-09T11:05:46Z</time>
      </trkpt>
      <trkpt lat="44.38888" lon="4.10661">
        <ele>466</ele>
        <time>2014-05-09T11:05:52Z</time>
      </trkpt>
      <trkpt lat="44.38892" lon="4.10674">
        <ele>466</ele>
        <time>2014-05-09T11:06:01Z</time>
      </trkpt>
      <trkpt lat="44.38895" lon="4.1068">
        <ele>466</ele>
        <time>2014-05-09T11:06:05Z</time>
      </trkpt>
      <trkpt lat="44.38897" lon="4.10685">
        <ele>465</ele>
        <time>2014-05-09T11:06:10Z</time>
      </trkpt>
      <trkpt lat="44.38898" lon="4.10691">
        <ele>464</ele>
        <time>2014-05-09T11:06:14Z</time>
      </trkpt>
      <trkpt lat="44.38905" lon="4.10721">
        <ele>455</ele>
        <time>2014-05-09T11:06:42Z</time>
      </trkpt>
      <trkpt lat="44.38906" lon="4.10727">
        <ele>455</ele>
        <time>2014-05-09T11:06:47Z</time>
      </trkpt>
      <trkpt lat="44.38904" lon="4.1073">
        <ele>456</ele>
        <time>2014-05-09T11:06:54Z</time>
      </trkpt>
      <trkpt lat="44.38904" lon="4.10738">
        <ele>460</ele>
        <time>2014-05-09T11:07:06Z</time>
      </trkpt>
      <trkpt lat="44.38907" lon="4.10745">
        <ele>460</ele>
        <time>2014-05-09T11:07:10Z</time>
      </trkpt>
      <trkpt lat="44.38913" lon="4.10753">
        <ele>455</ele>
        <time>2014-05-09T11:07:26Z</time>
      </trkpt>
      <trkpt lat="44.38917" lon="4.10757">
        <ele>454</ele>
        <time>2014-05-09T11:07:32Z</time>
      </trkpt>
      <trkpt lat="44.38922" lon="4.10764">
        <ele>451</ele>
        <time>2014-05-09T11:07:49Z</time>
      </trkpt>
      <trkpt lat="44.38927" lon="4.10769">
        <ele>451</ele>
        <time>2014-05-09T11:07:56Z</time>
      </trkpt>
      <trkpt lat="44.38929" lon="4.10775">
        <ele>453</ele>
        <time>2014-05-09T11:08:03Z</time>
      </trkpt>
      <trkpt lat="44.38939" lon="4.10784">
        <ele>455</ele>
        <time>2014-05-09T11:08:22Z</time>
      </trkpt>
      <trkpt lat="44.38946" lon="4.10791">
        <ele>457</ele>
        <time>2014-05-09T11:08:35Z</time>
      </trkpt>
      <trkpt lat="44.38952" lon="4.10798">
        <ele>457</ele>
        <time>2014-05-09T11:08:43Z</time>
      </trkpt>
      <trkpt lat="44.38955" lon="4.10805">
        <ele>458</ele>
        <time>2014-05-09T11:08:48Z</time>
      </trkpt>
      <trkpt lat="44.38961" lon="4.10815">
        <ele>457</ele>
        <time>2014-05-09T11:09:00Z</time>
      </trkpt>
      <trkpt lat="44.3897" lon="4.10824">
        <ele>456</ele>
        <time>2014-05-09T11:09:10Z</time>
      </trkpt>
      <trkpt lat="44.38974" lon="4.10837">
        <ele>455</ele>
        <time>2014-05-09T11:09:19Z</time>
      </trkpt>
      <trkpt lat="44.38974" lon="4.1085">
        <ele>457</ele>
        <time>2014-05-09T11:09:28Z</time>
      </trkpt>
      <trkpt lat="44.38975" lon="4.10864">
        <ele>457</ele>
        <time>2014-05-09T11:09:34Z</time>
      </trkpt>
      <trkpt lat="44.38976" lon="4.10874">
        <ele>458</ele>
        <time>2014-05-09T11:09:40Z</time>
      </trkpt>
      <trkpt lat="44.38978" lon="4.10881">
        <ele>457</ele>
        <time>2014-05-09T11:09:45Z</time>
      </trkpt>
      <trkpt lat="44.38979" lon="4.10888">
        <ele>457</ele>
        <time>2014-05-09T11:09:49Z</time>
      </trkpt>
      <trkpt lat="44.38983" lon="4.109">
        <ele>455</ele>
        <time>2014-05-09T11:10:01Z</time>
      </trkpt>
      <trkpt lat="44.38982" lon="4.10914">
        <ele>452</ele>
        <time>2014-05-09T11:10:13Z</time>
      </trkpt>
      <trkpt lat="44.38976" lon="4.10925">
        <ele>451</ele>
        <time>2014-05-09T11:10:28Z</time>
      </trkpt>
      <trkpt lat="44.3897" lon="4.10935">
        <ele>451</ele>
        <time>2014-05-09T11:10:35Z</time>
      </trkpt>
      <trkpt lat="44.38965" lon="4.10948">
        <ele>451</ele>
        <time>2014-05-09T11:10:41Z</time>
      </trkpt>
      <trkpt lat="44.38962" lon="4.10954">
        <ele>450</ele>
        <time>2014-05-09T11:10:45Z</time>
      </trkpt>
      <trkpt lat="44.38958" lon="4.1096">
        <ele>448</ele>
        <time>2014-05-09T11:10:54Z</time>
      </trkpt>
      <trkpt lat="44.38951" lon="4.1097">
        <ele>450</ele>
        <time>2014-05-09T11:11:05Z</time>
      </trkpt>
      <trkpt lat="44.38948" lon="4.10974">
        <ele>450</ele>
        <time>2014-05-09T11:11:10Z</time>
      </trkpt>
      <trkpt lat="44.38946" lon="4.10981">
        <ele>450</ele>
        <time>2014-05-09T11:11:16Z</time>
      </trkpt>
      <trkpt lat="44.38944" lon="4.10988">
        <ele>449</ele>
        <time>2014-05-09T11:11:23Z</time>
      </trkpt>
      <trkpt lat="44.38943" lon="4.10995">
        <ele>447</ele>
        <time>2014-05-09T11:11:30Z</time>
      </trkpt>
      <trkpt lat="44.38935" lon="4.11003">
        <ele>446</ele>
        <time>2014-05-09T11:11:43Z</time>
      </trkpt>
      <trkpt lat="44.38932" lon="4.1101">
        <ele>444</ele>
        <time>2014-05-09T11:11:51Z</time>
      </trkpt>
      <trkpt lat="44.38927" lon="4.11016">
        <ele>442</ele>
        <time>2014-05-09T11:12:04Z</time>
      </trkpt>
      <trkpt lat="44.38922" lon="4.1102">
        <ele>441</ele>
        <time>2014-05-09T11:12:10Z</time>
      </trkpt>
      <trkpt lat="44.38915" lon="4.11024">
        <ele>441</ele>
        <time>2014-05-09T11:12:18Z</time>
      </trkpt>
      <trkpt lat="44.38912" lon="4.11029">
        <ele>440</ele>
        <time>2014-05-09T11:12:25Z</time>
      </trkpt>
      <trkpt lat="44.38903" lon="4.11037">
        <ele>440</ele>
        <time>2014-05-09T11:12:36Z</time>
      </trkpt>
      <trkpt lat="44.38898" lon="4.11036">
        <ele>439</ele>
        <time>2014-05-09T11:12:41Z</time>
      </trkpt>
      <trkpt lat="44.38893" lon="4.11035">
        <ele>438</ele>
        <time>2014-05-09T11:12:46Z</time>
      </trkpt>
      <trkpt lat="44.38889" lon="4.11038">
        <ele>438</ele>
        <time>2014-05-09T11:12:51Z</time>
      </trkpt>
      <trkpt lat="44.3889" lon="4.11045">
        <ele>437</ele>
        <time>2014-05-09T11:12:57Z</time>
      </trkpt>
      <trkpt lat="44.38893" lon="4.11049">
        <ele>437</ele>
        <time>2014-05-09T11:13:04Z</time>
      </trkpt>
      <trkpt lat="44.38902" lon="4.11057">
        <ele>437</ele>
        <time>2014-05-09T11:13:20Z</time>
      </trkpt>
      <trkpt lat="44.38906" lon="4.11056">
        <ele>438</ele>
        <time>2014-05-09T11:13:25Z</time>
      </trkpt>
      <trkpt lat="44.38909" lon="4.11056">
        <ele>439</ele>
        <time>2014-05-09T11:13:31Z</time>
      </trkpt>
      <trkpt lat="44.38913" lon="4.11058">
        <ele>439</ele>
        <time>2014-05-09T11:13:36Z</time>
      </trkpt>
      <trkpt lat="44.38919" lon="4.11058">
        <ele>438</ele>
        <time>2014-05-09T11:13:42Z</time>
      </trkpt>
      <trkpt lat="44.38923" lon="4.11054">
        <ele>437</ele>
        <time>2014-05-09T11:13:46Z</time>
      </trkpt>
      <trkpt lat="44.38934" lon="4.11053">
        <ele>436</ele>
        <time>2014-05-09T11:13:59Z</time>
      </trkpt>
      <trkpt lat="44.38941" lon="4.11062">
        <ele>435</ele>
        <time>2014-05-09T11:14:06Z</time>
      </trkpt>
      <trkpt lat="44.38948" lon="4.11071">
        <ele>435</ele>
        <time>2014-05-09T11:14:15Z</time>
      </trkpt>
      <trkpt lat="44.38957" lon="4.11073">
        <ele>432</ele>
        <time>2014-05-09T11:14:24Z</time>
      </trkpt>
      <trkpt lat="44.38967" lon="4.11073">
        <ele>430</ele>
        <time>2014-05-09T11:14:35Z</time>
      </trkpt>
      <trkpt lat="44.38976" lon="4.11078">
        <ele>426</ele>
        <time>2014-05-09T11:14:45Z</time>
      </trkpt>
      <trkpt lat="44.38986" lon="4.11084">
        <ele>424</ele>
        <time>2014-05-09T11:14:55Z</time>
      </trkpt>
      <trkpt lat="44.38995" lon="4.11095">
        <ele>426</ele>
        <time>2014-05-09T11:15:12Z</time>
      </trkpt>
      <trkpt lat="44.38996" lon="4.1111">
        <ele>425</ele>
        <time>2014-05-09T11:15:38Z</time>
      </trkpt>
      <trkpt lat="44.39005" lon="4.11117">
        <ele>426</ele>
        <time>2014-05-09T11:15:56Z</time>
      </trkpt>
      <trkpt lat="44.39014" lon="4.11118">
        <ele>423</ele>
        <time>2014-05-09T11:16:10Z</time>
      </trkpt>
      <trkpt lat="44.39023" lon="4.11119">
        <ele>419</ele>
        <time>2014-05-09T11:16:31Z</time>
      </trkpt>
      <trkpt lat="44.39029" lon="4.11129">
        <ele>416</ele>
        <time>2014-05-09T11:16:41Z</time>
      </trkpt>
      <trkpt lat="44.39035" lon="4.1114">
        <ele>413</ele>
        <time>2014-05-09T11:16:52Z</time>
      </trkpt>
      <trkpt lat="44.39039" lon="4.11151">
        <ele>412</ele>
        <time>2014-05-09T11:17:00Z</time>
      </trkpt>
      <trkpt lat="44.39038" lon="4.11164">
        <ele>410</ele>
        <time>2014-05-09T11:17:08Z</time>
      </trkpt>
      <trkpt lat="44.39034" lon="4.11175">
        <ele>409</ele>
        <time>2014-05-09T11:17:19Z</time>
      </trkpt>
      <trkpt lat="44.3903" lon="4.11186">
        <ele>407</ele>
        <time>2014-05-09T11:17:30Z</time>
      </trkpt>
      <trkpt lat="44.39026" lon="4.11198">
        <ele>407</ele>
        <time>2014-05-09T11:17:41Z</time>
      </trkpt>
      <trkpt lat="44.39021" lon="4.11214">
        <ele>404</ele>
        <time>2014-05-09T11:17:54Z</time>
      </trkpt>
      <trkpt lat="44.39019" lon="4.1122">
        <ele>404</ele>
        <time>2014-05-09T11:17:57Z</time>
      </trkpt>
      <trkpt lat="44.39016" lon="4.1123">
        <ele>404</ele>
        <time>2014-05-09T11:18:08Z</time>
      </trkpt>
      <trkpt lat="44.39011" lon="4.11241">
        <ele>403</ele>
        <time>2014-05-09T11:18:19Z</time>
      </trkpt>
      <trkpt lat="44.39007" lon="4.1125">
        <ele>401</ele>
        <time>2014-05-09T11:18:27Z</time>
      </trkpt>
      <trkpt lat="44.39003" lon="4.11259">
        <ele>401</ele>
        <time>2014-05-09T11:18:33Z</time>
      </trkpt>
      <trkpt lat="44.39001" lon="4.11265">
        <ele>400</ele>
        <time>2014-05-09T11:18:37Z</time>
      </trkpt>
      <trkpt lat="44.39" lon="4.11271">
        <ele>400</ele>
        <time>2014-05-09T11:18:40Z</time>
      </trkpt>
      <trkpt lat="44.38996" lon="4.11275">
        <ele>400</ele>
        <time>2014-05-09T11:18:45Z</time>
      </trkpt>
      <trkpt lat="44.38994" lon="4.11276">
        <ele>399</ele>
        <time>2014-05-09T11:18:51Z</time>
      </trkpt>
      <trkpt lat="44.38991" lon="4.11282">
        <ele>399</ele>
        <time>2014-05-09T11:18:56Z</time>
      </trkpt>
      <trkpt lat="44.38989" lon="4.11288">
        <ele>398</ele>
        <time>2014-05-09T11:19:00Z</time>
      </trkpt>
      <trkpt lat="44.38988" lon="4.11294">
        <ele>397</ele>
        <time>2014-05-09T11:19:07Z</time>
      </trkpt>
      <trkpt lat="44.38984" lon="4.11302">
        <ele>399</ele>
        <time>2014-05-09T11:19:15Z</time>
      </trkpt>
      <trkpt lat="44.38978" lon="4.11314">
        <ele>400</ele>
        <time>2014-05-09T11:19:24Z</time>
      </trkpt>
      <trkpt lat="44.38975" lon="4.11322">
        <ele>400</ele>
        <time>2014-05-09T11:19:32Z</time>
      </trkpt>
      <trkpt lat="44.38971" lon="4.1133">
        <ele>399</ele>
        <time>2014-05-09T11:19:40Z</time>
      </trkpt>
      <trkpt lat="44.38967" lon="4.11341">
        <ele>397</ele>
        <time>2014-05-09T11:19:50Z</time>
      </trkpt>
      <trkpt lat="44.38963" lon="4.11348">
        <ele>396</ele>
        <time>2014-05-09T11:19:53Z</time>
      </trkpt>
      <trkpt lat="44.38961" lon="4.11361">
        <ele>396</ele>
        <time>2014-05-09T11:20:01Z</time>
      </trkpt>
      <trkpt lat="44.38958" lon="4.11371">
        <ele>398</ele>
        <time>2014-05-09T11:20:10Z</time>
      </trkpt>
      <trkpt lat="44.38957" lon="4.11382">
        <ele>397</ele>
        <time>2014-05-09T11:20:19Z</time>
      </trkpt>
      <trkpt lat="44.38957" lon="4.11389">
        <ele>395</ele>
        <time>2014-05-09T11:20:25Z</time>
      </trkpt>
      <trkpt lat="44.38957" lon="4.11396">
        <ele>394</ele>
        <time>2014-05-09T11:20:30Z</time>
      </trkpt>
      <trkpt lat="44.38957" lon="4.11403">
        <ele>394</ele>
        <time>2014-05-09T11:20:34Z</time>
      </trkpt>
      <trkpt lat="44.38959" lon="4.11409">
        <ele>395</ele>
        <time>2014-05-09T11:20:39Z</time>
      </trkpt>
      <trkpt lat="44.38959" lon="4.11416">
        <ele>395</ele>
        <time>2014-05-09T11:20:45Z</time>
      </trkpt>
      <trkpt lat="44.3896" lon="4.11423">
        <ele>396</ele>
        <time>2014-05-09T11:20:50Z</time>
      </trkpt>
      <trkpt lat="44.38961" lon="4.1143">
        <ele>395</ele>
        <time>2014-05-09T11:20:54Z</time>
      </trkpt>
      <trkpt lat="44.38963" lon="4.11435">
        <ele>396</ele>
        <time>2014-05-09T11:21:00Z</time>
      </trkpt>
      <trkpt lat="44.38969" lon="4.11453">
        <ele>389</ele>
        <time>2014-05-09T11:21:18Z</time>
      </trkpt>
      <trkpt lat="44.3897" lon="4.11466">
        <ele>389</ele>
        <time>2014-05-09T11:21:28Z</time>
      </trkpt>
      <trkpt lat="44.38975" lon="4.11476">
        <ele>390</ele>
        <time>2014-05-09T11:21:34Z</time>
      </trkpt>
      <trkpt lat="44.38977" lon="4.11482">
        <ele>390</ele>
        <time>2014-05-09T11:21:38Z</time>
      </trkpt>
      <trkpt lat="44.3898" lon="4.11495">
        <ele>391</ele>
        <time>2014-05-09T11:21:46Z</time>
      </trkpt>
      <trkpt lat="44.38979" lon="4.11501">
        <ele>393</ele>
        <time>2014-05-09T11:21:51Z</time>
      </trkpt>
      <trkpt lat="44.38981" lon="4.11508">
        <ele>394</ele>
        <time>2014-05-09T11:21:57Z</time>
      </trkpt>
      <trkpt lat="44.38982" lon="4.11516">
        <ele>394</ele>
        <time>2014-05-09T11:22:03Z</time>
      </trkpt>
      <trkpt lat="44.38983" lon="4.11523">
        <ele>394</ele>
        <time>2014-05-09T11:22:07Z</time>
      </trkpt>
      <trkpt lat="44.38983" lon="4.1153">
        <ele>393</ele>
        <time>2014-05-09T11:22:10Z</time>
      </trkpt>
      <trkpt lat="44.38986" lon="4.11542">
        <ele>393</ele>
        <time>2014-05-09T11:22:19Z</time>
      </trkpt>
      <trkpt lat="44.38988" lon="4.11552">
        <ele>394</ele>
        <time>2014-05-09T11:22:28Z</time>
      </trkpt>
      <trkpt lat="44.38988" lon="4.11559">
        <ele>394</ele>
        <time>2014-05-09T11:22:36Z</time>
      </trkpt>
      <trkpt lat="44.38989" lon="4.11566">
        <ele>394</ele>
        <time>2014-05-09T11:22:43Z</time>
      </trkpt>
      <trkpt lat="44.3899" lon="4.11573">
        <ele>393</ele>
        <time>2014-05-09T11:22:51Z</time>
      </trkpt>
      <trkpt lat="44.38991" lon="4.11579">
        <ele>393</ele>
        <time>2014-05-09T11:22:55Z</time>
      </trkpt>
      <trkpt lat="44.38994" lon="4.11585">
        <ele>393</ele>
        <time>2014-05-09T11:23:01Z</time>
      </trkpt>
      <trkpt lat="44.38998" lon="4.1159">
        <ele>392</ele>
        <time>2014-05-09T11:23:08Z</time>
      </trkpt>
      <trkpt lat="44.39002" lon="4.11595">
        <ele>391</ele>
        <time>2014-05-09T11:23:16Z</time>
      </trkpt>
      <trkpt lat="44.39004" lon="4.116">
        <ele>391</ele>
        <time>2014-05-09T11:23:23Z</time>
      </trkpt>
      <trkpt lat="44.39007" lon="4.11605">
        <ele>389</ele>
        <time>2014-05-09T11:23:31Z</time>
      </trkpt>
      <trkpt lat="44.3901" lon="4.11607">
        <ele>388</ele>
        <time>2014-05-09T11:23:37Z</time>
      </trkpt>
      <trkpt lat="44.39014" lon="4.1161">
        <ele>388</ele>
        <time>2014-05-09T11:23:44Z</time>
      </trkpt>
      <trkpt lat="44.39019" lon="4.11614">
        <ele>386</ele>
        <time>2014-05-09T11:23:52Z</time>
      </trkpt>
      <trkpt lat="44.39022" lon="4.11618">
        <ele>385</ele>
        <time>2014-05-09T11:23:58Z</time>
      </trkpt>
      <trkpt lat="44.39027" lon="4.11619">
        <ele>385</ele>
        <time>2014-05-09T11:24:02Z</time>
      </trkpt>
      <trkpt lat="44.39032" lon="4.11618">
        <ele>386</ele>
        <time>2014-05-09T11:24:09Z</time>
      </trkpt>
      <trkpt lat="44.39037" lon="4.11617">
        <ele>385</ele>
        <time>2014-05-09T11:24:15Z</time>
      </trkpt>
      <trkpt lat="44.39044" lon="4.11618">
        <ele>385</ele>
        <time>2014-05-09T11:24:28Z</time>
      </trkpt>
      <trkpt lat="44.39049" lon="4.11621">
        <ele>384</ele>
        <time>2014-05-09T11:24:34Z</time>
      </trkpt>
      <trkpt lat="44.39054" lon="4.11623">
        <ele>382</ele>
        <time>2014-05-09T11:24:46Z</time>
      </trkpt>
      <trkpt lat="44.39059" lon="4.11626">
        <ele>381</ele>
        <time>2014-05-09T11:24:55Z</time>
      </trkpt>
      <trkpt lat="44.39064" lon="4.11627">
        <ele>381</ele>
        <time>2014-05-09T11:25:02Z</time>
      </trkpt>
      <trkpt lat="44.39067" lon="4.11629">
        <ele>380</ele>
        <time>2014-05-09T11:25:08Z</time>
      </trkpt>
      <trkpt lat="44.39071" lon="4.1163">
        <ele>379</ele>
        <time>2014-05-09T11:25:13Z</time>
      </trkpt>
      <trkpt lat="44.39079" lon="4.11634">
        <ele>376</ele>
        <time>2014-05-09T11:25:24Z</time>
      </trkpt>
      <trkpt lat="44.39085" lon="4.11635">
        <ele>376</ele>
        <time>2014-05-09T11:25:32Z</time>
      </trkpt>
      <trkpt lat="44.39091" lon="4.11637">
        <ele>375</ele>
        <time>2014-05-09T11:25:40Z</time>
      </trkpt>
      <trkpt lat="44.39097" lon="4.11639">
        <ele>374</ele>
        <time>2014-05-09T11:25:46Z</time>
      </trkpt>
      <trkpt lat="44.39101" lon="4.11642">
        <ele>374</ele>
        <time>2014-05-09T11:25:50Z</time>
      </trkpt>
      <trkpt lat="44.39108" lon="4.11641">
        <ele>374</ele>
        <time>2014-05-09T11:26:09Z</time>
      </trkpt>
      <trkpt lat="44.39115" lon="4.1164">
        <ele>374</ele>
        <time>2014-05-09T11:26:25Z</time>
      </trkpt>
      <trkpt lat="44.3912" lon="4.11641">
        <ele>372</ele>
        <time>2014-05-09T11:26:29Z</time>
      </trkpt>
      <trkpt lat="44.39125" lon="4.11644">
        <ele>372</ele>
        <time>2014-05-09T11:26:35Z</time>
      </trkpt>
      <trkpt lat="44.39128" lon="4.1165">
        <ele>372</ele>
        <time>2014-05-09T11:26:41Z</time>
      </trkpt>
      <trkpt lat="44.39128" lon="4.11657">
        <ele>371</ele>
        <time>2014-05-09T11:26:48Z</time>
      </trkpt>
      <trkpt lat="44.39127" lon="4.11664">
        <ele>372</ele>
        <time>2014-05-09T11:26:53Z</time>
      </trkpt>
      <trkpt lat="44.39126" lon="4.1167">
        <ele>372</ele>
        <time>2014-05-09T11:27:01Z</time>
      </trkpt>
      <trkpt lat="44.39125" lon="4.11678">
        <ele>371</ele>
        <time>2014-05-09T11:27:08Z</time>
      </trkpt>
      <trkpt lat="44.39127" lon="4.11683">
        <ele>369</ele>
        <time>2014-05-09T11:27:18Z</time>
      </trkpt>
      <trkpt lat="44.39124" lon="4.11696">
        <ele>366</ele>
        <time>2014-05-09T11:27:29Z</time>
      </trkpt>
      <trkpt lat="44.39127" lon="4.11709">
        <ele>362</ele>
        <time>2014-05-09T11:27:42Z</time>
      </trkpt>
      <trkpt lat="44.3913" lon="4.11721">
        <ele>361</ele>
        <time>2014-05-09T11:27:50Z</time>
      </trkpt>
      <trkpt lat="44.39135" lon="4.11733">
        <ele>360</ele>
        <time>2014-05-09T11:28:00Z</time>
      </trkpt>
      <trkpt lat="44.3914" lon="4.11742">
        <ele>360</ele>
        <time>2014-05-09T11:28:08Z</time>
      </trkpt>
      <trkpt lat="44.39143" lon="4.11747">
        <ele>359</ele>
        <time>2014-05-09T11:28:13Z</time>
      </trkpt>
      <trkpt lat="44.39145" lon="4.11752">
        <ele>359</ele>
        <time>2014-05-09T11:28:18Z</time>
      </trkpt>
      <trkpt lat="44.39148" lon="4.11758">
        <ele>360</ele>
        <time>2014-05-09T11:28:23Z</time>
      </trkpt>
      <trkpt lat="44.39152" lon="4.11762">
        <ele>361</ele>
        <time>2014-05-09T11:28:28Z</time>
      </trkpt>
      <trkpt lat="44.39155" lon="4.11767">
        <ele>360</ele>
        <time>2014-05-09T11:28:34Z</time>
      </trkpt>
      <trkpt lat="44.39159" lon="4.11772">
        <ele>358</ele>
        <time>2014-05-09T11:28:40Z</time>
      </trkpt>
      <trkpt lat="44.39164" lon="4.11778">
        <ele>359</ele>
        <time>2014-05-09T11:28:46Z</time>
      </trkpt>
      <trkpt lat="44.3917" lon="4.11784">
        <ele>357</ele>
        <time>2014-05-09T11:28:55Z</time>
      </trkpt>
      <trkpt lat="44.39173" lon="4.11788">
        <ele>357</ele>
        <time>2014-05-09T11:29:01Z</time>
      </trkpt>
      <trkpt lat="44.39177" lon="4.11792">
        <ele>357</ele>
        <time>2014-05-09T11:29:09Z</time>
      </trkpt>
      <trkpt lat="44.39181" lon="4.11795">
        <ele>358</ele>
        <time>2014-05-09T11:29:15Z</time>
      </trkpt>
      <trkpt lat="44.39185" lon="4.11801">
        <ele>357</ele>
        <time>2014-05-09T11:29:21Z</time>
      </trkpt>
      <trkpt lat="44.39189" lon="4.11804">
        <ele>357</ele>
        <time>2014-05-09T11:29:27Z</time>
      </trkpt>
      <trkpt lat="44.39191" lon="4.11805">
        <ele>357</ele>
        <time>2014-05-09T11:29:33Z</time>
      </trkpt>
      <trkpt lat="44.39194" lon="4.11811">
        <ele>356</ele>
        <time>2014-05-09T11:29:47Z</time>
      </trkpt>
      <trkpt lat="44.39196" lon="4.11814">
        <ele>351</ele>
        <time>2014-05-09T11:30:41Z</time>
      </trkpt>
      <trkpt lat="44.39196" lon="4.11812">
        <ele>354</ele>
        <time>2014-05-09T11:33:00Z</time>
      </trkpt>
      <trkpt lat="44.39202" lon="4.11813">
        <ele>355</ele>
        <time>2014-05-09T11:36:58Z</time>
      </trkpt>
      <trkpt lat="44.39205" lon="4.11804">
        <ele>353</ele>
        <time>2014-05-09T11:39:56Z</time>
      </trkpt>
      <trkpt lat="44.392" lon="4.11793">
        <ele>353</ele>
        <time>2014-05-09T11:40:06Z</time>
      </trkpt>
      <trkpt lat="44.39197" lon="4.11788">
        <ele>352</ele>
        <time>2014-05-09T11:40:12Z</time>
      </trkpt>
      <trkpt lat="44.39191" lon="4.11778">
        <ele>353</ele>
        <time>2014-05-09T11:40:22Z</time>
      </trkpt>
      <trkpt lat="44.39187" lon="4.11771">
        <ele>354</ele>
        <time>2014-05-09T11:40:28Z</time>
      </trkpt>
      <trkpt lat="44.39183" lon="4.11767">
        <ele>355</ele>
        <time>2014-05-09T11:40:31Z</time>
      </trkpt>
      <trkpt lat="44.3918" lon="4.11762">
        <ele>355</ele>
        <time>2014-05-09T11:40:35Z</time>
      </trkpt>
      <trkpt lat="44.39176" lon="4.11758">
        <ele>355</ele>
        <time>2014-05-09T11:40:39Z</time>
      </trkpt>
      <trkpt lat="44.39171" lon="4.11754">
        <ele>355</ele>
        <time>2014-05-09T11:40:43Z</time>
      </trkpt>
      <trkpt lat="44.39166" lon="4.11749">
        <ele>357</ele>
        <time>2014-05-09T11:40:47Z</time>
      </trkpt>
      <trkpt lat="44.39159" lon="4.1174">
        <ele>356</ele>
        <time>2014-05-09T11:40:54Z</time>
      </trkpt>
      <trkpt lat="44.39155" lon="4.11728">
        <ele>356</ele>
        <time>2014-05-09T11:41:02Z</time>
      </trkpt>
      <trkpt lat="44.39157" lon="4.11716">
        <ele>355</ele>
        <time>2014-05-09T11:41:10Z</time>
      </trkpt>
      <trkpt lat="44.39158" lon="4.11702">
        <ele>353</ele>
        <time>2014-05-09T11:41:18Z</time>
      </trkpt>
      <trkpt lat="44.39161" lon="4.1169">
        <ele>354</ele>
        <time>2014-05-09T11:41:26Z</time>
      </trkpt>
      <trkpt lat="44.39168" lon="4.11681">
        <ele>354</ele>
        <time>2014-05-09T11:41:34Z</time>
      </trkpt>
      <trkpt lat="44.39173" lon="4.1167">
        <ele>354</ele>
        <time>2014-05-09T11:41:43Z</time>
      </trkpt>
      <trkpt lat="44.39177" lon="4.11658">
        <ele>354</ele>
        <time>2014-05-09T11:41:50Z</time>
      </trkpt>
      <trkpt lat="44.39182" lon="4.11647">
        <ele>354</ele>
        <time>2014-05-09T11:42:00Z</time>
      </trkpt>
      <trkpt lat="44.39188" lon="4.11637">
        <ele>353</ele>
        <time>2014-05-09T11:42:11Z</time>
      </trkpt>
      <trkpt lat="44.39194" lon="4.11627">
        <ele>356</ele>
        <time>2014-05-09T11:42:22Z</time>
      </trkpt>
      <trkpt lat="44.39201" lon="4.11618">
        <ele>356</ele>
        <time>2014-05-09T11:42:34Z</time>
      </trkpt>
      <trkpt lat="44.39209" lon="4.11612">
        <ele>356</ele>
        <time>2014-05-09T11:42:42Z</time>
      </trkpt>
      <trkpt lat="44.39216" lon="4.11604">
        <ele>357</ele>
        <time>2014-05-09T11:42:51Z</time>
      </trkpt>
      <trkpt lat="44.39224" lon="4.11595">
        <ele>358</ele>
        <time>2014-05-09T11:43:00Z</time>
      </trkpt>
      <trkpt lat="44.3923" lon="4.11585">
        <ele>358</ele>
        <time>2014-05-09T11:43:09Z</time>
      </trkpt>
      <trkpt lat="44.39238" lon="4.11578">
        <ele>357</ele>
        <time>2014-05-09T11:43:19Z</time>
      </trkpt>
      <trkpt lat="44.39245" lon="4.11569">
        <ele>357</ele>
        <time>2014-05-09T11:43:29Z</time>
      </trkpt>
      <trkpt lat="44.3925" lon="4.11559">
        <ele>358</ele>
        <time>2014-05-09T11:43:40Z</time>
      </trkpt>
      <trkpt lat="44.39259" lon="4.11552">
        <ele>359</ele>
        <time>2014-05-09T11:43:49Z</time>
      </trkpt>
      <trkpt lat="44.39266" lon="4.11543">
        <ele>360</ele>
        <time>2014-05-09T11:43:59Z</time>
      </trkpt>
      <trkpt lat="44.39272" lon="4.11532">
        <ele>361</ele>
        <time>2014-05-09T11:44:10Z</time>
      </trkpt>
      <trkpt lat="44.39279" lon="4.11524">
        <ele>363</ele>
        <time>2014-05-09T11:44:20Z</time>
      </trkpt>
      <trkpt lat="44.39286" lon="4.11515">
        <ele>364</ele>
        <time>2014-05-09T11:44:30Z</time>
      </trkpt>
      <trkpt lat="44.39294" lon="4.11507">
        <ele>365</ele>
        <time>2014-05-09T11:44:41Z</time>
      </trkpt>
      <trkpt lat="44.39301" lon="4.11498">
        <ele>366</ele>
        <time>2014-05-09T11:44:50Z</time>
      </trkpt>
      <trkpt lat="44.39309" lon="4.11489">
        <ele>366</ele>
        <time>2014-05-09T11:45:00Z</time>
      </trkpt>
      <trkpt lat="44.39314" lon="4.11478">
        <ele>366</ele>
        <time>2014-05-09T11:45:11Z</time>
      </trkpt>
      <trkpt lat="44.39321" lon="4.11469">
        <ele>366</ele>
        <time>2014-05-09T11:45:20Z</time>
      </trkpt>
      <trkpt lat="44.39325" lon="4.11457">
        <ele>366</ele>
        <time>2014-05-09T11:45:31Z</time>
      </trkpt>
      <trkpt lat="44.3933" lon="4.11445">
        <ele>367</ele>
        <time>2014-05-09T11:45:43Z</time>
      </trkpt>
      <trkpt lat="44.39335" lon="4.11433">
        <ele>370</ele>
        <time>2014-05-09T11:45:51Z</time>
      </trkpt>
      <trkpt lat="44.39345" lon="4.11416">
        <ele>370</ele>
        <time>2014-05-09T11:46:08Z</time>
      </trkpt>
      <trkpt lat="44.39349" lon="4.11404">
        <ele>369</ele>
        <time>2014-05-09T11:46:17Z</time>
      </trkpt>
      <trkpt lat="44.39354" lon="4.11394">
        <ele>369</ele>
        <time>2014-05-09T11:46:28Z</time>
      </trkpt>
      <trkpt lat="44.3936" lon="4.11383">
        <ele>370</ele>
        <time>2014-05-09T11:46:40Z</time>
      </trkpt>
      <trkpt lat="44.39365" lon="4.11371">
        <ele>370</ele>
        <time>2014-05-09T11:46:51Z</time>
      </trkpt>
      <trkpt lat="44.3937" lon="4.11361">
        <ele>371</ele>
        <time>2014-05-09T11:47:03Z</time>
      </trkpt>
      <trkpt lat="44.39375" lon="4.1135">
        <ele>372</ele>
        <time>2014-05-09T11:47:13Z</time>
      </trkpt>
      <trkpt lat="44.39382" lon="4.1134">
        <ele>373</ele>
        <time>2014-05-09T11:47:20Z</time>
      </trkpt>
      <trkpt lat="44.39385" lon="4.11328">
        <ele>374</ele>
        <time>2014-05-09T11:47:32Z</time>
      </trkpt>
      <trkpt lat="44.39389" lon="4.11317">
        <ele>375</ele>
        <time>2014-05-09T11:47:43Z</time>
      </trkpt>
      <trkpt lat="44.39394" lon="4.11306">
        <ele>376</ele>
        <time>2014-05-09T11:47:52Z</time>
      </trkpt>
      <trkpt lat="44.39399" lon="4.11294">
        <ele>378</ele>
        <time>2014-05-09T11:48:04Z</time>
      </trkpt>
      <trkpt lat="44.39405" lon="4.11283">
        <ele>378</ele>
        <time>2014-05-09T11:48:13Z</time>
      </trkpt>
      <trkpt lat="44.39409" lon="4.11271">
        <ele>380</ele>
        <time>2014-05-09T11:48:25Z</time>
      </trkpt>
      <trkpt lat="44.39414" lon="4.11259">
        <ele>383</ele>
        <time>2014-05-09T11:48:37Z</time>
      </trkpt>
      <trkpt lat="44.39418" lon="4.11248">
        <ele>382</ele>
        <time>2014-05-09T11:48:46Z</time>
      </trkpt>
      <trkpt lat="44.39422" lon="4.11234">
        <ele>380</ele>
        <time>2014-05-09T11:48:58Z</time>
      </trkpt>
      <trkpt lat="44.39423" lon="4.11221">
        <ele>381</ele>
        <time>2014-05-09T11:49:08Z</time>
      </trkpt>
      <trkpt lat="44.39429" lon="4.11208">
        <ele>382</ele>
        <time>2014-05-09T11:49:20Z</time>
      </trkpt>
      <trkpt lat="44.39431" lon="4.11195">
        <ele>384</ele>
        <time>2014-05-09T11:49:30Z</time>
      </trkpt>
      <trkpt lat="44.39433" lon="4.1118">
        <ele>386</ele>
        <time>2014-05-09T11:49:41Z</time>
      </trkpt>
      <trkpt lat="44.39436" lon="4.11166">
        <ele>387</ele>
        <time>2014-05-09T11:49:53Z</time>
      </trkpt>
      <trkpt lat="44.39437" lon="4.11154">
        <ele>388</ele>
        <time>2014-05-09T11:50:03Z</time>
      </trkpt>
      <trkpt lat="44.39435" lon="4.11141">
        <ele>388</ele>
        <time>2014-05-09T11:50:12Z</time>
      </trkpt>
      <trkpt lat="44.39433" lon="4.11124">
        <ele>390</ele>
        <time>2014-05-09T11:50:25Z</time>
      </trkpt>
      <trkpt lat="44.39433" lon="4.1111">
        <ele>390</ele>
        <time>2014-05-09T11:50:35Z</time>
      </trkpt>
      <trkpt lat="44.39432" lon="4.11096">
        <ele>392</ele>
        <time>2014-05-09T11:50:44Z</time>
      </trkpt>
      <trkpt lat="44.39428" lon="4.11084">
        <ele>393</ele>
        <time>2014-05-09T11:50:55Z</time>
      </trkpt>
      <trkpt lat="44.39422" lon="4.11074">
        <ele>393</ele>
        <time>2014-05-09T11:51:05Z</time>
      </trkpt>
      <trkpt lat="44.39417" lon="4.11062">
        <ele>393</ele>
        <time>2014-05-09T11:51:13Z</time>
      </trkpt>
      <trkpt lat="44.39411" lon="4.11052">
        <ele>394</ele>
        <time>2014-05-09T11:51:23Z</time>
      </trkpt>
      <trkpt lat="44.39403" lon="4.11042">
        <ele>395</ele>
        <time>2014-05-09T11:51:31Z</time>
      </trkpt>
      <trkpt lat="44.394" lon="4.11034">
        <ele>399</ele>
        <time>2014-05-09T11:52:18Z</time>
      </trkpt>
      <trkpt lat="44.39393" lon="4.11026">
        <ele>398</ele>
        <time>2014-05-09T11:52:30Z</time>
      </trkpt>
      <trkpt lat="44.39388" lon="4.11015">
        <ele>398</ele>
        <time>2014-05-09T11:52:40Z</time>
      </trkpt>
      <trkpt lat="44.39383" lon="4.11004">
        <ele>397</ele>
        <time>2014-05-09T11:52:51Z</time>
      </trkpt>
      <trkpt lat="44.39378" lon="4.10994">
        <ele>396</ele>
        <time>2014-05-09T11:52:59Z</time>
      </trkpt>
      <trkpt lat="44.39369" lon="4.10987">
        <ele>396</ele>
        <time>2014-05-09T11:53:07Z</time>
      </trkpt>
      <trkpt lat="44.39361" lon="4.10981">
        <ele>396</ele>
        <time>2014-05-09T11:53:13Z</time>
      </trkpt>
      <trkpt lat="44.39354" lon="4.10973">
        <ele>396</ele>
        <time>2014-05-09T11:53:20Z</time>
      </trkpt>
      <trkpt lat="44.39348" lon="4.10963">
        <ele>395</ele>
        <time>2014-05-09T11:53:30Z</time>
      </trkpt>
      <trkpt lat="44.3934" lon="4.10954">
        <ele>396</ele>
        <time>2014-05-09T11:53:37Z</time>
      </trkpt>
      <trkpt lat="44.39333" lon="4.10947">
        <ele>396</ele>
        <time>2014-05-09T11:53:45Z</time>
      </trkpt>
      <trkpt lat="44.39324" lon="4.10942">
        <ele>394</ele>
        <time>2014-05-09T11:53:54Z</time>
      </trkpt>
      <trkpt lat="44.39316" lon="4.10936">
        <ele>392</ele>
        <time>2014-05-09T11:54:02Z</time>
      </trkpt>
      <trkpt lat="44.39312" lon="4.10923">
        <ele>390</ele>
        <time>2014-05-09T11:54:14Z</time>
      </trkpt>
      <trkpt lat="44.39313" lon="4.1091">
        <ele>390</ele>
        <time>2014-05-09T11:54:22Z</time>
      </trkpt>
      <trkpt lat="44.39315" lon="4.10898">
        <ele>389</ele>
        <time>2014-05-09T11:54:29Z</time>
      </trkpt>
      <trkpt lat="44.39318" lon="4.10884">
        <ele>388</ele>
        <time>2014-05-09T11:54:39Z</time>
      </trkpt>
      <trkpt lat="44.39319" lon="4.10872">
        <ele>387</ele>
        <time>2014-05-09T11:54:47Z</time>
      </trkpt>
      <trkpt lat="44.39322" lon="4.10859">
        <ele>385</ele>
        <time>2014-05-09T11:54:57Z</time>
      </trkpt>
      <trkpt lat="44.39321" lon="4.10847">
        <ele>384</ele>
        <time>2014-05-09T11:55:04Z</time>
      </trkpt>
      <trkpt lat="44.39318" lon="4.10834">
        <ele>384</ele>
        <time>2014-05-09T11:55:11Z</time>
      </trkpt>
      <trkpt lat="44.39318" lon="4.10821">
        <ele>384</ele>
        <time>2014-05-09T11:55:20Z</time>
      </trkpt>
      <trkpt lat="44.39324" lon="4.10812">
        <ele>384</ele>
        <time>2014-05-09T11:55:31Z</time>
      </trkpt>
      <trkpt lat="44.39333" lon="4.10808">
        <ele>386</ele>
        <time>2014-05-09T11:55:44Z</time>
      </trkpt>
      <trkpt lat="44.39343" lon="4.10808">
        <ele>385</ele>
        <time>2014-05-09T11:55:57Z</time>
      </trkpt>
      <trkpt lat="44.39351" lon="4.10813">
        <ele>381</ele>
        <time>2014-05-09T11:56:17Z</time>
      </trkpt>
      <trkpt lat="44.39356" lon="4.10806">
        <ele>384</ele>
        <time>2014-05-09T11:57:22Z</time>
      </trkpt>
      <trkpt lat="44.3936" lon="4.10795">
        <ele>385</ele>
        <time>2014-05-09T11:57:37Z</time>
      </trkpt>
      <trkpt lat="44.39367" lon="4.10786">
        <ele>386</ele>
        <time>2014-05-09T11:57:47Z</time>
      </trkpt>
      <trkpt lat="44.39377" lon="4.1077">
        <ele>384</ele>
        <time>2014-05-09T11:58:16Z</time>
      </trkpt>
      <trkpt lat="44.39386" lon="4.10769">
        <ele>383</ele>
        <time>2014-05-09T11:58:24Z</time>
      </trkpt>
      <trkpt lat="44.39394" lon="4.10763">
        <ele>385</ele>
        <time>2014-05-09T11:58:34Z</time>
      </trkpt>
      <trkpt lat="44.39405" lon="4.10757">
        <ele>383</ele>
        <time>2014-05-09T11:58:47Z</time>
      </trkpt>
      <trkpt lat="44.39409" lon="4.10746">
        <ele>381</ele>
        <time>2014-05-09T11:59:03Z</time>
      </trkpt>
      <trkpt lat="44.39418" lon="4.10742">
        <ele>381</ele>
        <time>2014-05-09T11:59:17Z</time>
      </trkpt>
      <trkpt lat="44.39426" lon="4.10735">
        <ele>378</ele>
        <time>2014-05-09T11:59:30Z</time>
      </trkpt>
      <trkpt lat="44.39435" lon="4.10729">
        <ele>376</ele>
        <time>2014-05-09T11:59:42Z</time>
      </trkpt>
      <trkpt lat="44.39444" lon="4.1073">
        <ele>374</ele>
        <time>2014-05-09T11:59:52Z</time>
      </trkpt>
      <trkpt lat="44.39445" lon="4.10713">
        <ele>371</ele>
        <time>2014-05-09T12:00:24Z</time>
      </trkpt>
      <trkpt lat="44.3945" lon="4.10709">
        <ele>366</ele>
        <time>2014-05-09T12:01:00Z</time>
      </trkpt>
      <trkpt lat="44.3946" lon="4.10713">
        <ele>364</ele>
        <time>2014-05-09T12:01:26Z</time>
      </trkpt>
      <trkpt lat="44.39465" lon="4.10728">
        <ele>362</ele>
        <time>2014-05-09T12:01:48Z</time>
      </trkpt>
      <trkpt lat="44.39468" lon="4.10744">
        <ele>355</ele>
        <time>2014-05-09T12:02:20Z</time>
      </trkpt>
      <trkpt lat="44.39473" lon="4.1076">
        <ele>351</ele>
        <time>2014-05-09T12:02:46Z</time>
      </trkpt>
      <trkpt lat="44.39477" lon="4.10773">
        <ele>346</ele>
        <time>2014-05-09T12:03:10Z</time>
      </trkpt>
      <trkpt lat="44.39482" lon="4.10777">
        <ele>345</ele>
        <time>2014-05-09T12:03:22Z</time>
      </trkpt>
      <trkpt lat="44.39486" lon="4.10785">
        <ele>342</ele>
        <time>2014-05-09T12:03:46Z</time>
      </trkpt>
      <trkpt lat="44.39491" lon="4.10808">
        <ele>333</ele>
        <time>2014-05-09T12:04:20Z</time>
      </trkpt>
      <trkpt lat="44.39496" lon="4.10823">
        <ele>329</ele>
        <time>2014-05-09T12:04:42Z</time>
      </trkpt>
      <trkpt lat="44.39499" lon="4.10835">
        <ele>328</ele>
        <time>2014-05-09T12:04:51Z</time>
      </trkpt>
      <trkpt lat="44.39506" lon="4.10844">
        <ele>327</ele>
        <time>2014-05-09T12:05:04Z</time>
      </trkpt>
      <trkpt lat="44.39511" lon="4.10849">
        <ele>327</ele>
        <time>2014-05-09T12:05:48Z</time>
      </trkpt>
      <trkpt lat="44.39517" lon="4.1086">
        <ele>325</ele>
        <time>2014-05-09T12:06:06Z</time>
      </trkpt>
      <trkpt lat="44.39519" lon="4.10868">
        <ele>324</ele>
        <time>2014-05-09T12:06:22Z</time>
      </trkpt>
      <trkpt lat="44.39526" lon="4.1087">
        <ele>321</ele>
        <time>2014-05-09T12:06:38Z</time>
      </trkpt>
      <trkpt lat="44.39531" lon="4.10876">
        <ele>314</ele>
        <time>2014-05-09T12:07:13Z</time>
      </trkpt>
      <trkpt lat="44.39536" lon="4.10888">
        <ele>312</ele>
        <time>2014-05-09T12:07:33Z</time>
      </trkpt>
      <trkpt lat="44.39544" lon="4.10882">
        <ele>310</ele>
        <time>2014-05-09T12:07:58Z</time>
      </trkpt>
      <trkpt lat="44.39547" lon="4.10895">
        <ele>303</ele>
        <time>2014-05-09T12:08:30Z</time>
      </trkpt>
      <trkpt lat="44.39553" lon="4.109">
        <ele>294</ele>
        <time>2014-05-09T12:09:22Z</time>
      </trkpt>
      <trkpt lat="44.39559" lon="4.1089">
        <ele>295</ele>
        <time>2014-05-09T12:09:38Z</time>
      </trkpt>
      <trkpt lat="44.39561" lon="4.10877">
        <ele>294</ele>
        <time>2014-05-09T12:09:48Z</time>
      </trkpt>
      <trkpt lat="44.39564" lon="4.10865">
        <ele>291</ele>
        <time>2014-05-09T12:10:00Z</time>
      </trkpt>
      <trkpt lat="44.39559" lon="4.10852">
        <ele>292</ele>
        <time>2014-05-09T12:10:11Z</time>
      </trkpt>
      <trkpt lat="44.39557" lon="4.10839">
        <ele>294</ele>
        <time>2014-05-09T12:10:25Z</time>
      </trkpt>
      <trkpt lat="44.39558" lon="4.10826">
        <ele>294</ele>
        <time>2014-05-09T12:10:37Z</time>
      </trkpt>
      <trkpt lat="44.39564" lon="4.10815">
        <ele>294</ele>
        <time>2014-05-09T12:10:52Z</time>
      </trkpt>
      <trkpt lat="44.39569" lon="4.10803">
        <ele>294</ele>
        <time>2014-05-09T12:11:01Z</time>
      </trkpt>
      <trkpt lat="44.39572" lon="4.10791">
        <ele>295</ele>
        <time>2014-05-09T12:11:11Z</time>
      </trkpt>
      <trkpt lat="44.39576" lon="4.10779">
        <ele>294</ele>
        <time>2014-05-09T12:11:19Z</time>
      </trkpt>
      <trkpt lat="44.3958" lon="4.10767">
        <ele>293</ele>
        <time>2014-05-09T12:11:28Z</time>
      </trkpt>
      <trkpt lat="44.39586" lon="4.10755">
        <ele>290</ele>
        <time>2014-05-09T12:11:45Z</time>
      </trkpt>
      <trkpt lat="44.39592" lon="4.10754">
        <ele>288</ele>
        <time>2014-05-09T12:11:59Z</time>
      </trkpt>
      <trkpt lat="44.39595" lon="4.10761">
        <ele>279</ele>
        <time>2014-05-09T12:12:19Z</time>
      </trkpt>
      <trkpt lat="44.39609" lon="4.10768">
        <ele>270</ele>
        <time>2014-05-09T12:13:05Z</time>
      </trkpt>
      <trkpt lat="44.39613" lon="4.10785">
        <ele>267</ele>
        <time>2014-05-09T12:13:18Z</time>
      </trkpt>
      <trkpt lat="44.39613" lon="4.10798">
        <ele>262</ele>
        <time>2014-05-09T12:13:30Z</time>
      </trkpt>
      <trkpt lat="44.39606" lon="4.1081">
        <ele>260</ele>
        <time>2014-05-09T12:13:45Z</time>
      </trkpt>
      <trkpt lat="44.39603" lon="4.10817">
        <ele>262</ele>
        <time>2014-05-09T12:13:59Z</time>
      </trkpt>
      <trkpt lat="44.39604" lon="4.1083">
        <ele>264</ele>
        <time>2014-05-09T12:14:10Z</time>
      </trkpt>
      <trkpt lat="44.39603" lon="4.10843">
        <ele>264</ele>
        <time>2014-05-09T12:14:18Z</time>
      </trkpt>
      <trkpt lat="44.39606" lon="4.10859">
        <ele>260</ele>
        <time>2014-05-09T12:14:41Z</time>
      </trkpt>
      <trkpt lat="44.39609" lon="4.10871">
        <ele>256</ele>
        <time>2014-05-09T12:14:51Z</time>
      </trkpt>
      <trkpt lat="44.39614" lon="4.10883">
        <ele>253</ele>
        <time>2014-05-09T12:15:02Z</time>
      </trkpt>
      <trkpt lat="44.3962" lon="4.10893">
        <ele>254</ele>
        <time>2014-05-09T12:15:18Z</time>
      </trkpt>
      <trkpt lat="44.39629" lon="4.10899">
        <ele>256</ele>
        <time>2014-05-09T12:15:43Z</time>
      </trkpt>
      <trkpt lat="44.39633" lon="4.10903">
        <ele>254</ele>
        <time>2014-05-09T12:15:57Z</time>
      </trkpt>
      <trkpt lat="44.39638" lon="4.10906">
        <ele>253</ele>
        <time>2014-05-09T12:16:09Z</time>
      </trkpt>
      <trkpt lat="44.39642" lon="4.10919">
        <ele>251</ele>
        <time>2014-05-09T12:16:17Z</time>
      </trkpt>
      <trkpt lat="44.39642" lon="4.10933">
        <ele>249</ele>
        <time>2014-05-09T12:16:32Z</time>
      </trkpt>
      <trkpt lat="44.39638" lon="4.10944">
        <ele>248</ele>
        <time>2014-05-09T12:16:40Z</time>
      </trkpt>
      <trkpt lat="44.39634" lon="4.10956">
        <ele>241</ele>
        <time>2014-05-09T12:16:51Z</time>
      </trkpt>
      <trkpt lat="44.39631" lon="4.10968">
        <ele>239</ele>
        <time>2014-05-09T12:17:04Z</time>
      </trkpt>
      <trkpt lat="44.39624" lon="4.10976">
        <ele>235</ele>
        <time>2014-05-09T12:17:16Z</time>
      </trkpt>
      <trkpt lat="44.3962" lon="4.10983">
        <ele>237</ele>
        <time>2014-05-09T12:17:32Z</time>
      </trkpt>
      <trkpt lat="44.39614" lon="4.10997">
        <ele>241</ele>
        <time>2014-05-09T12:17:56Z</time>
      </trkpt>
      <trkpt lat="44.39616" lon="4.11006">
        <ele>237</ele>
        <time>2014-05-09T12:18:17Z</time>
      </trkpt>
      <trkpt lat="44.39623" lon="4.11013">
        <ele>235</ele>
        <time>2014-05-09T12:18:34Z</time>
      </trkpt>
      <trkpt lat="44.39631" lon="4.11021">
        <ele>233</ele>
        <time>2014-05-09T12:18:47Z</time>
      </trkpt>
      <trkpt lat="44.3964" lon="4.11027">
        <ele>234</ele>
        <time>2014-05-09T12:18:57Z</time>
      </trkpt>
      <trkpt lat="44.39646" lon="4.11032">
        <ele>240</ele>
        <time>2014-05-09T12:20:48Z</time>
      </trkpt>
      <trkpt lat="44.3965" lon="4.11038">
        <ele>241</ele>
        <time>2014-05-09T12:21:36Z</time>
      </trkpt>
      <trkpt lat="44.39643" lon="4.11048">
        <ele>242</ele>
        <time>2014-05-09T12:21:56Z</time>
      </trkpt>
      <trkpt lat="44.39641" lon="4.11059">
        <ele>239</ele>
        <time>2014-05-09T12:22:31Z</time>
      </trkpt>
      <trkpt lat="44.39645" lon="4.1107">
        <ele>238</ele>
        <time>2014-05-09T12:22:44Z</time>
      </trkpt>
      <trkpt lat="44.39656" lon="4.11067">
        <ele>238</ele>
        <time>2014-05-09T12:22:57Z</time>
      </trkpt>
      <trkpt lat="44.39666" lon="4.11068">
        <ele>239</ele>
        <time>2014-05-09T12:23:04Z</time>
      </trkpt>
      <trkpt lat="44.39671" lon="4.11068">
        <ele>241</ele>
        <time>2014-05-09T12:23:09Z</time>
      </trkpt>
      <trkpt lat="44.3968" lon="4.11072">
        <ele>239</ele>
        <time>2014-05-09T12:23:19Z</time>
      </trkpt>
      <trkpt lat="44.39687" lon="4.11075">
        <ele>238</ele>
        <time>2014-05-09T12:23:23Z</time>
      </trkpt>
      <trkpt lat="44.39697" lon="4.11079">
        <ele>232</ele>
        <time>2014-05-09T12:23:37Z</time>
      </trkpt>
      <trkpt lat="44.39706" lon="4.11082">
        <ele>230</ele>
        <time>2014-05-09T12:23:48Z</time>
      </trkpt>
      <trkpt lat="44.39716" lon="4.1108">
        <ele>236</ele>
        <time>2014-05-09T12:24:13Z</time>
      </trkpt>
      <trkpt lat="44.39722" lon="4.1109">
        <ele>235</ele>
        <time>2014-05-09T12:24:22Z</time>
      </trkpt>
      <trkpt lat="44.39726" lon="4.11098">
        <ele>236</ele>
        <time>2014-05-09T12:24:33Z</time>
      </trkpt>
      <trkpt lat="44.39727" lon="4.11106">
        <ele>237</ele>
        <time>2014-05-09T12:24:47Z</time>
      </trkpt>
      <trkpt lat="44.39732" lon="4.1111">
        <ele>240</ele>
        <time>2014-05-09T12:25:25Z</time>
      </trkpt>
      <trkpt lat="44.3973" lon="4.11122">
        <ele>242</ele>
        <time>2014-05-09T12:25:54Z</time>
      </trkpt>
      <trkpt lat="44.39731" lon="4.11129">
        <ele>241</ele>
        <time>2014-05-09T12:26:00Z</time>
      </trkpt>
      <trkpt lat="44.39733" lon="4.11135">
        <ele>242</ele>
        <time>2014-05-09T12:26:06Z</time>
      </trkpt>
      <trkpt lat="44.39736" lon="4.1114">
        <ele>241</ele>
        <time>2014-05-09T12:26:12Z</time>
      </trkpt>
      <trkpt lat="44.3974" lon="4.11146">
        <ele>240</ele>
        <time>2014-05-09T12:26:18Z</time>
      </trkpt>
      <trkpt lat="44.39743" lon="4.11151">
        <ele>241</ele>
        <time>2014-05-09T12:26:23Z</time>
      </trkpt>
      <trkpt lat="44.39743" lon="4.11155">
        <ele>241</ele>
        <time>2014-05-09T12:26:29Z</time>
      </trkpt>
      <trkpt lat="44.39747" lon="4.11161">
        <ele>240</ele>
        <time>2014-05-09T12:26:37Z</time>
      </trkpt>
      <trkpt lat="44.3975" lon="4.11165">
        <ele>240</ele>
        <time>2014-05-09T12:26:40Z</time>
      </trkpt>
      <trkpt lat="44.39754" lon="4.11171">
        <ele>240</ele>
        <time>2014-05-09T12:26:45Z</time>
      </trkpt>
      <trkpt lat="44.39757" lon="4.11176">
        <ele>241</ele>
        <time>2014-05-09T12:26:52Z</time>
      </trkpt>
      <trkpt lat="44.3976" lon="4.1118">
        <ele>241</ele>
        <time>2014-05-09T12:26:56Z</time>
      </trkpt>
      <trkpt lat="44.39764" lon="4.11185">
        <ele>241</ele>
        <time>2014-05-09T12:27:00Z</time>
      </trkpt>
      <trkpt lat="44.39768" lon="4.11189">
        <ele>242</ele>
        <time>2014-05-09T12:27:04Z</time>
      </trkpt>
      <trkpt lat="44.39775" lon="4.11196">
        <ele>242</ele>
        <time>2014-05-09T12:27:13Z</time>
      </trkpt>
      <trkpt lat="44.39779" lon="4.112">
        <ele>241</ele>
        <time>2014-05-09T12:27:19Z</time>
      </trkpt>
      <trkpt lat="44.39783" lon="4.112">
        <ele>241</ele>
        <time>2014-05-09T12:27:24Z</time>
      </trkpt>
      <trkpt lat="44.3979" lon="4.11203">
        <ele>242</ele>
        <time>2014-05-09T12:27:29Z</time>
      </trkpt>
      <trkpt lat="44.39793" lon="4.11208">
        <ele>245</ele>
        <time>2014-05-09T12:27:37Z</time>
      </trkpt>
      <trkpt lat="44.39795" lon="4.11214">
        <ele>246</ele>
        <time>2014-05-09T12:27:41Z</time>
      </trkpt>
      <trkpt lat="44.398" lon="4.11218">
        <ele>244</ele>
        <time>2014-05-09T12:27:47Z</time>
      </trkpt>
      <trkpt lat="44.39803" lon="4.11222">
        <ele>244</ele>
        <time>2014-05-09T12:27:52Z</time>
      </trkpt>
      <trkpt lat="44.39806" lon="4.11228">
        <ele>243</ele>
        <time>2014-05-09T12:27:57Z</time>
      </trkpt>
      <trkpt lat="44.39809" lon="4.11234">
        <ele>244</ele>
        <time>2014-05-09T12:28:02Z</time>
      </trkpt>
      <trkpt lat="44.39811" lon="4.1124">
        <ele>245</ele>
        <time>2014-05-09T12:28:09Z</time>
      </trkpt>
      <trkpt lat="44.39815" lon="4.11252">
        <ele>246</ele>
        <time>2014-05-09T12:28:18Z</time>
      </trkpt>
      <trkpt lat="44.39818" lon="4.11261">
        <ele>249</ele>
        <time>2014-05-09T12:28:26Z</time>
      </trkpt>
      <trkpt lat="44.39818" lon="4.11282">
        <ele>255</ele>
        <time>2014-05-09T12:28:39Z</time>
      </trkpt>
      <trkpt lat="44.39818" lon="4.11289">
        <ele>255</ele>
        <time>2014-05-09T12:28:43Z</time>
      </trkpt>
      <trkpt lat="44.39821" lon="4.11296">
        <ele>254</ele>
        <time>2014-05-09T12:28:48Z</time>
      </trkpt>
      <trkpt lat="44.39822" lon="4.11302">
        <ele>252</ele>
        <time>2014-05-09T12:28:52Z</time>
      </trkpt>
      <trkpt lat="44.39821" lon="4.11316">
        <ele>250</ele>
        <time>2014-05-09T12:29:00Z</time>
      </trkpt>
      <trkpt lat="44.39823" lon="4.11324">
        <ele>251</ele>
        <time>2014-05-09T12:29:07Z</time>
      </trkpt>
      <trkpt lat="44.39826" lon="4.11331">
        <ele>251</ele>
        <time>2014-05-09T12:29:12Z</time>
      </trkpt>
      <trkpt lat="44.39827" lon="4.11334">
        <ele>250</ele>
        <time>2014-05-09T12:29:19Z</time>
      </trkpt>
      <trkpt lat="44.39827" lon="4.11342">
        <ele>250</ele>
        <time>2014-05-09T12:29:23Z</time>
      </trkpt>
      <trkpt lat="44.39828" lon="4.11349">
        <ele>250</ele>
        <time>2014-05-09T12:29:27Z</time>
      </trkpt>
      <trkpt lat="44.3983" lon="4.11364">
        <ele>253</ele>
        <time>2014-05-09T12:29:36Z</time>
      </trkpt>
      <trkpt lat="44.3983" lon="4.11373">
        <ele>254</ele>
        <time>2014-05-09T12:29:46Z</time>
      </trkpt>
      <trkpt lat="44.3983" lon="4.11379">
        <ele>254</ele>
        <time>2014-05-09T12:29:50Z</time>
      </trkpt>
      <trkpt lat="44.39832" lon="4.11387">
        <ele>252</ele>
        <time>2014-05-09T12:29:56Z</time>
      </trkpt>
      <trkpt lat="44.39832" lon="4.11394">
        <ele>253</ele>
        <time>2014-05-09T12:30:01Z</time>
      </trkpt>
      <trkpt lat="44.39832" lon="4.11401">
        <ele>254</ele>
        <time>2014-05-09T12:30:08Z</time>
      </trkpt>
      <trkpt lat="44.39833" lon="4.11408">
        <ele>255</ele>
        <time>2014-05-09T12:30:12Z</time>
      </trkpt>
      <trkpt lat="44.39833" lon="4.11414">
        <ele>255</ele>
        <time>2014-05-09T12:30:16Z</time>
      </trkpt>
      <trkpt lat="44.39835" lon="4.11421">
        <ele>254</ele>
        <time>2014-05-09T12:30:21Z</time>
      </trkpt>
      <trkpt lat="44.39837" lon="4.11427">
        <ele>252</ele>
        <time>2014-05-09T12:30:25Z</time>
      </trkpt>
      <trkpt lat="44.39838" lon="4.11434">
        <ele>251</ele>
        <time>2014-05-09T12:30:28Z</time>
      </trkpt>
      <trkpt lat="44.3984" lon="4.11441">
        <ele>249</ele>
        <time>2014-05-09T12:30:33Z</time>
      </trkpt>
      <trkpt lat="44.39843" lon="4.11446">
        <ele>249</ele>
        <time>2014-05-09T12:30:37Z</time>
      </trkpt>
      <trkpt lat="44.39846" lon="4.11452">
        <ele>250</ele>
        <time>2014-05-09T12:30:42Z</time>
      </trkpt>
      <trkpt lat="44.39849" lon="4.11457">
        <ele>251</ele>
        <time>2014-05-09T12:30:47Z</time>
      </trkpt>
      <trkpt lat="44.39852" lon="4.11462">
        <ele>251</ele>
        <time>2014-05-09T12:30:52Z</time>
      </trkpt>
      <trkpt lat="44.39857" lon="4.11466">
        <ele>251</ele>
        <time>2014-05-09T12:30:57Z</time>
      </trkpt>
      <trkpt lat="44.39861" lon="4.1147">
        <ele>250</ele>
        <time>2014-05-09T12:31:01Z</time>
      </trkpt>
      <trkpt lat="44.39864" lon="4.11475">
        <ele>247</ele>
        <time>2014-05-09T12:31:06Z</time>
      </trkpt>
      <trkpt lat="44.39869" lon="4.1148">
        <ele>248</ele>
        <time>2014-05-09T12:31:11Z</time>
      </trkpt>
      <trkpt lat="44.39873" lon="4.1148">
        <ele>251</ele>
        <time>2014-05-09T12:31:21Z</time>
      </trkpt>
      <trkpt lat="44.39878" lon="4.11468">
        <ele>254</ele>
        <time>2014-05-09T12:31:41Z</time>
      </trkpt>
      <trkpt lat="44.39875" lon="4.11463">
        <ele>255</ele>
        <time>2014-05-09T12:31:48Z</time>
      </trkpt>
      <trkpt lat="44.39868" lon="4.11456">
        <ele>254</ele>
        <time>2014-05-09T12:31:57Z</time>
      </trkpt>
      <trkpt lat="44.39872" lon="4.11453">
        <ele>257</ele>
        <time>2014-05-09T12:32:13Z</time>
      </trkpt>
      <trkpt lat="44.39879" lon="4.11455">
        <ele>259</ele>
        <time>2014-05-09T12:32:20Z</time>
      </trkpt>
      <trkpt lat="44.39884" lon="4.11453">
        <ele>260</ele>
        <time>2014-05-09T12:32:36Z</time>
      </trkpt>
      <trkpt lat="44.39895" lon="4.1145">
        <ele>260</ele>
        <time>2014-05-09T12:32:51Z</time>
      </trkpt>
      <trkpt lat="44.39906" lon="4.11448">
        <ele>257</ele>
        <time>2014-05-09T12:33:14Z</time>
      </trkpt>
      <trkpt lat="44.39911" lon="4.11444">
        <ele>256</ele>
        <time>2014-05-09T12:33:28Z</time>
      </trkpt>
      <trkpt lat="44.39918" lon="4.1144">
        <ele>258</ele>
        <time>2014-05-09T12:33:44Z</time>
      </trkpt>
      <trkpt lat="44.3992" lon="4.11427">
        <ele>257</ele>
        <time>2014-05-09T12:34:10Z</time>
      </trkpt>
      <trkpt lat="44.39916" lon="4.11421">
        <ele>263</ele>
        <time>2014-05-09T12:34:28Z</time>
      </trkpt>
      <trkpt lat="44.39921" lon="4.11412">
        <ele>271</ele>
        <time>2014-05-09T12:34:57Z</time>
      </trkpt>
      <trkpt lat="44.39925" lon="4.11408">
        <ele>280</ele>
        <time>2014-05-09T12:35:07Z</time>
      </trkpt>
      <trkpt lat="44.39931" lon="4.11406">
        <ele>282</ele>
        <time>2014-05-09T12:35:15Z</time>
      </trkpt>
      <trkpt lat="44.39934" lon="4.114">
        <ele>284</ele>
        <time>2014-05-09T12:35:21Z</time>
      </trkpt>
      <trkpt lat="44.39937" lon="4.11399">
        <ele>285</ele>
        <time>2014-05-09T12:35:28Z</time>
      </trkpt>
      <trkpt lat="44.39945" lon="4.11401">
        <ele>285</ele>
        <time>2014-05-09T12:35:45Z</time>
      </trkpt>
      <trkpt lat="44.39945" lon="4.11404">
        <ele>290</ele>
        <time>2014-05-09T12:37:20Z</time>
      </trkpt>
      <trkpt lat="44.39945" lon="4.11403">
        <ele>290</ele>
        <time>2014-05-09T13:18:13Z</time>
      </trkpt>
      <trkpt lat="44.39941" lon="4.11402">
        <ele>290</ele>
        <time>2014-05-09T13:20:53Z</time>
      </trkpt>
      <trkpt lat="44.3994" lon="4.11405">
        <ele>290</ele>
        <time>2014-05-09T13:21:20Z</time>
      </trkpt>
      <trkpt lat="44.39938" lon="4.11413">
        <ele>290</ele>
        <time>2014-05-09T13:21:30Z</time>
      </trkpt>
      <trkpt lat="44.39934" lon="4.11421">
        <ele>292</ele>
        <time>2014-05-09T13:22:06Z</time>
      </trkpt>
      <trkpt lat="44.39933" lon="4.11424">
        <ele>293</ele>
        <time>2014-05-09T13:22:17Z</time>
      </trkpt>
      <trkpt lat="44.39931" lon="4.11429">
        <ele>292</ele>
        <time>2014-05-09T13:22:28Z</time>
      </trkpt>
      <trkpt lat="44.39931" lon="4.11433">
        <ele>289</ele>
        <time>2014-05-09T13:23:07Z</time>
      </trkpt>
      <trkpt lat="44.39935" lon="4.11431">
        <ele>288</ele>
        <time>2014-05-09T13:24:30Z</time>
      </trkpt>
      <trkpt lat="44.39935" lon="4.11426">
        <ele>288</ele>
        <time>2014-05-09T13:24:38Z</time>
      </trkpt>
      <trkpt lat="44.39932" lon="4.1142">
        <ele>285</ele>
        <time>2014-05-09T13:24:55Z</time>
      </trkpt>
      <trkpt lat="44.39933" lon="4.1141">
        <ele>283</ele>
        <time>2014-05-09T13:25:13Z</time>
      </trkpt>
      <trkpt lat="44.39939" lon="4.11399">
        <ele>283</ele>
        <time>2014-05-09T13:25:22Z</time>
      </trkpt>
      <trkpt lat="44.39943" lon="4.11392">
        <ele>288</ele>
        <time>2014-05-09T13:25:36Z</time>
      </trkpt>
      <trkpt lat="44.39962" lon="4.1139">
        <ele>289</ele>
        <time>2014-05-09T13:27:39Z</time>
      </trkpt>
      <trkpt lat="44.39973" lon="4.11397">
        <ele>290</ele>
        <time>2014-05-09T13:27:52Z</time>
      </trkpt>
      <trkpt lat="44.39989" lon="4.11405">
        <ele>290</ele>
        <time>2014-05-09T13:28:19Z</time>
      </trkpt>
      <trkpt lat="44.39997" lon="4.11403">
        <ele>289</ele>
        <time>2014-05-09T13:28:36Z</time>
      </trkpt>
      <trkpt lat="44.40008" lon="4.11408">
        <ele>290</ele>
        <time>2014-05-09T13:28:49Z</time>
      </trkpt>
      <trkpt lat="44.40017" lon="4.11407">
        <ele>290</ele>
        <time>2014-05-09T13:29:05Z</time>
      </trkpt>
      <trkpt lat="44.40027" lon="4.11409">
        <ele>289</ele>
        <time>2014-05-09T13:29:24Z</time>
      </trkpt>
      <trkpt lat="44.40037" lon="4.11405">
        <ele>287</ele>
        <time>2014-05-09T13:29:34Z</time>
      </trkpt>
      <trkpt lat="44.40044" lon="4.11403">
        <ele>287</ele>
        <time>2014-05-09T13:29:43Z</time>
      </trkpt>
      <trkpt lat="44.40049" lon="4.114">
        <ele>286</ele>
        <time>2014-05-09T13:30:00Z</time>
      </trkpt>
      <trkpt lat="44.40055" lon="4.1139">
        <ele>285</ele>
        <time>2014-05-09T13:30:02Z</time>
      </trkpt>
      <trkpt lat="44.40062" lon="4.11383">
        <ele>284</ele>
        <time>2014-05-09T13:30:05Z</time>
      </trkpt>
      <trkpt lat="44.40067" lon="4.11381">
        <ele>282</ele>
        <time>2014-05-09T13:30:09Z</time>
      </trkpt>
      <trkpt lat="44.40076" lon="4.11368">
        <ele>276</ele>
        <time>2014-05-09T13:30:35Z</time>
      </trkpt>
      <trkpt lat="44.40078" lon="4.11361">
        <ele>276</ele>
        <time>2014-05-09T13:30:42Z</time>
      </trkpt>
      <trkpt lat="44.4008" lon="4.11354">
        <ele>275</ele>
        <time>2014-05-09T13:30:48Z</time>
      </trkpt>
      <trkpt lat="44.40082" lon="4.11348">
        <ele>276</ele>
        <time>2014-05-09T13:30:53Z</time>
      </trkpt>
      <trkpt lat="44.40087" lon="4.11335">
        <ele>276</ele>
        <time>2014-05-09T13:31:06Z</time>
      </trkpt>
      <trkpt lat="44.40091" lon="4.11329">
        <ele>276</ele>
        <time>2014-05-09T13:31:13Z</time>
      </trkpt>
      <trkpt lat="44.40097" lon="4.11318">
        <ele>275</ele>
        <time>2014-05-09T13:31:39Z</time>
      </trkpt>
      <trkpt lat="44.40101" lon="4.11313">
        <ele>275</ele>
        <time>2014-05-09T13:31:43Z</time>
      </trkpt>
      <trkpt lat="44.40103" lon="4.11308">
        <ele>275</ele>
        <time>2014-05-09T13:31:47Z</time>
      </trkpt>
      <trkpt lat="44.40105" lon="4.11303">
        <ele>273</ele>
        <time>2014-05-09T13:31:56Z</time>
      </trkpt>
      <trkpt lat="44.40107" lon="4.11298">
        <ele>272</ele>
        <time>2014-05-09T13:32:16Z</time>
      </trkpt>
      <trkpt lat="44.40112" lon="4.11294">
        <ele>274</ele>
        <time>2014-05-09T13:32:32Z</time>
      </trkpt>
      <trkpt lat="44.40116" lon="4.1129">
        <ele>273</ele>
        <time>2014-05-09T13:32:37Z</time>
      </trkpt>
      <trkpt lat="44.40119" lon="4.11285">
        <ele>273</ele>
        <time>2014-05-09T13:32:43Z</time>
      </trkpt>
      <trkpt lat="44.40122" lon="4.1128">
        <ele>271</ele>
        <time>2014-05-09T13:32:47Z</time>
      </trkpt>
      <trkpt lat="44.40125" lon="4.11275">
        <ele>271</ele>
        <time>2014-05-09T13:32:51Z</time>
      </trkpt>
      <trkpt lat="44.40129" lon="4.1127">
        <ele>270</ele>
        <time>2014-05-09T13:32:56Z</time>
      </trkpt>
      <trkpt lat="44.40133" lon="4.11266">
        <ele>269</ele>
        <time>2014-05-09T13:33:02Z</time>
      </trkpt>
      <trkpt lat="44.40136" lon="4.1126">
        <ele>268</ele>
        <time>2014-05-09T13:33:07Z</time>
      </trkpt>
      <trkpt lat="44.40139" lon="4.11255">
        <ele>268</ele>
        <time>2014-05-09T13:33:12Z</time>
      </trkpt>
      <trkpt lat="44.40143" lon="4.11251">
        <ele>268</ele>
        <time>2014-05-09T13:33:17Z</time>
      </trkpt>
      <trkpt lat="44.40147" lon="4.11246">
        <ele>267</ele>
        <time>2014-05-09T13:33:21Z</time>
      </trkpt>
      <trkpt lat="44.4015" lon="4.11242">
        <ele>267</ele>
        <time>2014-05-09T13:33:25Z</time>
      </trkpt>
      <trkpt lat="44.40154" lon="4.11239">
        <ele>267</ele>
        <time>2014-05-09T13:33:28Z</time>
      </trkpt>
      <trkpt lat="44.40159" lon="4.11234">
        <ele>267</ele>
        <time>2014-05-09T13:33:33Z</time>
      </trkpt>
      <trkpt lat="44.40162" lon="4.11229">
        <ele>266</ele>
        <time>2014-05-09T13:33:38Z</time>
      </trkpt>
      <trkpt lat="44.40164" lon="4.11223">
        <ele>266</ele>
        <time>2014-05-09T13:33:43Z</time>
      </trkpt>
      <trkpt lat="44.40167" lon="4.11215">
        <ele>266</ele>
        <time>2014-05-09T13:34:03Z</time>
      </trkpt>
      <trkpt lat="44.4017" lon="4.11209">
        <ele>265</ele>
        <time>2014-05-09T13:34:07Z</time>
      </trkpt>
      <trkpt lat="44.40172" lon="4.11203">
        <ele>265</ele>
        <time>2014-05-09T13:34:11Z</time>
      </trkpt>
      <trkpt lat="44.40174" lon="4.11196">
        <ele>264</ele>
        <time>2014-05-09T13:34:15Z</time>
      </trkpt>
      <trkpt lat="44.40177" lon="4.1119">
        <ele>263</ele>
        <time>2014-05-09T13:34:20Z</time>
      </trkpt>
      <trkpt lat="44.40179" lon="4.11184">
        <ele>263</ele>
        <time>2014-05-09T13:34:24Z</time>
      </trkpt>
      <trkpt lat="44.40179" lon="4.11177">
        <ele>263</ele>
        <time>2014-05-09T13:34:30Z</time>
      </trkpt>
      <trkpt lat="44.40179" lon="4.11174">
        <ele>262</ele>
        <time>2014-05-09T13:34:58Z</time>
      </trkpt>
      <trkpt lat="44.40181" lon="4.11167">
        <ele>262</ele>
        <time>2014-05-09T13:35:02Z</time>
      </trkpt>
      <trkpt lat="44.40183" lon="4.11161">
        <ele>262</ele>
        <time>2014-05-09T13:35:08Z</time>
      </trkpt>
      <trkpt lat="44.40186" lon="4.11155">
        <ele>262</ele>
        <time>2014-05-09T13:35:13Z</time>
      </trkpt>
      <trkpt lat="44.4019" lon="4.11151">
        <ele>263</ele>
        <time>2014-05-09T13:35:17Z</time>
      </trkpt>
      <trkpt lat="44.40194" lon="4.11147">
        <ele>263</ele>
        <time>2014-05-09T13:35:22Z</time>
      </trkpt>
      <trkpt lat="44.40197" lon="4.11141">
        <ele>263</ele>
        <time>2014-05-09T13:35:27Z</time>
      </trkpt>
      <trkpt lat="44.40201" lon="4.11145">
        <ele>262</ele>
        <time>2014-05-09T13:35:34Z</time>
      </trkpt>
      <trkpt lat="44.40204" lon="4.11138">
        <ele>263</ele>
        <time>2014-05-09T13:35:46Z</time>
      </trkpt>
      <trkpt lat="44.40207" lon="4.11133">
        <ele>263</ele>
        <time>2014-05-09T13:35:52Z</time>
      </trkpt>
      <trkpt lat="44.40206" lon="4.11129">
        <ele>261</ele>
        <time>2014-05-09T13:36:21Z</time>
      </trkpt>
      <trkpt lat="44.40204" lon="4.11127">
        <ele>261</ele>
        <time>2014-05-09T13:36:33Z</time>
      </trkpt>
      <trkpt lat="44.40204" lon="4.1112">
        <ele>262</ele>
        <time>2014-05-09T13:36:57Z</time>
      </trkpt>
      <trkpt lat="44.40207" lon="4.11115">
        <ele>261</ele>
        <time>2014-05-09T13:37:06Z</time>
      </trkpt>
      <trkpt lat="44.40211" lon="4.11108">
        <ele>262</ele>
        <time>2014-05-09T13:37:11Z</time>
      </trkpt>
      <trkpt lat="44.40213" lon="4.111">
        <ele>263</ele>
        <time>2014-05-09T13:37:18Z</time>
      </trkpt>
      <trkpt lat="44.40215" lon="4.11093">
        <ele>264</ele>
        <time>2014-05-09T13:37:24Z</time>
      </trkpt>
      <trkpt lat="44.40216" lon="4.11086">
        <ele>264</ele>
        <time>2014-05-09T13:37:28Z</time>
      </trkpt>
      <trkpt lat="44.4022" lon="4.11074">
        <ele>264</ele>
        <time>2014-05-09T13:37:36Z</time>
      </trkpt>
      <trkpt lat="44.40219" lon="4.11068">
        <ele>264</ele>
        <time>2014-05-09T13:37:42Z</time>
      </trkpt>
      <trkpt lat="44.40219" lon="4.11059">
        <ele>264</ele>
        <time>2014-05-09T13:37:48Z</time>
      </trkpt>
      <trkpt lat="44.4022" lon="4.11048">
        <ele>264</ele>
        <time>2014-05-09T13:37:56Z</time>
      </trkpt>
      <trkpt lat="44.40221" lon="4.11039">
        <ele>264</ele>
        <time>2014-05-09T13:38:02Z</time>
      </trkpt>
      <trkpt lat="44.40221" lon="4.11032">
        <ele>263</ele>
        <time>2014-05-09T13:38:09Z</time>
      </trkpt>
      <trkpt lat="44.40223" lon="4.11019">
        <ele>263</ele>
        <time>2014-05-09T13:38:18Z</time>
      </trkpt>
      <trkpt lat="44.40223" lon="4.1101">
        <ele>263</ele>
        <time>2014-05-09T13:38:24Z</time>
      </trkpt>
      <trkpt lat="44.40227" lon="4.10998">
        <ele>262</ele>
        <time>2014-05-09T13:38:33Z</time>
      </trkpt>
      <trkpt lat="44.40228" lon="4.10985">
        <ele>262</ele>
        <time>2014-05-09T13:38:41Z</time>
      </trkpt>
      <trkpt lat="44.40229" lon="4.10976">
        <ele>262</ele>
        <time>2014-05-09T13:38:49Z</time>
      </trkpt>
      <trkpt lat="44.40229" lon="4.1097">
        <ele>262</ele>
        <time>2014-05-09T13:38:54Z</time>
      </trkpt>
      <trkpt lat="44.40231" lon="4.10963">
        <ele>263</ele>
        <time>2014-05-09T13:38:59Z</time>
      </trkpt>
      <trkpt lat="44.40233" lon="4.10957">
        <ele>263</ele>
        <time>2014-05-09T13:39:05Z</time>
      </trkpt>
      <trkpt lat="44.40233" lon="4.10949">
        <ele>263</ele>
        <time>2014-05-09T13:39:12Z</time>
      </trkpt>
      <trkpt lat="44.40233" lon="4.1094">
        <ele>262</ele>
        <time>2014-05-09T13:39:18Z</time>
      </trkpt>
      <trkpt lat="44.40236" lon="4.10934">
        <ele>261</ele>
        <time>2014-05-09T13:39:24Z</time>
      </trkpt>
      <trkpt lat="44.40241" lon="4.10929">
        <ele>260</ele>
        <time>2014-05-09T13:39:29Z</time>
      </trkpt>
      <trkpt lat="44.40246" lon="4.10928">
        <ele>260</ele>
        <time>2014-05-09T13:39:34Z</time>
      </trkpt>
      <trkpt lat="44.4025" lon="4.10927">
        <ele>261</ele>
        <time>2014-05-09T13:39:39Z</time>
      </trkpt>
      <trkpt lat="44.40256" lon="4.10928">
        <ele>262</ele>
        <time>2014-05-09T13:39:44Z</time>
      </trkpt>
      <trkpt lat="44.40261" lon="4.10928">
        <ele>262</ele>
        <time>2014-05-09T13:39:49Z</time>
      </trkpt>
      <trkpt lat="44.40267" lon="4.1093">
        <ele>263</ele>
        <time>2014-05-09T13:39:56Z</time>
      </trkpt>
      <trkpt lat="44.40272" lon="4.10932">
        <ele>263</ele>
        <time>2014-05-09T13:40:02Z</time>
      </trkpt>
    </trkseg>
  </trk>
</gpx>